<?xml version="1.0" encoding="UTF-8" standalone="no" ?>
<gpx xmlns="http://www.topografix.com/GPX/1/1" xmlns:xsi="http://www.w3.org/2001/XMLSchema-instance" xsi:schemaLocation="http://www.topografix.com/GPX/1/1 http://www.topografix.com/GPX/1/1/gpx.xsd" version="1.1" creator="VisuGPX - https://www.visugpx.com">
  <metadata>
    <name>Valbonne - Radar DGAC</name>
    <desc><![CDATA[Valbonne - Radar DGAC en VTT]]></desc>
  </metadata>
  <trk>
    <name><![CDATA[Track 001]]></name>
    <trkseg>
      <trkpt lat="43.641" lon="7.00831">
        <ele>227.5</ele>
        <time>2009-03-15T10:49:11Z</time>
      </trkpt>
      <trkpt lat="43.64122" lon="7.0082">
        <ele>233.7</ele>
        <time>2009-03-15T10:49:54Z</time>
      </trkpt>
      <trkpt lat="43.64145" lon="7.00787">
        <ele>225.6</ele>
        <time>2009-03-15T10:50:06Z</time>
      </trkpt>
      <trkpt lat="43.64174" lon="7.00795">
        <ele>227</ele>
        <time>2009-03-15T10:50:17Z</time>
      </trkpt>
      <trkpt lat="43.64202" lon="7.008">
        <ele>231.3</ele>
        <time>2009-03-15T10:50:28Z</time>
      </trkpt>
      <trkpt lat="43.64232" lon="7.00792">
        <ele>236.1</ele>
        <time>2009-03-15T10:50:54Z</time>
      </trkpt>
      <trkpt lat="43.64232" lon="7.00752">
        <ele>230.4</ele>
        <time>2009-03-15T10:51:01Z</time>
      </trkpt>
      <trkpt lat="43.64251" lon="7.00725">
        <ele>228</ele>
        <time>2009-03-15T10:51:07Z</time>
      </trkpt>
      <trkpt lat="43.6428" lon="7.00724">
        <ele>227</ele>
        <time>2009-03-15T10:51:16Z</time>
      </trkpt>
      <trkpt lat="43.64308" lon="7.0072">
        <ele>228.9</ele>
        <time>2009-03-15T10:51:57Z</time>
      </trkpt>
      <trkpt lat="43.64337" lon="7.0071">
        <ele>228.5</ele>
        <time>2009-03-15T10:52:08Z</time>
      </trkpt>
      <trkpt lat="43.64364" lon="7.00706">
        <ele>232.3</ele>
        <time>2009-03-15T10:52:20Z</time>
      </trkpt>
      <trkpt lat="43.64392" lon="7.00708">
        <ele>236.1</ele>
        <time>2009-03-15T10:52:32Z</time>
      </trkpt>
      <trkpt lat="43.64421" lon="7.00718">
        <ele>237.1</ele>
        <time>2009-03-15T10:52:46Z</time>
      </trkpt>
      <trkpt lat="43.64451" lon="7.00724">
        <ele>236.6</ele>
        <time>2009-03-15T10:53:01Z</time>
      </trkpt>
      <trkpt lat="43.64477" lon="7.00722">
        <ele>246.2</ele>
        <time>2009-03-15T10:53:16Z</time>
      </trkpt>
      <trkpt lat="43.64508" lon="7.00722">
        <ele>244.3</ele>
        <time>2009-03-15T10:53:29Z</time>
      </trkpt>
      <trkpt lat="43.64549" lon="7.00722">
        <ele>220.3</ele>
        <time>2009-03-15T10:53:42Z</time>
      </trkpt>
      <trkpt lat="43.64575" lon="7.00718">
        <ele>223.6</ele>
        <time>2009-03-15T10:53:53Z</time>
      </trkpt>
      <trkpt lat="43.64602" lon="7.00718">
        <ele>226.5</ele>
        <time>2009-03-15T10:54:04Z</time>
      </trkpt>
      <trkpt lat="43.64632" lon="7.00728">
        <ele>227.5</ele>
        <time>2009-03-15T10:54:16Z</time>
      </trkpt>
      <trkpt lat="43.64658" lon="7.0074">
        <ele>230.4</ele>
        <time>2009-03-15T10:54:29Z</time>
      </trkpt>
      <trkpt lat="43.64684" lon="7.00758">
        <ele>233.7</ele>
        <time>2009-03-15T10:54:43Z</time>
      </trkpt>
      <trkpt lat="43.64706" lon="7.00785">
        <ele>237.6</ele>
        <time>2009-03-15T10:54:56Z</time>
      </trkpt>
      <trkpt lat="43.64724" lon="7.00817">
        <ele>242.4</ele>
        <time>2009-03-15T10:55:10Z</time>
      </trkpt>
      <trkpt lat="43.64744" lon="7.00845">
        <ele>245.3</ele>
        <time>2009-03-15T10:55:23Z</time>
      </trkpt>
      <trkpt lat="43.64769" lon="7.00871">
        <ele>250.6</ele>
        <time>2009-03-15T10:55:39Z</time>
      </trkpt>
      <trkpt lat="43.64793" lon="7.00892">
        <ele>252.5</ele>
        <time>2009-03-15T10:55:53Z</time>
      </trkpt>
      <trkpt lat="43.64819" lon="7.0088">
        <ele>253.9</ele>
        <time>2009-03-15T10:56:05Z</time>
      </trkpt>
      <trkpt lat="43.64843" lon="7.00853">
        <ele>255.8</ele>
        <time>2009-03-15T10:56:15Z</time>
      </trkpt>
      <trkpt lat="43.64865" lon="7.0083">
        <ele>256.8</ele>
        <time>2009-03-15T10:56:24Z</time>
      </trkpt>
      <trkpt lat="43.64884" lon="7.008">
        <ele>255.4</ele>
        <time>2009-03-15T10:56:32Z</time>
      </trkpt>
      <trkpt lat="43.64903" lon="7.00767">
        <ele>254.9</ele>
        <time>2009-03-15T10:56:39Z</time>
      </trkpt>
      <trkpt lat="43.64921" lon="7.00739">
        <ele>253.4</ele>
        <time>2009-03-15T10:56:45Z</time>
      </trkpt>
      <trkpt lat="43.64942" lon="7.00705">
        <ele>252.5</ele>
        <time>2009-03-15T10:56:51Z</time>
      </trkpt>
      <trkpt lat="43.64961" lon="7.00676">
        <ele>252.5</ele>
        <time>2009-03-15T10:56:56Z</time>
      </trkpt>
      <trkpt lat="43.64981" lon="7.00643">
        <ele>253.9</ele>
        <time>2009-03-15T10:57:02Z</time>
      </trkpt>
      <trkpt lat="43.64998" lon="7.00612">
        <ele>254.4</ele>
        <time>2009-03-15T10:57:08Z</time>
      </trkpt>
      <trkpt lat="43.65016" lon="7.00579">
        <ele>255.8</ele>
        <time>2009-03-15T10:57:15Z</time>
      </trkpt>
      <trkpt lat="43.65033" lon="7.00544">
        <ele>255.8</ele>
        <time>2009-03-15T10:57:22Z</time>
      </trkpt>
      <trkpt lat="43.65054" lon="7.00515">
        <ele>255.4</ele>
        <time>2009-03-15T10:57:29Z</time>
      </trkpt>
      <trkpt lat="43.65076" lon="7.00488">
        <ele>257.3</ele>
        <time>2009-03-15T10:57:37Z</time>
      </trkpt>
      <trkpt lat="43.65098" lon="7.00459">
        <ele>259.7</ele>
        <time>2009-03-15T10:57:45Z</time>
      </trkpt>
      <trkpt lat="43.6512" lon="7.00429">
        <ele>262.1</ele>
        <time>2009-03-15T10:57:55Z</time>
      </trkpt>
      <trkpt lat="43.65145" lon="7.00415">
        <ele>264</ele>
        <time>2009-03-15T10:58:05Z</time>
      </trkpt>
      <trkpt lat="43.65172" lon="7.00404">
        <ele>268.8</ele>
        <time>2009-03-15T10:58:14Z</time>
      </trkpt>
      <trkpt lat="43.65201" lon="7.00392">
        <ele>268.8</ele>
        <time>2009-03-15T10:58:23Z</time>
      </trkpt>
      <trkpt lat="43.65228" lon="7.00377">
        <ele>274.1</ele>
        <time>2009-03-15T10:58:31Z</time>
      </trkpt>
      <trkpt lat="43.65256" lon="7.00359">
        <ele>278.9</ele>
        <time>2009-03-15T10:58:40Z</time>
      </trkpt>
      <trkpt lat="43.65284" lon="7.00332">
        <ele>277.5</ele>
        <time>2009-03-15T10:58:48Z</time>
      </trkpt>
      <trkpt lat="43.65315" lon="7.00308">
        <ele>273.6</ele>
        <time>2009-03-15T10:58:56Z</time>
      </trkpt>
      <trkpt lat="43.65346" lon="7.00287">
        <ele>269.8</ele>
        <time>2009-03-15T10:59:02Z</time>
      </trkpt>
      <trkpt lat="43.65372" lon="7.00263">
        <ele>268.8</ele>
        <time>2009-03-15T10:59:07Z</time>
      </trkpt>
      <trkpt lat="43.65399" lon="7.00241">
        <ele>270.3</ele>
        <time>2009-03-15T10:59:12Z</time>
      </trkpt>
      <trkpt lat="43.65426" lon="7.00215">
        <ele>269.3</ele>
        <time>2009-03-15T10:59:17Z</time>
      </trkpt>
      <trkpt lat="43.65455" lon="7.00205">
        <ele>268.3</ele>
        <time>2009-03-15T10:59:22Z</time>
      </trkpt>
      <trkpt lat="43.65483" lon="7.00204">
        <ele>268.8</ele>
        <time>2009-03-15T10:59:27Z</time>
      </trkpt>
      <trkpt lat="43.65515" lon="7.00198">
        <ele>269.3</ele>
        <time>2009-03-15T10:59:33Z</time>
      </trkpt>
      <trkpt lat="43.65545" lon="7.00181">
        <ele>269.3</ele>
        <time>2009-03-15T10:59:39Z</time>
      </trkpt>
      <trkpt lat="43.65565" lon="7.00152">
        <ele>265.9</ele>
        <time>2009-03-15T10:59:43Z</time>
      </trkpt>
      <trkpt lat="43.65588" lon="7.00112">
        <ele>263.1</ele>
        <time>2009-03-15T10:59:47Z</time>
      </trkpt>
      <trkpt lat="43.65608" lon="7.00076">
        <ele>259.7</ele>
        <time>2009-03-15T10:59:50Z</time>
      </trkpt>
      <trkpt lat="43.65628" lon="7.00041">
        <ele>257.3</ele>
        <time>2009-03-15T10:59:53Z</time>
      </trkpt>
      <trkpt lat="43.65645" lon="7.00006">
        <ele>255.4</ele>
        <time>2009-03-15T10:59:56Z</time>
      </trkpt>
      <trkpt lat="43.65655" lon="6.99969">
        <ele>254.9</ele>
        <time>2009-03-15T10:59:59Z</time>
      </trkpt>
      <trkpt lat="43.65661" lon="6.99932">
        <ele>253.4</ele>
        <time>2009-03-15T11:00:02Z</time>
      </trkpt>
      <trkpt lat="43.65673" lon="6.99894">
        <ele>252</ele>
        <time>2009-03-15T11:00:05Z</time>
      </trkpt>
      <trkpt lat="43.65694" lon="6.99855">
        <ele>249.1</ele>
        <time>2009-03-15T11:00:08Z</time>
      </trkpt>
      <trkpt lat="43.65714" lon="6.99817">
        <ele>245.8</ele>
        <time>2009-03-15T11:00:11Z</time>
      </trkpt>
      <trkpt lat="43.65731" lon="6.99774">
        <ele>244.3</ele>
        <time>2009-03-15T11:00:14Z</time>
      </trkpt>
      <trkpt lat="43.65748" lon="6.99732">
        <ele>242.4</ele>
        <time>2009-03-15T11:00:17Z</time>
      </trkpt>
      <trkpt lat="43.65766" lon="6.99692">
        <ele>240.9</ele>
        <time>2009-03-15T11:00:20Z</time>
      </trkpt>
      <trkpt lat="43.65782" lon="6.99654">
        <ele>237.1</ele>
        <time>2009-03-15T11:00:23Z</time>
      </trkpt>
      <trkpt lat="43.658" lon="6.99622">
        <ele>234.2</ele>
        <time>2009-03-15T11:00:27Z</time>
      </trkpt>
      <trkpt lat="43.65813" lon="6.99591">
        <ele>231.8</ele>
        <time>2009-03-15T11:00:35Z</time>
      </trkpt>
      <trkpt lat="43.65828" lon="6.99555">
        <ele>231.3</ele>
        <time>2009-03-15T11:00:40Z</time>
      </trkpt>
      <trkpt lat="43.6583" lon="6.99516">
        <ele>231.3</ele>
        <time>2009-03-15T11:00:45Z</time>
      </trkpt>
      <trkpt lat="43.65838" lon="6.99473">
        <ele>230.4</ele>
        <time>2009-03-15T11:00:50Z</time>
      </trkpt>
      <trkpt lat="43.65845" lon="6.99437">
        <ele>230.9</ele>
        <time>2009-03-15T11:00:54Z</time>
      </trkpt>
      <trkpt lat="43.65854" lon="6.99394">
        <ele>230.9</ele>
        <time>2009-03-15T11:00:59Z</time>
      </trkpt>
      <trkpt lat="43.65862" lon="6.99356">
        <ele>231.3</ele>
        <time>2009-03-15T11:01:04Z</time>
      </trkpt>
      <trkpt lat="43.65875" lon="6.99321">
        <ele>232.8</ele>
        <time>2009-03-15T11:01:09Z</time>
      </trkpt>
      <trkpt lat="43.65891" lon="6.99288">
        <ele>233.7</ele>
        <time>2009-03-15T11:01:14Z</time>
      </trkpt>
      <trkpt lat="43.65911" lon="6.9926">
        <ele>233.3</ele>
        <time>2009-03-15T11:01:19Z</time>
      </trkpt>
      <trkpt lat="43.65932" lon="6.99231">
        <ele>233.7</ele>
        <time>2009-03-15T11:01:24Z</time>
      </trkpt>
      <trkpt lat="43.65952" lon="6.99203">
        <ele>235.2</ele>
        <time>2009-03-15T11:01:28Z</time>
      </trkpt>
      <trkpt lat="43.65973" lon="6.99176">
        <ele>236.1</ele>
        <time>2009-03-15T11:01:32Z</time>
      </trkpt>
      <trkpt lat="43.65992" lon="6.99149">
        <ele>236.1</ele>
        <time>2009-03-15T11:01:36Z</time>
      </trkpt>
      <trkpt lat="43.66014" lon="6.99118">
        <ele>236.1</ele>
        <time>2009-03-15T11:01:41Z</time>
      </trkpt>
      <trkpt lat="43.66032" lon="6.99079">
        <ele>235.7</ele>
        <time>2009-03-15T11:01:46Z</time>
      </trkpt>
      <trkpt lat="43.66047" lon="6.99039">
        <ele>236.6</ele>
        <time>2009-03-15T11:01:51Z</time>
      </trkpt>
      <trkpt lat="43.66061" lon="6.99">
        <ele>237.1</ele>
        <time>2009-03-15T11:01:56Z</time>
      </trkpt>
      <trkpt lat="43.66073" lon="6.98963">
        <ele>237.6</ele>
        <time>2009-03-15T11:02:01Z</time>
      </trkpt>
      <trkpt lat="43.6608" lon="6.98926">
        <ele>238.1</ele>
        <time>2009-03-15T11:02:06Z</time>
      </trkpt>
      <trkpt lat="43.66088" lon="6.98889">
        <ele>238.1</ele>
        <time>2009-03-15T11:02:11Z</time>
      </trkpt>
      <trkpt lat="43.66095" lon="6.98853">
        <ele>238.1</ele>
        <time>2009-03-15T11:02:16Z</time>
      </trkpt>
      <trkpt lat="43.66104" lon="6.98813">
        <ele>238.5</ele>
        <time>2009-03-15T11:02:22Z</time>
      </trkpt>
      <trkpt lat="43.66127" lon="6.98784">
        <ele>238.1</ele>
        <time>2009-03-15T11:02:28Z</time>
      </trkpt>
      <trkpt lat="43.66147" lon="6.98757">
        <ele>237.6</ele>
        <time>2009-03-15T11:02:33Z</time>
      </trkpt>
      <trkpt lat="43.66174" lon="6.98743">
        <ele>236.6</ele>
        <time>2009-03-15T11:02:38Z</time>
      </trkpt>
      <trkpt lat="43.66203" lon="6.98735">
        <ele>238.1</ele>
        <time>2009-03-15T11:02:43Z</time>
      </trkpt>
      <trkpt lat="43.66232" lon="6.98726">
        <ele>238.5</ele>
        <time>2009-03-15T11:02:48Z</time>
      </trkpt>
      <trkpt lat="43.6626" lon="6.98719">
        <ele>239</ele>
        <time>2009-03-15T11:02:53Z</time>
      </trkpt>
      <trkpt lat="43.66286" lon="6.98707">
        <ele>240.5</ele>
        <time>2009-03-15T11:02:58Z</time>
      </trkpt>
      <trkpt lat="43.66313" lon="6.98685">
        <ele>240.9</ele>
        <time>2009-03-15T11:03:03Z</time>
      </trkpt>
      <trkpt lat="43.6634" lon="6.98666">
        <ele>241.4</ele>
        <time>2009-03-15T11:03:08Z</time>
      </trkpt>
      <trkpt lat="43.6637" lon="6.9865">
        <ele>242.9</ele>
        <time>2009-03-15T11:03:13Z</time>
      </trkpt>
      <trkpt lat="43.66399" lon="6.9864">
        <ele>243.8</ele>
        <time>2009-03-15T11:03:18Z</time>
      </trkpt>
      <trkpt lat="43.66427" lon="6.98628">
        <ele>245.3</ele>
        <time>2009-03-15T11:03:23Z</time>
      </trkpt>
      <trkpt lat="43.66455" lon="6.98615">
        <ele>246.2</ele>
        <time>2009-03-15T11:03:28Z</time>
      </trkpt>
      <trkpt lat="43.66481" lon="6.986">
        <ele>244.8</ele>
        <time>2009-03-15T11:03:33Z</time>
      </trkpt>
      <trkpt lat="43.66506" lon="6.98582">
        <ele>244.8</ele>
        <time>2009-03-15T11:03:38Z</time>
      </trkpt>
      <trkpt lat="43.66531" lon="6.98564">
        <ele>245.3</ele>
        <time>2009-03-15T11:03:43Z</time>
      </trkpt>
      <trkpt lat="43.66555" lon="6.98547">
        <ele>246.2</ele>
        <time>2009-03-15T11:03:48Z</time>
      </trkpt>
      <trkpt lat="43.66584" lon="6.98529">
        <ele>248.2</ele>
        <time>2009-03-15T11:03:54Z</time>
      </trkpt>
      <trkpt lat="43.66613" lon="6.98513">
        <ele>248.6</ele>
        <time>2009-03-15T11:04:00Z</time>
      </trkpt>
      <trkpt lat="43.66641" lon="6.98495">
        <ele>249.6</ele>
        <time>2009-03-15T11:04:06Z</time>
      </trkpt>
      <trkpt lat="43.6667" lon="6.98479">
        <ele>248.6</ele>
        <time>2009-03-15T11:04:12Z</time>
      </trkpt>
      <trkpt lat="43.66699" lon="6.98468">
        <ele>249.1</ele>
        <time>2009-03-15T11:04:18Z</time>
      </trkpt>
      <trkpt lat="43.66731" lon="6.98465">
        <ele>248.6</ele>
        <time>2009-03-15T11:04:24Z</time>
      </trkpt>
      <trkpt lat="43.66761" lon="6.98467">
        <ele>248.6</ele>
        <time>2009-03-15T11:04:30Z</time>
      </trkpt>
      <trkpt lat="43.66788" lon="6.98478">
        <ele>250.1</ele>
        <time>2009-03-15T11:04:37Z</time>
      </trkpt>
      <trkpt lat="43.66813" lon="6.98489">
        <ele>251</ele>
        <time>2009-03-15T11:04:44Z</time>
      </trkpt>
      <trkpt lat="43.66836" lon="6.98469">
        <ele>251.5</ele>
        <time>2009-03-15T11:04:51Z</time>
      </trkpt>
      <trkpt lat="43.6686" lon="6.98456">
        <ele>252</ele>
        <time>2009-03-15T11:04:58Z</time>
      </trkpt>
      <trkpt lat="43.6689" lon="6.98449">
        <ele>253</ele>
        <time>2009-03-15T11:05:06Z</time>
      </trkpt>
      <trkpt lat="43.66919" lon="6.98444">
        <ele>254.9</ele>
        <time>2009-03-15T11:05:14Z</time>
      </trkpt>
      <trkpt lat="43.6695" lon="6.98436">
        <ele>256.8</ele>
        <time>2009-03-15T11:05:22Z</time>
      </trkpt>
      <trkpt lat="43.66978" lon="6.98415">
        <ele>259.7</ele>
        <time>2009-03-15T11:05:30Z</time>
      </trkpt>
      <trkpt lat="43.67002" lon="6.98391">
        <ele>260.7</ele>
        <time>2009-03-15T11:05:38Z</time>
      </trkpt>
      <trkpt lat="43.67027" lon="6.98375">
        <ele>264</ele>
        <time>2009-03-15T11:05:47Z</time>
      </trkpt>
      <trkpt lat="43.67056" lon="6.98358">
        <ele>265</ele>
        <time>2009-03-15T11:05:58Z</time>
      </trkpt>
      <trkpt lat="43.67082" lon="6.98341">
        <ele>268.3</ele>
        <time>2009-03-15T11:06:10Z</time>
      </trkpt>
      <trkpt lat="43.67108" lon="6.98326">
        <ele>271.2</ele>
        <time>2009-03-15T11:06:22Z</time>
      </trkpt>
      <trkpt lat="43.67133" lon="6.98312">
        <ele>274.1</ele>
        <time>2009-03-15T11:06:34Z</time>
      </trkpt>
      <trkpt lat="43.67158" lon="6.98296">
        <ele>278</ele>
        <time>2009-03-15T11:06:47Z</time>
      </trkpt>
      <trkpt lat="43.67183" lon="6.98275">
        <ele>282.3</ele>
        <time>2009-03-15T11:07:01Z</time>
      </trkpt>
      <trkpt lat="43.67206" lon="6.98256">
        <ele>285.2</ele>
        <time>2009-03-15T11:07:15Z</time>
      </trkpt>
      <trkpt lat="43.67227" lon="6.98227">
        <ele>290.5</ele>
        <time>2009-03-15T11:07:30Z</time>
      </trkpt>
      <trkpt lat="43.67248" lon="6.98201">
        <ele>298.1</ele>
        <time>2009-03-15T11:07:44Z</time>
      </trkpt>
      <trkpt lat="43.6727" lon="6.98179">
        <ele>298.6</ele>
        <time>2009-03-15T11:08:01Z</time>
      </trkpt>
      <trkpt lat="43.67294" lon="6.98159">
        <ele>301</ele>
        <time>2009-03-15T11:08:18Z</time>
      </trkpt>
      <trkpt lat="43.67318" lon="6.98139">
        <ele>305.8</ele>
        <time>2009-03-15T11:08:32Z</time>
      </trkpt>
      <trkpt lat="43.6734" lon="6.98121">
        <ele>309.2</ele>
        <time>2009-03-15T11:08:45Z</time>
      </trkpt>
      <trkpt lat="43.67363" lon="6.98102">
        <ele>314.5</ele>
        <time>2009-03-15T11:09:00Z</time>
      </trkpt>
      <trkpt lat="43.67385" lon="6.98073">
        <ele>313.5</ele>
        <time>2009-03-15T11:09:14Z</time>
      </trkpt>
      <trkpt lat="43.67404" lon="6.98048">
        <ele>317.9</ele>
        <time>2009-03-15T11:09:30Z</time>
      </trkpt>
      <trkpt lat="43.67424" lon="6.98023">
        <ele>322.2</ele>
        <time>2009-03-15T11:09:46Z</time>
      </trkpt>
      <trkpt lat="43.67449" lon="6.98">
        <ele>328.9</ele>
        <time>2009-03-15T11:10:05Z</time>
      </trkpt>
      <trkpt lat="43.67476" lon="6.97975">
        <ele>336.6</ele>
        <time>2009-03-15T11:10:24Z</time>
      </trkpt>
      <trkpt lat="43.67502" lon="6.9795">
        <ele>340.9</ele>
        <time>2009-03-15T11:10:42Z</time>
      </trkpt>
      <trkpt lat="43.67523" lon="6.97926">
        <ele>340.9</ele>
        <time>2009-03-15T11:10:57Z</time>
      </trkpt>
      <trkpt lat="43.67545" lon="6.979">
        <ele>339.5</ele>
        <time>2009-03-15T11:11:11Z</time>
      </trkpt>
      <trkpt lat="43.67562" lon="6.97869">
        <ele>340.9</ele>
        <time>2009-03-15T11:11:24Z</time>
      </trkpt>
      <trkpt lat="43.67578" lon="6.97838">
        <ele>341.4</ele>
        <time>2009-03-15T11:11:39Z</time>
      </trkpt>
      <trkpt lat="43.67596" lon="6.97803">
        <ele>347.2</ele>
        <time>2009-03-15T11:13:34Z</time>
      </trkpt>
      <trkpt lat="43.67614" lon="6.97775">
        <ele>351.5</ele>
        <time>2009-03-15T11:13:47Z</time>
      </trkpt>
      <trkpt lat="43.67636" lon="6.97753">
        <ele>355.8</ele>
        <time>2009-03-15T11:14:00Z</time>
      </trkpt>
      <trkpt lat="43.67639" lon="6.97716">
        <ele>355.8</ele>
        <time>2009-03-15T11:14:11Z</time>
      </trkpt>
      <trkpt lat="43.6761" lon="6.97707">
        <ele>357.3</ele>
        <time>2009-03-15T11:14:21Z</time>
      </trkpt>
      <trkpt lat="43.67588" lon="6.97729">
        <ele>359.7</ele>
        <time>2009-03-15T11:14:32Z</time>
      </trkpt>
      <trkpt lat="43.67558" lon="6.9775">
        <ele>363.5</ele>
        <time>2009-03-15T11:14:44Z</time>
      </trkpt>
      <trkpt lat="43.67534" lon="6.97766">
        <ele>366.9</ele>
        <time>2009-03-15T11:14:54Z</time>
      </trkpt>
      <trkpt lat="43.6751" lon="6.97784">
        <ele>371.7</ele>
        <time>2009-03-15T11:15:05Z</time>
      </trkpt>
      <trkpt lat="43.67485" lon="6.97803">
        <ele>373.1</ele>
        <time>2009-03-15T11:15:16Z</time>
      </trkpt>
      <trkpt lat="43.67466" lon="6.97829">
        <ele>375.1</ele>
        <time>2009-03-15T11:15:27Z</time>
      </trkpt>
      <trkpt lat="43.67454" lon="6.97808">
        <ele>376.5</ele>
        <time>2009-03-15T11:15:38Z</time>
      </trkpt>
      <trkpt lat="43.67474" lon="6.97785">
        <ele>377.5</ele>
        <time>2009-03-15T11:15:48Z</time>
      </trkpt>
      <trkpt lat="43.67496" lon="6.97765">
        <ele>380.8</ele>
        <time>2009-03-15T11:15:58Z</time>
      </trkpt>
      <trkpt lat="43.67519" lon="6.97741">
        <ele>383.7</ele>
        <time>2009-03-15T11:16:08Z</time>
      </trkpt>
      <trkpt lat="43.67537" lon="6.97708">
        <ele>383.2</ele>
        <time>2009-03-15T11:16:19Z</time>
      </trkpt>
      <trkpt lat="43.67553" lon="6.97678">
        <ele>384.2</ele>
        <time>2009-03-15T11:16:29Z</time>
      </trkpt>
      <trkpt lat="43.67575" lon="6.97657">
        <ele>388</ele>
        <time>2009-03-15T11:16:39Z</time>
      </trkpt>
      <trkpt lat="43.67595" lon="6.97625">
        <ele>387.1</ele>
        <time>2009-03-15T11:16:47Z</time>
      </trkpt>
      <trkpt lat="43.67611" lon="6.97589">
        <ele>386.6</ele>
        <time>2009-03-15T11:16:54Z</time>
      </trkpt>
      <trkpt lat="43.67625" lon="6.97552">
        <ele>386.1</ele>
        <time>2009-03-15T11:17:00Z</time>
      </trkpt>
      <trkpt lat="43.6764" lon="6.97521">
        <ele>386.1</ele>
        <time>2009-03-15T11:17:06Z</time>
      </trkpt>
      <trkpt lat="43.67665" lon="6.975">
        <ele>387.5</ele>
        <time>2009-03-15T11:17:12Z</time>
      </trkpt>
      <trkpt lat="43.67692" lon="6.97484">
        <ele>389.5</ele>
        <time>2009-03-15T11:17:18Z</time>
      </trkpt>
      <trkpt lat="43.6772" lon="6.97471">
        <ele>392.8</ele>
        <time>2009-03-15T11:17:25Z</time>
      </trkpt>
      <trkpt lat="43.67749" lon="6.97464">
        <ele>395.7</ele>
        <time>2009-03-15T11:17:33Z</time>
      </trkpt>
      <trkpt lat="43.67773" lon="6.97444">
        <ele>398.6</ele>
        <time>2009-03-15T11:17:41Z</time>
      </trkpt>
      <trkpt lat="43.67799" lon="6.97433">
        <ele>403.4</ele>
        <time>2009-03-15T11:17:49Z</time>
      </trkpt>
      <trkpt lat="43.67828" lon="6.97421">
        <ele>404.4</ele>
        <time>2009-03-15T11:17:58Z</time>
      </trkpt>
      <trkpt lat="43.67851" lon="6.97391">
        <ele>400.5</ele>
        <time>2009-03-15T11:18:05Z</time>
      </trkpt>
      <trkpt lat="43.67862" lon="6.97355">
        <ele>399.6</ele>
        <time>2009-03-15T11:18:12Z</time>
      </trkpt>
      <trkpt lat="43.67882" lon="6.97332">
        <ele>399.1</ele>
        <time>2009-03-15T11:18:19Z</time>
      </trkpt>
      <trkpt lat="43.67911" lon="6.97349">
        <ele>397.6</ele>
        <time>2009-03-15T11:18:26Z</time>
      </trkpt>
      <trkpt lat="43.67929" lon="6.97323">
        <ele>397.6</ele>
        <time>2009-03-15T11:18:32Z</time>
      </trkpt>
      <trkpt lat="43.67938" lon="6.97288">
        <ele>399.6</ele>
        <time>2009-03-15T11:18:39Z</time>
      </trkpt>
      <trkpt lat="43.67957" lon="6.97259">
        <ele>399.6</ele>
        <time>2009-03-15T11:18:46Z</time>
      </trkpt>
      <trkpt lat="43.67976" lon="6.97232">
        <ele>400.5</ele>
        <time>2009-03-15T11:18:53Z</time>
      </trkpt>
      <trkpt lat="43.67995" lon="6.97204">
        <ele>402</ele>
        <time>2009-03-15T11:19:00Z</time>
      </trkpt>
      <trkpt lat="43.68015" lon="6.97176">
        <ele>404.9</ele>
        <time>2009-03-15T11:19:08Z</time>
      </trkpt>
      <trkpt lat="43.68044" lon="6.97168">
        <ele>406.8</ele>
        <time>2009-03-15T11:19:17Z</time>
      </trkpt>
      <trkpt lat="43.68072" lon="6.97181">
        <ele>407.7</ele>
        <time>2009-03-15T11:19:25Z</time>
      </trkpt>
      <trkpt lat="43.68099" lon="6.97183">
        <ele>408.2</ele>
        <time>2009-03-15T11:19:36Z</time>
      </trkpt>
      <trkpt lat="43.68124" lon="6.97165">
        <ele>412.1</ele>
        <time>2009-03-15T11:19:45Z</time>
      </trkpt>
      <trkpt lat="43.68147" lon="6.97143">
        <ele>414.5</ele>
        <time>2009-03-15T11:19:55Z</time>
      </trkpt>
      <trkpt lat="43.68173" lon="6.97122">
        <ele>416.9</ele>
        <time>2009-03-15T11:20:06Z</time>
      </trkpt>
      <trkpt lat="43.68202" lon="6.97119">
        <ele>420.7</ele>
        <time>2009-03-15T11:20:17Z</time>
      </trkpt>
      <trkpt lat="43.68224" lon="6.97143">
        <ele>421.7</ele>
        <time>2009-03-15T11:20:28Z</time>
      </trkpt>
      <trkpt lat="43.68234" lon="6.97181">
        <ele>424.6</ele>
        <time>2009-03-15T11:20:39Z</time>
      </trkpt>
      <trkpt lat="43.68249" lon="6.9722">
        <ele>424.1</ele>
        <time>2009-03-15T11:20:50Z</time>
      </trkpt>
      <trkpt lat="43.68268" lon="6.97249">
        <ele>425</ele>
        <time>2009-03-15T11:21:00Z</time>
      </trkpt>
      <trkpt lat="43.68292" lon="6.97272">
        <ele>428.4</ele>
        <time>2009-03-15T11:21:11Z</time>
      </trkpt>
      <trkpt lat="43.68316" lon="6.97293">
        <ele>429.8</ele>
        <time>2009-03-15T11:21:22Z</time>
      </trkpt>
      <trkpt lat="43.6834" lon="6.97315">
        <ele>433.7</ele>
        <time>2009-03-15T11:21:34Z</time>
      </trkpt>
      <trkpt lat="43.68357" lon="6.97349">
        <ele>435.6</ele>
        <time>2009-03-15T11:21:45Z</time>
      </trkpt>
      <trkpt lat="43.68371" lon="6.97382">
        <ele>438.5</ele>
        <time>2009-03-15T11:21:55Z</time>
      </trkpt>
      <trkpt lat="43.68389" lon="6.97413">
        <ele>439.5</ele>
        <time>2009-03-15T11:22:06Z</time>
      </trkpt>
      <trkpt lat="43.68412" lon="6.97435">
        <ele>441.9</ele>
        <time>2009-03-15T11:22:18Z</time>
      </trkpt>
      <trkpt lat="43.68438" lon="6.97453">
        <ele>442.8</ele>
        <time>2009-03-15T11:22:30Z</time>
      </trkpt>
      <trkpt lat="43.68462" lon="6.97473">
        <ele>445.7</ele>
        <time>2009-03-15T11:22:41Z</time>
      </trkpt>
      <trkpt lat="43.68491" lon="6.97489">
        <ele>447.6</ele>
        <time>2009-03-15T11:22:52Z</time>
      </trkpt>
      <trkpt lat="43.68517" lon="6.97481">
        <ele>449.6</ele>
        <time>2009-03-15T11:23:02Z</time>
      </trkpt>
      <trkpt lat="43.68545" lon="6.97474">
        <ele>452</ele>
        <time>2009-03-15T11:23:13Z</time>
      </trkpt>
      <trkpt lat="43.68572" lon="6.97488">
        <ele>456.3</ele>
        <time>2009-03-15T11:23:25Z</time>
      </trkpt>
      <trkpt lat="43.68603" lon="6.97499">
        <ele>454.8</ele>
        <time>2009-03-15T11:23:37Z</time>
      </trkpt>
      <trkpt lat="43.6863" lon="6.97501">
        <ele>458.7</ele>
        <time>2009-03-15T11:23:48Z</time>
      </trkpt>
      <trkpt lat="43.68659" lon="6.97508">
        <ele>461.6</ele>
        <time>2009-03-15T11:24:00Z</time>
      </trkpt>
      <trkpt lat="43.68688" lon="6.97517">
        <ele>464.9</ele>
        <time>2009-03-15T11:24:14Z</time>
      </trkpt>
      <trkpt lat="43.68717" lon="6.97515">
        <ele>466.9</ele>
        <time>2009-03-15T11:24:27Z</time>
      </trkpt>
      <trkpt lat="43.68739" lon="6.97495">
        <ele>470.7</ele>
        <time>2009-03-15T11:24:39Z</time>
      </trkpt>
      <trkpt lat="43.68757" lon="6.97466">
        <ele>472.6</ele>
        <time>2009-03-15T11:24:51Z</time>
      </trkpt>
      <trkpt lat="43.68776" lon="6.97437">
        <ele>474.5</ele>
        <time>2009-03-15T11:25:02Z</time>
      </trkpt>
      <trkpt lat="43.688" lon="6.97413">
        <ele>476</ele>
        <time>2009-03-15T11:25:13Z</time>
      </trkpt>
      <trkpt lat="43.68825" lon="6.974">
        <ele>477.9</ele>
        <time>2009-03-15T11:25:23Z</time>
      </trkpt>
      <trkpt lat="43.68853" lon="6.97394">
        <ele>480.8</ele>
        <time>2009-03-15T11:25:34Z</time>
      </trkpt>
      <trkpt lat="43.68881" lon="6.97397">
        <ele>483.2</ele>
        <time>2009-03-15T11:25:46Z</time>
      </trkpt>
      <trkpt lat="43.68908" lon="6.97403">
        <ele>489.4</ele>
        <time>2009-03-15T11:25:59Z</time>
      </trkpt>
      <trkpt lat="43.68939" lon="6.97408">
        <ele>493.8</ele>
        <time>2009-03-15T11:26:12Z</time>
      </trkpt>
      <trkpt lat="43.68966" lon="6.97411">
        <ele>496.2</ele>
        <time>2009-03-15T11:26:24Z</time>
      </trkpt>
      <trkpt lat="43.68994" lon="6.97417">
        <ele>498.1</ele>
        <time>2009-03-15T11:26:37Z</time>
      </trkpt>
      <trkpt lat="43.69023" lon="6.97422">
        <ele>498.6</ele>
        <time>2009-03-15T11:26:50Z</time>
      </trkpt>
      <trkpt lat="43.69053" lon="6.97423">
        <ele>501</ele>
        <time>2009-03-15T11:27:05Z</time>
      </trkpt>
      <trkpt lat="43.69081" lon="6.97417">
        <ele>501</ele>
        <time>2009-03-15T11:27:18Z</time>
      </trkpt>
      <trkpt lat="43.69106" lon="6.97391">
        <ele>504.3</ele>
        <time>2009-03-15T11:27:30Z</time>
      </trkpt>
      <trkpt lat="43.69118" lon="6.9735">
        <ele>504.3</ele>
        <time>2009-03-15T11:27:42Z</time>
      </trkpt>
      <trkpt lat="43.69132" lon="6.97311">
        <ele>506.3</ele>
        <time>2009-03-15T11:27:54Z</time>
      </trkpt>
      <trkpt lat="43.69152" lon="6.97282">
        <ele>508.7</ele>
        <time>2009-03-15T11:28:06Z</time>
      </trkpt>
      <trkpt lat="43.69177" lon="6.97268">
        <ele>513</ele>
        <time>2009-03-15T11:28:17Z</time>
      </trkpt>
      <trkpt lat="43.69206" lon="6.97259">
        <ele>516.8</ele>
        <time>2009-03-15T11:28:28Z</time>
      </trkpt>
      <trkpt lat="43.69233" lon="6.97249">
        <ele>518.8</ele>
        <time>2009-03-15T11:28:40Z</time>
      </trkpt>
      <trkpt lat="43.69258" lon="6.9723">
        <ele>520.2</ele>
        <time>2009-03-15T11:28:52Z</time>
      </trkpt>
      <trkpt lat="43.69281" lon="6.97208">
        <ele>522.1</ele>
        <time>2009-03-15T11:29:03Z</time>
      </trkpt>
      <trkpt lat="43.69304" lon="6.97186">
        <ele>524.5</ele>
        <time>2009-03-15T11:29:14Z</time>
      </trkpt>
      <trkpt lat="43.6933" lon="6.97168">
        <ele>528.4</ele>
        <time>2009-03-15T11:29:25Z</time>
      </trkpt>
      <trkpt lat="43.69357" lon="6.97162">
        <ele>529.3</ele>
        <time>2009-03-15T11:29:35Z</time>
      </trkpt>
      <trkpt lat="43.69385" lon="6.9715">
        <ele>527.9</ele>
        <time>2009-03-15T11:29:46Z</time>
      </trkpt>
      <trkpt lat="43.69407" lon="6.97129">
        <ele>530.8</ele>
        <time>2009-03-15T11:29:57Z</time>
      </trkpt>
      <trkpt lat="43.69427" lon="6.97103">
        <ele>532.2</ele>
        <time>2009-03-15T11:30:10Z</time>
      </trkpt>
      <trkpt lat="43.69452" lon="6.97085">
        <ele>536.1</ele>
        <time>2009-03-15T11:30:24Z</time>
      </trkpt>
      <trkpt lat="43.69481" lon="6.9708">
        <ele>537</ele>
        <time>2009-03-15T11:30:37Z</time>
      </trkpt>
      <trkpt lat="43.69505" lon="6.97061">
        <ele>540.4</ele>
        <time>2009-03-15T11:30:50Z</time>
      </trkpt>
      <trkpt lat="43.69519" lon="6.97033">
        <ele>542.8</ele>
        <time>2009-03-15T11:31:02Z</time>
      </trkpt>
      <trkpt lat="43.69527" lon="6.96998">
        <ele>546.2</ele>
        <time>2009-03-15T11:31:14Z</time>
      </trkpt>
      <trkpt lat="43.69534" lon="6.9696">
        <ele>550.5</ele>
        <time>2009-03-15T11:31:26Z</time>
      </trkpt>
      <trkpt lat="43.69552" lon="6.96931">
        <ele>551.9</ele>
        <time>2009-03-15T11:31:37Z</time>
      </trkpt>
      <trkpt lat="43.69572" lon="6.96905">
        <ele>552.4</ele>
        <time>2009-03-15T11:31:48Z</time>
      </trkpt>
      <trkpt lat="43.69594" lon="6.9688">
        <ele>555.8</ele>
        <time>2009-03-15T11:32:00Z</time>
      </trkpt>
      <trkpt lat="43.69611" lon="6.96849">
        <ele>560.1</ele>
        <time>2009-03-15T11:32:11Z</time>
      </trkpt>
      <trkpt lat="43.69615" lon="6.96811">
        <ele>563</ele>
        <time>2009-03-15T11:32:22Z</time>
      </trkpt>
      <trkpt lat="43.69611" lon="6.96773">
        <ele>563.5</ele>
        <time>2009-03-15T11:32:32Z</time>
      </trkpt>
      <trkpt lat="43.69613" lon="6.96733">
        <ele>565.9</ele>
        <time>2009-03-15T11:32:43Z</time>
      </trkpt>
      <trkpt lat="43.69626" lon="6.96702">
        <ele>567.8</ele>
        <time>2009-03-15T11:32:54Z</time>
      </trkpt>
      <trkpt lat="43.69651" lon="6.96683">
        <ele>571.6</ele>
        <time>2009-03-15T11:33:07Z</time>
      </trkpt>
      <trkpt lat="43.69679" lon="6.96686">
        <ele>575</ele>
        <time>2009-03-15T11:33:19Z</time>
      </trkpt>
      <trkpt lat="43.69706" lon="6.96702">
        <ele>576.4</ele>
        <time>2009-03-15T11:33:31Z</time>
      </trkpt>
      <trkpt lat="43.69731" lon="6.96722">
        <ele>577.4</ele>
        <time>2009-03-15T11:33:42Z</time>
      </trkpt>
      <trkpt lat="43.69755" lon="6.96741">
        <ele>579.8</ele>
        <time>2009-03-15T11:33:52Z</time>
      </trkpt>
      <trkpt lat="43.69778" lon="6.9676">
        <ele>581.7</ele>
        <time>2009-03-15T11:34:02Z</time>
      </trkpt>
      <trkpt lat="43.69804" lon="6.96773">
        <ele>583.2</ele>
        <time>2009-03-15T11:34:14Z</time>
      </trkpt>
      <trkpt lat="43.69831" lon="6.96772">
        <ele>586.1</ele>
        <time>2009-03-15T11:34:26Z</time>
      </trkpt>
      <trkpt lat="43.69858" lon="6.96761">
        <ele>590.4</ele>
        <time>2009-03-15T11:34:38Z</time>
      </trkpt>
      <trkpt lat="43.69885" lon="6.96758">
        <ele>592.8</ele>
        <time>2009-03-15T11:34:50Z</time>
      </trkpt>
      <trkpt lat="43.69913" lon="6.9675">
        <ele>595.7</ele>
        <time>2009-03-15T11:35:03Z</time>
      </trkpt>
      <trkpt lat="43.69938" lon="6.96734">
        <ele>596.6</ele>
        <time>2009-03-15T11:35:15Z</time>
      </trkpt>
      <trkpt lat="43.69968" lon="6.96727">
        <ele>596.2</ele>
        <time>2009-03-15T11:35:26Z</time>
      </trkpt>
      <trkpt lat="43.69996" lon="6.96718">
        <ele>598.1</ele>
        <time>2009-03-15T11:35:36Z</time>
      </trkpt>
      <trkpt lat="43.7002" lon="6.967">
        <ele>600.5</ele>
        <time>2009-03-15T11:35:45Z</time>
      </trkpt>
      <trkpt lat="43.70042" lon="6.96679">
        <ele>602.4</ele>
        <time>2009-03-15T11:35:54Z</time>
      </trkpt>
      <trkpt lat="43.70064" lon="6.96651">
        <ele>602.9</ele>
        <time>2009-03-15T11:36:04Z</time>
      </trkpt>
      <trkpt lat="43.70079" lon="6.96619">
        <ele>602.4</ele>
        <time>2009-03-15T11:36:13Z</time>
      </trkpt>
      <trkpt lat="43.7009" lon="6.96582">
        <ele>602.9</ele>
        <time>2009-03-15T11:36:22Z</time>
      </trkpt>
      <trkpt lat="43.70099" lon="6.96545">
        <ele>603.8</ele>
        <time>2009-03-15T11:36:30Z</time>
      </trkpt>
      <trkpt lat="43.70107" lon="6.96506">
        <ele>603.4</ele>
        <time>2009-03-15T11:36:38Z</time>
      </trkpt>
      <trkpt lat="43.70111" lon="6.96465">
        <ele>603.8</ele>
        <time>2009-03-15T11:36:46Z</time>
      </trkpt>
      <trkpt lat="43.70113" lon="6.96424">
        <ele>603.8</ele>
        <time>2009-03-15T11:36:54Z</time>
      </trkpt>
      <trkpt lat="43.70111" lon="6.96383">
        <ele>605.8</ele>
        <time>2009-03-15T11:37:02Z</time>
      </trkpt>
      <trkpt lat="43.70109" lon="6.96345">
        <ele>609.6</ele>
        <time>2009-03-15T11:37:10Z</time>
      </trkpt>
      <trkpt lat="43.701" lon="6.96307">
        <ele>612.5</ele>
        <time>2009-03-15T11:37:19Z</time>
      </trkpt>
      <trkpt lat="43.70087" lon="6.96273">
        <ele>613.5</ele>
        <time>2009-03-15T11:37:27Z</time>
      </trkpt>
      <trkpt lat="43.70068" lon="6.96245">
        <ele>612.5</ele>
        <time>2009-03-15T11:37:35Z</time>
      </trkpt>
      <trkpt lat="43.70047" lon="6.96216">
        <ele>613.9</ele>
        <time>2009-03-15T11:37:43Z</time>
      </trkpt>
      <trkpt lat="43.70027" lon="6.96187">
        <ele>613.9</ele>
        <time>2009-03-15T11:37:50Z</time>
      </trkpt>
      <trkpt lat="43.7001" lon="6.96153">
        <ele>615.4</ele>
        <time>2009-03-15T11:37:57Z</time>
      </trkpt>
      <trkpt lat="43.70021" lon="6.96119">
        <ele>615.9</ele>
        <time>2009-03-15T11:38:04Z</time>
      </trkpt>
      <trkpt lat="43.7005" lon="6.96123">
        <ele>616.8</ele>
        <time>2009-03-15T11:38:12Z</time>
      </trkpt>
      <trkpt lat="43.70076" lon="6.96141">
        <ele>616.8</ele>
        <time>2009-03-15T11:38:19Z</time>
      </trkpt>
      <trkpt lat="43.701" lon="6.96158">
        <ele>617.3</ele>
        <time>2009-03-15T11:38:25Z</time>
      </trkpt>
      <trkpt lat="43.70125" lon="6.96176">
        <ele>616.8</ele>
        <time>2009-03-15T11:38:31Z</time>
      </trkpt>
      <trkpt lat="43.70152" lon="6.96197">
        <ele>617.3</ele>
        <time>2009-03-15T11:38:38Z</time>
      </trkpt>
      <trkpt lat="43.70179" lon="6.96215">
        <ele>619.2</ele>
        <time>2009-03-15T11:38:45Z</time>
      </trkpt>
      <trkpt lat="43.70205" lon="6.96242">
        <ele>622.1</ele>
        <time>2009-03-15T11:38:52Z</time>
      </trkpt>
      <trkpt lat="43.70222" lon="6.96275">
        <ele>624</ele>
        <time>2009-03-15T11:38:58Z</time>
      </trkpt>
      <trkpt lat="43.70238" lon="6.96309">
        <ele>624.5</ele>
        <time>2009-03-15T11:39:05Z</time>
      </trkpt>
      <trkpt lat="43.70255" lon="6.96343">
        <ele>625.5</ele>
        <time>2009-03-15T11:39:12Z</time>
      </trkpt>
      <trkpt lat="43.70271" lon="6.96378">
        <ele>626</ele>
        <time>2009-03-15T11:39:19Z</time>
      </trkpt>
      <trkpt lat="43.70283" lon="6.96411">
        <ele>626.9</ele>
        <time>2009-03-15T11:39:26Z</time>
      </trkpt>
      <trkpt lat="43.70292" lon="6.96452">
        <ele>629.3</ele>
        <time>2009-03-15T11:39:34Z</time>
      </trkpt>
      <trkpt lat="43.70298" lon="6.96489">
        <ele>628.8</ele>
        <time>2009-03-15T11:39:41Z</time>
      </trkpt>
      <trkpt lat="43.70305" lon="6.9653">
        <ele>628.4</ele>
        <time>2009-03-15T11:39:48Z</time>
      </trkpt>
      <trkpt lat="43.70312" lon="6.96568">
        <ele>628.4</ele>
        <time>2009-03-15T11:39:54Z</time>
      </trkpt>
      <trkpt lat="43.70319" lon="6.96605">
        <ele>629.8</ele>
        <time>2009-03-15T11:40:00Z</time>
      </trkpt>
      <trkpt lat="43.70325" lon="6.96642">
        <ele>629.8</ele>
        <time>2009-03-15T11:40:06Z</time>
      </trkpt>
      <trkpt lat="43.70332" lon="6.9668">
        <ele>630.3</ele>
        <time>2009-03-15T11:40:12Z</time>
      </trkpt>
      <trkpt lat="43.7034" lon="6.96717">
        <ele>631.2</ele>
        <time>2009-03-15T11:40:18Z</time>
      </trkpt>
      <trkpt lat="43.70346" lon="6.96758">
        <ele>632.2</ele>
        <time>2009-03-15T11:40:25Z</time>
      </trkpt>
      <trkpt lat="43.70347" lon="6.96797">
        <ele>634.6</ele>
        <time>2009-03-15T11:40:32Z</time>
      </trkpt>
      <trkpt lat="43.7035" lon="6.96834">
        <ele>635.1</ele>
        <time>2009-03-15T11:40:39Z</time>
      </trkpt>
      <trkpt lat="43.70355" lon="6.96872">
        <ele>636</ele>
        <time>2009-03-15T11:40:46Z</time>
      </trkpt>
      <trkpt lat="43.70361" lon="6.96912">
        <ele>635.6</ele>
        <time>2009-03-15T11:40:53Z</time>
      </trkpt>
      <trkpt lat="43.70366" lon="6.9695">
        <ele>636.5</ele>
        <time>2009-03-15T11:41:00Z</time>
      </trkpt>
      <trkpt lat="43.7037" lon="6.96987">
        <ele>637.5</ele>
        <time>2009-03-15T11:41:07Z</time>
      </trkpt>
      <trkpt lat="43.70378" lon="6.97023">
        <ele>638.5</ele>
        <time>2009-03-15T11:41:15Z</time>
      </trkpt>
      <trkpt lat="43.70397" lon="6.97054">
        <ele>638.5</ele>
        <time>2009-03-15T11:41:23Z</time>
      </trkpt>
      <trkpt lat="43.70419" lon="6.97077">
        <ele>638.5</ele>
        <time>2009-03-15T11:41:30Z</time>
      </trkpt>
      <trkpt lat="43.70441" lon="6.97102">
        <ele>638</ele>
        <time>2009-03-15T11:41:37Z</time>
      </trkpt>
      <trkpt lat="43.70467" lon="6.97126">
        <ele>638.5</ele>
        <time>2009-03-15T11:41:45Z</time>
      </trkpt>
      <trkpt lat="43.70491" lon="6.97148">
        <ele>640.4</ele>
        <time>2009-03-15T11:41:52Z</time>
      </trkpt>
      <trkpt lat="43.70518" lon="6.97161">
        <ele>641.8</ele>
        <time>2009-03-15T11:41:59Z</time>
      </trkpt>
      <trkpt lat="43.70546" lon="6.97168">
        <ele>645.2</ele>
        <time>2009-03-15T11:42:06Z</time>
      </trkpt>
      <trkpt lat="43.70575" lon="6.97171">
        <ele>647.6</ele>
        <time>2009-03-15T11:42:14Z</time>
      </trkpt>
      <trkpt lat="43.70605" lon="6.97172">
        <ele>649</ele>
        <time>2009-03-15T11:42:23Z</time>
      </trkpt>
      <trkpt lat="43.70636" lon="6.97175">
        <ele>648.5</ele>
        <time>2009-03-15T11:42:32Z</time>
      </trkpt>
      <trkpt lat="43.70666" lon="6.97184">
        <ele>648.1</ele>
        <time>2009-03-15T11:42:40Z</time>
      </trkpt>
      <trkpt lat="43.70691" lon="6.97198">
        <ele>648.1</ele>
        <time>2009-03-15T11:42:47Z</time>
      </trkpt>
      <trkpt lat="43.70715" lon="6.97219">
        <ele>648.5</ele>
        <time>2009-03-15T11:42:54Z</time>
      </trkpt>
      <trkpt lat="43.70735" lon="6.97247">
        <ele>647.1</ele>
        <time>2009-03-15T11:43:01Z</time>
      </trkpt>
      <trkpt lat="43.70751" lon="6.97281">
        <ele>651.4</ele>
        <time>2009-03-15T11:43:08Z</time>
      </trkpt>
      <trkpt lat="43.70761" lon="6.9732">
        <ele>654.8</ele>
        <time>2009-03-15T11:43:15Z</time>
      </trkpt>
      <trkpt lat="43.70765" lon="6.97361">
        <ele>660.6</ele>
        <time>2009-03-15T11:43:23Z</time>
      </trkpt>
      <trkpt lat="43.70768" lon="6.97403">
        <ele>661.5</ele>
        <time>2009-03-15T11:43:31Z</time>
      </trkpt>
      <trkpt lat="43.7077" lon="6.9744">
        <ele>661</ele>
        <time>2009-03-15T11:43:38Z</time>
      </trkpt>
      <trkpt lat="43.70778" lon="6.97475">
        <ele>659.6</ele>
        <time>2009-03-15T11:43:45Z</time>
      </trkpt>
      <trkpt lat="43.708" lon="6.97505">
        <ele>659.1</ele>
        <time>2009-03-15T11:43:53Z</time>
      </trkpt>
      <trkpt lat="43.70828" lon="6.97519">
        <ele>660.1</ele>
        <time>2009-03-15T11:44:01Z</time>
      </trkpt>
      <trkpt lat="43.70856" lon="6.97522">
        <ele>661.5</ele>
        <time>2009-03-15T11:44:08Z</time>
      </trkpt>
      <trkpt lat="43.70887" lon="6.97518">
        <ele>663</ele>
        <time>2009-03-15T11:44:16Z</time>
      </trkpt>
      <trkpt lat="43.70916" lon="6.97508">
        <ele>663</ele>
        <time>2009-03-15T11:44:23Z</time>
      </trkpt>
      <trkpt lat="43.70943" lon="6.97494">
        <ele>663</ele>
        <time>2009-03-15T11:44:30Z</time>
      </trkpt>
      <trkpt lat="43.70967" lon="6.97468">
        <ele>663</ele>
        <time>2009-03-15T11:44:37Z</time>
      </trkpt>
      <trkpt lat="43.70982" lon="6.97433">
        <ele>663.9</ele>
        <time>2009-03-15T11:44:44Z</time>
      </trkpt>
      <trkpt lat="43.70988" lon="6.97391">
        <ele>663.9</ele>
        <time>2009-03-15T11:44:51Z</time>
      </trkpt>
      <trkpt lat="43.70989" lon="6.97348">
        <ele>664.9</ele>
        <time>2009-03-15T11:44:59Z</time>
      </trkpt>
      <trkpt lat="43.70986" lon="6.97303">
        <ele>666.3</ele>
        <time>2009-03-15T11:45:07Z</time>
      </trkpt>
      <trkpt lat="43.70986" lon="6.97262">
        <ele>665.9</ele>
        <time>2009-03-15T11:45:14Z</time>
      </trkpt>
      <trkpt lat="43.71002" lon="6.97226">
        <ele>664.4</ele>
        <time>2009-03-15T11:45:21Z</time>
      </trkpt>
      <trkpt lat="43.71031" lon="6.97216">
        <ele>665.9</ele>
        <time>2009-03-15T11:45:28Z</time>
      </trkpt>
      <trkpt lat="43.71059" lon="6.97232">
        <ele>665.4</ele>
        <time>2009-03-15T11:45:35Z</time>
      </trkpt>
      <trkpt lat="43.71083" lon="6.9725">
        <ele>665.9</ele>
        <time>2009-03-15T11:45:41Z</time>
      </trkpt>
      <trkpt lat="43.7111" lon="6.97266">
        <ele>665.9</ele>
        <time>2009-03-15T11:45:47Z</time>
      </trkpt>
      <trkpt lat="43.7114" lon="6.97264">
        <ele>668.3</ele>
        <time>2009-03-15T11:45:53Z</time>
      </trkpt>
      <trkpt lat="43.7117" lon="6.97257">
        <ele>670.7</ele>
        <time>2009-03-15T11:45:59Z</time>
      </trkpt>
      <trkpt lat="43.71199" lon="6.97267">
        <ele>668.3</ele>
        <time>2009-03-15T11:46:05Z</time>
      </trkpt>
      <trkpt lat="43.71227" lon="6.9728">
        <ele>666.8</ele>
        <time>2009-03-15T11:46:11Z</time>
      </trkpt>
      <trkpt lat="43.71257" lon="6.97295">
        <ele>667.3</ele>
        <time>2009-03-15T11:46:17Z</time>
      </trkpt>
      <trkpt lat="43.71277" lon="6.97324">
        <ele>667.8</ele>
        <time>2009-03-15T11:46:22Z</time>
      </trkpt>
      <trkpt lat="43.71295" lon="6.97353">
        <ele>668.3</ele>
        <time>2009-03-15T11:46:27Z</time>
      </trkpt>
      <trkpt lat="43.71326" lon="6.97366">
        <ele>668.7</ele>
        <time>2009-03-15T11:46:33Z</time>
      </trkpt>
      <trkpt lat="43.71359" lon="6.9736">
        <ele>669.2</ele>
        <time>2009-03-15T11:46:39Z</time>
      </trkpt>
      <trkpt lat="43.71388" lon="6.97349">
        <ele>669.2</ele>
        <time>2009-03-15T11:46:45Z</time>
      </trkpt>
      <trkpt lat="43.71419" lon="6.97347">
        <ele>669.2</ele>
        <time>2009-03-15T11:46:51Z</time>
      </trkpt>
      <trkpt lat="43.71446" lon="6.97355">
        <ele>668.3</ele>
        <time>2009-03-15T11:46:56Z</time>
      </trkpt>
      <trkpt lat="43.71478" lon="6.97358">
        <ele>672.6</ele>
        <time>2009-03-15T11:47:02Z</time>
      </trkpt>
      <trkpt lat="43.71507" lon="6.9736">
        <ele>672.6</ele>
        <time>2009-03-15T11:47:08Z</time>
      </trkpt>
      <trkpt lat="43.71537" lon="6.97369">
        <ele>673.1</ele>
        <time>2009-03-15T11:47:14Z</time>
      </trkpt>
      <trkpt lat="43.71567" lon="6.97359">
        <ele>673.1</ele>
        <time>2009-03-15T11:47:20Z</time>
      </trkpt>
      <trkpt lat="43.71593" lon="6.97355">
        <ele>672.6</ele>
        <time>2009-03-15T11:47:25Z</time>
      </trkpt>
      <trkpt lat="43.71621" lon="6.97366">
        <ele>671.1</ele>
        <time>2009-03-15T11:47:30Z</time>
      </trkpt>
      <trkpt lat="43.71652" lon="6.97348">
        <ele>667.3</ele>
        <time>2009-03-15T11:47:35Z</time>
      </trkpt>
      <trkpt lat="43.71677" lon="6.97316">
        <ele>665.9</ele>
        <time>2009-03-15T11:47:40Z</time>
      </trkpt>
      <trkpt lat="43.71699" lon="6.9729">
        <ele>663.9</ele>
        <time>2009-03-15T11:47:44Z</time>
      </trkpt>
      <trkpt lat="43.71723" lon="6.97264">
        <ele>663</ele>
        <time>2009-03-15T11:47:48Z</time>
      </trkpt>
      <trkpt lat="43.7174" lon="6.9723">
        <ele>661</ele>
        <time>2009-03-15T11:47:52Z</time>
      </trkpt>
      <trkpt lat="43.71751" lon="6.9719">
        <ele>660.6</ele>
        <time>2009-03-15T11:47:56Z</time>
      </trkpt>
      <trkpt lat="43.71762" lon="6.97151">
        <ele>660.6</ele>
        <time>2009-03-15T11:48:00Z</time>
      </trkpt>
      <trkpt lat="43.71774" lon="6.97112">
        <ele>659.1</ele>
        <time>2009-03-15T11:48:04Z</time>
      </trkpt>
      <trkpt lat="43.71783" lon="6.97072">
        <ele>659.6</ele>
        <time>2009-03-15T11:48:08Z</time>
      </trkpt>
      <trkpt lat="43.71785" lon="6.97031">
        <ele>660.1</ele>
        <time>2009-03-15T11:48:12Z</time>
      </trkpt>
      <trkpt lat="43.71793" lon="6.96995">
        <ele>659.6</ele>
        <time>2009-03-15T11:48:16Z</time>
      </trkpt>
      <trkpt lat="43.71803" lon="6.96964">
        <ele>659.6</ele>
        <time>2009-03-15T11:48:20Z</time>
      </trkpt>
      <trkpt lat="43.7181" lon="6.96927">
        <ele>659.1</ele>
        <time>2009-03-15T11:48:24Z</time>
      </trkpt>
      <trkpt lat="43.71809" lon="6.96889">
        <ele>659.1</ele>
        <time>2009-03-15T11:48:28Z</time>
      </trkpt>
      <trkpt lat="43.71815" lon="6.96852">
        <ele>658.6</ele>
        <time>2009-03-15T11:48:32Z</time>
      </trkpt>
      <trkpt lat="43.71836" lon="6.9682">
        <ele>660.6</ele>
        <time>2009-03-15T11:48:37Z</time>
      </trkpt>
      <trkpt lat="43.71858" lon="6.96791">
        <ele>662.5</ele>
        <time>2009-03-15T11:48:43Z</time>
      </trkpt>
      <trkpt lat="43.71876" lon="6.96757">
        <ele>662.5</ele>
        <time>2009-03-15T11:48:49Z</time>
      </trkpt>
      <trkpt lat="43.71892" lon="6.96724">
        <ele>663</ele>
        <time>2009-03-15T11:48:55Z</time>
      </trkpt>
      <trkpt lat="43.71914" lon="6.96697">
        <ele>664.4</ele>
        <time>2009-03-15T11:49:03Z</time>
      </trkpt>
      <trkpt lat="43.71943" lon="6.96702">
        <ele>664.4</ele>
        <time>2009-03-15T11:49:12Z</time>
      </trkpt>
      <trkpt lat="43.7197" lon="6.96721">
        <ele>664.4</ele>
        <time>2009-03-15T11:49:20Z</time>
      </trkpt>
      <trkpt lat="43.71996" lon="6.96742">
        <ele>664.9</ele>
        <time>2009-03-15T11:49:28Z</time>
      </trkpt>
      <trkpt lat="43.72022" lon="6.96755">
        <ele>664.4</ele>
        <time>2009-03-15T11:49:35Z</time>
      </trkpt>
      <trkpt lat="43.72053" lon="6.96755">
        <ele>670.7</ele>
        <time>2009-03-15T11:49:43Z</time>
      </trkpt>
      <trkpt lat="43.72079" lon="6.96746">
        <ele>676.4</ele>
        <time>2009-03-15T11:49:51Z</time>
      </trkpt>
      <trkpt lat="43.72092" lon="6.96774">
        <ele>684.6</ele>
        <time>2009-03-15T11:50:00Z</time>
      </trkpt>
      <trkpt lat="43.7207" lon="6.96798">
        <ele>692.8</ele>
        <time>2009-03-15T11:50:09Z</time>
      </trkpt>
      <trkpt lat="43.72048" lon="6.96818">
        <ele>696.1</ele>
        <time>2009-03-15T11:50:18Z</time>
      </trkpt>
      <trkpt lat="43.72026" lon="6.96843">
        <ele>697.6</ele>
        <time>2009-03-15T11:50:27Z</time>
      </trkpt>
      <trkpt lat="43.72003" lon="6.96861">
        <ele>695.7</ele>
        <time>2009-03-15T11:50:37Z</time>
      </trkpt>
      <trkpt lat="43.7198" lon="6.96882">
        <ele>696.6</ele>
        <time>2009-03-15T11:50:47Z</time>
      </trkpt>
      <trkpt lat="43.71973" lon="6.96923">
        <ele>690.4</ele>
        <time>2009-03-15T11:51:00Z</time>
      </trkpt>
      <trkpt lat="43.71983" lon="6.96959">
        <ele>688.9</ele>
        <time>2009-03-15T11:51:10Z</time>
      </trkpt>
      <trkpt lat="43.71989" lon="6.96998">
        <ele>691.8</ele>
        <time>2009-03-15T11:51:20Z</time>
      </trkpt>
      <trkpt lat="43.72" lon="6.97036">
        <ele>691.8</ele>
        <time>2009-03-15T11:51:31Z</time>
      </trkpt>
      <trkpt lat="43.72019" lon="6.97063">
        <ele>689.4</ele>
        <time>2009-03-15T11:51:42Z</time>
      </trkpt>
      <trkpt lat="43.72034" lon="6.97097">
        <ele>694.2</ele>
        <time>2009-03-15T11:51:54Z</time>
      </trkpt>
      <trkpt lat="43.72041" lon="6.97133">
        <ele>699.5</ele>
        <time>2009-03-15T11:52:06Z</time>
      </trkpt>
      <trkpt lat="43.72042" lon="6.97173">
        <ele>704.8</ele>
        <time>2009-03-15T11:52:18Z</time>
      </trkpt>
      <trkpt lat="43.72037" lon="6.97211">
        <ele>711.5</ele>
        <time>2009-03-15T11:52:29Z</time>
      </trkpt>
      <trkpt lat="43.72034" lon="6.97255">
        <ele>712.5</ele>
        <time>2009-03-15T11:52:40Z</time>
      </trkpt>
      <trkpt lat="43.72046" lon="6.97289">
        <ele>708.1</ele>
        <time>2009-03-15T11:52:50Z</time>
      </trkpt>
      <trkpt lat="43.72059" lon="6.97324">
        <ele>709.6</ele>
        <time>2009-03-15T11:53:03Z</time>
      </trkpt>
      <trkpt lat="43.72062" lon="6.97365">
        <ele>715.8</ele>
        <time>2009-03-15T11:53:14Z</time>
      </trkpt>
      <trkpt lat="43.72059" lon="6.97401">
        <ele>721.6</ele>
        <time>2009-03-15T11:53:24Z</time>
      </trkpt>
      <trkpt lat="43.72052" lon="6.9744">
        <ele>725.5</ele>
        <time>2009-03-15T11:53:36Z</time>
      </trkpt>
      <trkpt lat="43.72061" lon="6.97482">
        <ele>720.6</ele>
        <time>2009-03-15T11:53:48Z</time>
      </trkpt>
      <trkpt lat="43.72068" lon="6.9752">
        <ele>720.6</ele>
        <time>2009-03-15T11:54:00Z</time>
      </trkpt>
      <trkpt lat="43.72079" lon="6.97553">
        <ele>721.6</ele>
        <time>2009-03-15T11:54:12Z</time>
      </trkpt>
      <trkpt lat="43.72104" lon="6.97566">
        <ele>721.1</ele>
        <time>2009-03-15T11:54:23Z</time>
      </trkpt>
      <trkpt lat="43.72119" lon="6.97596">
        <ele>723</ele>
        <time>2009-03-15T11:54:37Z</time>
      </trkpt>
      <trkpt lat="43.72106" lon="6.9763">
        <ele>728.8</ele>
        <time>2009-03-15T11:54:51Z</time>
      </trkpt>
      <trkpt lat="43.72096" lon="6.97666">
        <ele>731.7</ele>
        <time>2009-03-15T11:55:05Z</time>
      </trkpt>
      <trkpt lat="43.72114" lon="6.97692">
        <ele>731.7</ele>
        <time>2009-03-15T11:55:17Z</time>
      </trkpt>
      <trkpt lat="43.72135" lon="6.977">
        <ele>730.7</ele>
        <time>2009-03-15T11:55:28Z</time>
      </trkpt>
      <trkpt lat="43.72154" lon="6.97671">
        <ele>737</ele>
        <time>2009-03-15T11:55:41Z</time>
      </trkpt>
      <trkpt lat="43.7217" lon="6.97633">
        <ele>738.9</ele>
        <time>2009-03-15T11:55:53Z</time>
      </trkpt>
      <trkpt lat="43.72179" lon="6.97593">
        <ele>738.9</ele>
        <time>2009-03-15T11:56:05Z</time>
      </trkpt>
      <trkpt lat="43.72174" lon="6.97553">
        <ele>740.8</ele>
        <time>2009-03-15T11:56:17Z</time>
      </trkpt>
      <trkpt lat="43.7216" lon="6.97514">
        <ele>740.4</ele>
        <time>2009-03-15T11:56:30Z</time>
      </trkpt>
      <trkpt lat="43.72145" lon="6.97478">
        <ele>740.4</ele>
        <time>2009-03-15T11:56:42Z</time>
      </trkpt>
      <trkpt lat="43.72145" lon="6.97442">
        <ele>745.6</ele>
        <time>2009-03-15T11:56:54Z</time>
      </trkpt>
      <trkpt lat="43.72166" lon="6.97418">
        <ele>750.9</ele>
        <time>2009-03-15T11:57:06Z</time>
      </trkpt>
      <trkpt lat="43.72194" lon="6.97407">
        <ele>752.4</ele>
        <time>2009-03-15T11:57:18Z</time>
      </trkpt>
      <trkpt lat="43.72219" lon="6.97394">
        <ele>756.2</ele>
        <time>2009-03-15T11:57:28Z</time>
      </trkpt>
      <trkpt lat="43.72247" lon="6.97378">
        <ele>760.1</ele>
        <time>2009-03-15T11:57:38Z</time>
      </trkpt>
      <trkpt lat="43.7227" lon="6.97355">
        <ele>760.5</ele>
        <time>2009-03-15T11:57:48Z</time>
      </trkpt>
      <trkpt lat="43.72279" lon="6.97319">
        <ele>759.1</ele>
        <time>2009-03-15T11:57:57Z</time>
      </trkpt>
      <trkpt lat="43.72283" lon="6.9728">
        <ele>759.1</ele>
        <time>2009-03-15T11:58:06Z</time>
      </trkpt>
      <trkpt lat="43.72278" lon="6.97239">
        <ele>760.1</ele>
        <time>2009-03-15T11:58:13Z</time>
      </trkpt>
      <trkpt lat="43.72282" lon="6.97202">
        <ele>761</ele>
        <time>2009-03-15T11:58:19Z</time>
      </trkpt>
      <trkpt lat="43.72292" lon="6.97166">
        <ele>765.8</ele>
        <time>2009-03-15T11:59:33Z</time>
      </trkpt>
      <trkpt lat="43.72297" lon="6.97123">
        <ele>768.2</ele>
        <time>2009-03-15T11:59:42Z</time>
      </trkpt>
      <trkpt lat="43.72297" lon="6.97082">
        <ele>769.7</ele>
        <time>2009-03-15T11:59:50Z</time>
      </trkpt>
      <trkpt lat="43.72295" lon="6.97044">
        <ele>772.6</ele>
        <time>2009-03-15T11:59:58Z</time>
      </trkpt>
      <trkpt lat="43.72291" lon="6.97003">
        <ele>775</ele>
        <time>2009-03-15T12:00:06Z</time>
      </trkpt>
      <trkpt lat="43.72288" lon="6.96962">
        <ele>776.4</ele>
        <time>2009-03-15T12:00:14Z</time>
      </trkpt>
      <trkpt lat="43.72288" lon="6.96923">
        <ele>775.9</ele>
        <time>2009-03-15T12:00:22Z</time>
      </trkpt>
      <trkpt lat="43.72287" lon="6.96884">
        <ele>775.4</ele>
        <time>2009-03-15T12:00:30Z</time>
      </trkpt>
      <trkpt lat="43.72282" lon="6.96843">
        <ele>779.3</ele>
        <time>2009-03-15T12:00:39Z</time>
      </trkpt>
      <trkpt lat="43.72277" lon="6.96805">
        <ele>781.7</ele>
        <time>2009-03-15T12:00:48Z</time>
      </trkpt>
      <trkpt lat="43.72285" lon="6.96767">
        <ele>786</ele>
        <time>2009-03-15T12:00:58Z</time>
      </trkpt>
      <trkpt lat="43.72307" lon="6.96748">
        <ele>792.3</ele>
        <time>2009-03-15T12:01:07Z</time>
      </trkpt>
      <trkpt lat="43.72334" lon="6.96753">
        <ele>796.1</ele>
        <time>2009-03-15T12:01:16Z</time>
      </trkpt>
      <trkpt lat="43.72354" lon="6.96781">
        <ele>796.1</ele>
        <time>2009-03-15T12:01:25Z</time>
      </trkpt>
      <trkpt lat="43.72366" lon="6.9682">
        <ele>794.2</ele>
        <time>2009-03-15T12:01:34Z</time>
      </trkpt>
      <trkpt lat="43.72377" lon="6.96859">
        <ele>794.2</ele>
        <time>2009-03-15T12:01:43Z</time>
      </trkpt>
      <trkpt lat="43.72389" lon="6.96894">
        <ele>794.2</ele>
        <time>2009-03-15T12:01:52Z</time>
      </trkpt>
      <trkpt lat="43.72402" lon="6.96929">
        <ele>796.6</ele>
        <time>2009-03-15T12:02:01Z</time>
      </trkpt>
      <trkpt lat="43.72416" lon="6.96966">
        <ele>797.1</ele>
        <time>2009-03-15T12:02:10Z</time>
      </trkpt>
      <trkpt lat="43.72435" lon="6.96991">
        <ele>797.6</ele>
        <time>2009-03-15T12:02:19Z</time>
      </trkpt>
      <trkpt lat="43.72462" lon="6.97006">
        <ele>798.5</ele>
        <time>2009-03-15T12:02:27Z</time>
      </trkpt>
      <trkpt lat="43.72484" lon="6.97033">
        <ele>801.4</ele>
        <time>2009-03-15T12:02:35Z</time>
      </trkpt>
      <trkpt lat="43.72487" lon="6.97074">
        <ele>806.2</ele>
        <time>2009-03-15T12:02:43Z</time>
      </trkpt>
      <trkpt lat="43.72473" lon="6.97105">
        <ele>811</ele>
        <time>2009-03-15T12:02:50Z</time>
      </trkpt>
      <trkpt lat="43.72462" lon="6.97143">
        <ele>814.4</ele>
        <time>2009-03-15T12:02:58Z</time>
      </trkpt>
      <trkpt lat="43.72475" lon="6.97174">
        <ele>814.4</ele>
        <time>2009-03-15T12:03:06Z</time>
      </trkpt>
      <trkpt lat="43.72501" lon="6.97165">
        <ele>814.9</ele>
        <time>2009-03-15T12:03:14Z</time>
      </trkpt>
      <trkpt lat="43.7252" lon="6.9714">
        <ele>816.3</ele>
        <time>2009-03-15T12:03:22Z</time>
      </trkpt>
      <trkpt lat="43.72539" lon="6.97112">
        <ele>818.7</ele>
        <time>2009-03-15T12:03:31Z</time>
      </trkpt>
      <trkpt lat="43.72557" lon="6.97084">
        <ele>822.1</ele>
        <time>2009-03-15T12:03:40Z</time>
      </trkpt>
      <trkpt lat="43.72576" lon="6.97056">
        <ele>827.8</ele>
        <time>2009-03-15T12:03:49Z</time>
      </trkpt>
      <trkpt lat="43.72595" lon="6.97026">
        <ele>830.2</ele>
        <time>2009-03-15T12:03:59Z</time>
      </trkpt>
      <trkpt lat="43.72616" lon="6.96989">
        <ele>830.2</ele>
        <time>2009-03-15T12:04:10Z</time>
      </trkpt>
      <trkpt lat="43.72632" lon="6.96954">
        <ele>831.2</ele>
        <time>2009-03-15T12:04:20Z</time>
      </trkpt>
      <trkpt lat="43.72647" lon="6.96921">
        <ele>833.6</ele>
        <time>2009-03-15T12:04:30Z</time>
      </trkpt>
      <trkpt lat="43.7266" lon="6.96889">
        <ele>837.4</ele>
        <time>2009-03-15T12:04:40Z</time>
      </trkpt>
      <trkpt lat="43.72674" lon="6.96855">
        <ele>841.8</ele>
        <time>2009-03-15T12:04:50Z</time>
      </trkpt>
      <trkpt lat="43.7269" lon="6.96822">
        <ele>841.3</ele>
        <time>2009-03-15T12:05:01Z</time>
      </trkpt>
      <trkpt lat="43.72705" lon="6.96786">
        <ele>840.3</ele>
        <time>2009-03-15T12:05:12Z</time>
      </trkpt>
      <trkpt lat="43.72715" lon="6.96748">
        <ele>838.4</ele>
        <time>2009-03-15T12:05:22Z</time>
      </trkpt>
      <trkpt lat="43.72721" lon="6.96711">
        <ele>840.3</ele>
        <time>2009-03-15T12:05:31Z</time>
      </trkpt>
      <trkpt lat="43.72727" lon="6.96671">
        <ele>841.8</ele>
        <time>2009-03-15T12:05:40Z</time>
      </trkpt>
      <trkpt lat="43.72733" lon="6.9663">
        <ele>842.3</ele>
        <time>2009-03-15T12:05:50Z</time>
      </trkpt>
      <trkpt lat="43.72736" lon="6.96591">
        <ele>846.6</ele>
        <time>2009-03-15T12:06:01Z</time>
      </trkpt>
      <trkpt lat="43.72737" lon="6.96554">
        <ele>846.6</ele>
        <time>2009-03-15T12:06:11Z</time>
      </trkpt>
      <trkpt lat="43.72736" lon="6.96515">
        <ele>846.6</ele>
        <time>2009-03-15T12:06:21Z</time>
      </trkpt>
      <trkpt lat="43.72734" lon="6.96478">
        <ele>848</ele>
        <time>2009-03-15T12:06:30Z</time>
      </trkpt>
      <trkpt lat="43.72734" lon="6.9644">
        <ele>851.4</ele>
        <time>2009-03-15T12:06:40Z</time>
      </trkpt>
      <trkpt lat="43.72734" lon="6.96399">
        <ele>851.4</ele>
        <time>2009-03-15T12:06:51Z</time>
      </trkpt>
      <trkpt lat="43.72733" lon="6.96358">
        <ele>853.3</ele>
        <time>2009-03-15T12:07:01Z</time>
      </trkpt>
      <trkpt lat="43.72732" lon="6.96321">
        <ele>857.2</ele>
        <time>2009-03-15T12:07:10Z</time>
      </trkpt>
      <trkpt lat="43.72731" lon="6.96281">
        <ele>863.9</ele>
        <time>2009-03-15T12:07:20Z</time>
      </trkpt>
      <trkpt lat="43.72732" lon="6.96241">
        <ele>868.7</ele>
        <time>2009-03-15T12:07:30Z</time>
      </trkpt>
      <trkpt lat="43.72743" lon="6.96204">
        <ele>873.5</ele>
        <time>2009-03-15T12:07:40Z</time>
      </trkpt>
      <trkpt lat="43.72758" lon="6.9617">
        <ele>876.4</ele>
        <time>2009-03-15T12:07:50Z</time>
      </trkpt>
      <trkpt lat="43.72775" lon="6.9614">
        <ele>877.8</ele>
        <time>2009-03-15T12:08:00Z</time>
      </trkpt>
      <trkpt lat="43.72797" lon="6.96114">
        <ele>881.2</ele>
        <time>2009-03-15T12:08:11Z</time>
      </trkpt>
      <trkpt lat="43.72821" lon="6.96094">
        <ele>879.7</ele>
        <time>2009-03-15T12:08:22Z</time>
      </trkpt>
      <trkpt lat="43.72849" lon="6.96078">
        <ele>881.7</ele>
        <time>2009-03-15T12:08:33Z</time>
      </trkpt>
      <trkpt lat="43.72875" lon="6.96062">
        <ele>883.6</ele>
        <time>2009-03-15T12:08:44Z</time>
      </trkpt>
      <trkpt lat="43.72901" lon="6.96047">
        <ele>887</ele>
        <time>2009-03-15T12:08:55Z</time>
      </trkpt>
      <trkpt lat="43.72927" lon="6.96031">
        <ele>889.8</ele>
        <time>2009-03-15T12:09:05Z</time>
      </trkpt>
      <trkpt lat="43.72952" lon="6.96015">
        <ele>893.7</ele>
        <time>2009-03-15T12:09:15Z</time>
      </trkpt>
      <trkpt lat="43.72978" lon="6.96">
        <ele>891.8</ele>
        <time>2009-03-15T12:09:27Z</time>
      </trkpt>
      <trkpt lat="43.73005" lon="6.95986">
        <ele>894.2</ele>
        <time>2009-03-15T12:09:39Z</time>
      </trkpt>
      <trkpt lat="43.73034" lon="6.9598">
        <ele>898.5</ele>
        <time>2009-03-15T12:09:50Z</time>
      </trkpt>
      <trkpt lat="43.73061" lon="6.95973">
        <ele>903.3</ele>
        <time>2009-03-15T12:10:02Z</time>
      </trkpt>
      <trkpt lat="43.73089" lon="6.95957">
        <ele>901.9</ele>
        <time>2009-03-15T12:10:16Z</time>
      </trkpt>
      <trkpt lat="43.73114" lon="6.95938">
        <ele>902.8</ele>
        <time>2009-03-15T12:10:26Z</time>
      </trkpt>
      <trkpt lat="43.7314" lon="6.9592">
        <ele>902.3</ele>
        <time>2009-03-15T12:10:36Z</time>
      </trkpt>
      <trkpt lat="43.73166" lon="6.95904">
        <ele>902.8</ele>
        <time>2009-03-15T12:10:47Z</time>
      </trkpt>
      <trkpt lat="43.73189" lon="6.95885">
        <ele>904.7</ele>
        <time>2009-03-15T12:10:57Z</time>
      </trkpt>
      <trkpt lat="43.73212" lon="6.9586">
        <ele>907.1</ele>
        <time>2009-03-15T12:11:08Z</time>
      </trkpt>
      <trkpt lat="43.73233" lon="6.95834">
        <ele>911.5</ele>
        <time>2009-03-15T12:11:19Z</time>
      </trkpt>
      <trkpt lat="43.73256" lon="6.95809">
        <ele>912.4</ele>
        <time>2009-03-15T12:11:30Z</time>
      </trkpt>
      <trkpt lat="43.73283" lon="6.95802">
        <ele>919.2</ele>
        <time>2009-03-15T12:11:41Z</time>
      </trkpt>
      <trkpt lat="43.73312" lon="6.95806">
        <ele>921.1</ele>
        <time>2009-03-15T12:11:52Z</time>
      </trkpt>
      <trkpt lat="43.73341" lon="6.95809">
        <ele>922</ele>
        <time>2009-03-15T12:12:03Z</time>
      </trkpt>
      <trkpt lat="43.7337" lon="6.95811">
        <ele>926.4</ele>
        <time>2009-03-15T12:12:14Z</time>
      </trkpt>
      <trkpt lat="43.73392" lon="6.95793">
        <ele>928.3</ele>
        <time>2009-03-15T12:12:25Z</time>
      </trkpt>
      <trkpt lat="43.73395" lon="6.9576">
        <ele>928.3</ele>
        <time>2009-03-15T12:12:37Z</time>
      </trkpt>
      <trkpt lat="43.73381" lon="6.95725">
        <ele>928.8</ele>
        <time>2009-03-15T12:12:48Z</time>
      </trkpt>
      <trkpt lat="43.73384" lon="6.95689">
        <ele>924.9</ele>
        <time>2009-03-15T12:12:59Z</time>
      </trkpt>
      <trkpt lat="43.73396" lon="6.95653">
        <ele>927.3</ele>
        <time>2009-03-15T12:13:11Z</time>
      </trkpt>
      <trkpt lat="43.73414" lon="6.9562">
        <ele>932.6</ele>
        <time>2009-03-15T12:13:24Z</time>
      </trkpt>
      <trkpt lat="43.73435" lon="6.95595">
        <ele>935</ele>
        <time>2009-03-15T12:13:34Z</time>
      </trkpt>
      <trkpt lat="43.73453" lon="6.95568">
        <ele>938.4</ele>
        <time>2009-03-15T12:13:45Z</time>
      </trkpt>
      <trkpt lat="43.73457" lon="6.95532">
        <ele>939.3</ele>
        <time>2009-03-15T12:13:56Z</time>
      </trkpt>
      <trkpt lat="43.73459" lon="6.95494">
        <ele>938.4</ele>
        <time>2009-03-15T12:14:06Z</time>
      </trkpt>
      <trkpt lat="43.73461" lon="6.95455">
        <ele>936.9</ele>
        <time>2009-03-15T12:14:15Z</time>
      </trkpt>
      <trkpt lat="43.73461" lon="6.95417">
        <ele>935</ele>
        <time>2009-03-15T12:14:24Z</time>
      </trkpt>
      <trkpt lat="43.73463" lon="6.95378">
        <ele>935</ele>
        <time>2009-03-15T12:14:36Z</time>
      </trkpt>
      <trkpt lat="43.7347" lon="6.95343">
        <ele>941.3</ele>
        <time>2009-03-15T12:14:47Z</time>
      </trkpt>
      <trkpt lat="43.73483" lon="6.95308">
        <ele>947</ele>
        <time>2009-03-15T12:15:00Z</time>
      </trkpt>
      <trkpt lat="43.73501" lon="6.95278">
        <ele>952.3</ele>
        <time>2009-03-15T12:15:12Z</time>
      </trkpt>
      <trkpt lat="43.7352" lon="6.95248">
        <ele>956.2</ele>
        <time>2009-03-15T12:15:23Z</time>
      </trkpt>
      <trkpt lat="43.73538" lon="6.9522">
        <ele>959.1</ele>
        <time>2009-03-15T12:15:34Z</time>
      </trkpt>
      <trkpt lat="43.73559" lon="6.95191">
        <ele>962.4</ele>
        <time>2009-03-15T12:15:45Z</time>
      </trkpt>
      <trkpt lat="43.73583" lon="6.95168">
        <ele>962.4</ele>
        <time>2009-03-15T12:15:57Z</time>
      </trkpt>
      <trkpt lat="43.73607" lon="6.95151">
        <ele>965.3</ele>
        <time>2009-03-15T12:16:10Z</time>
      </trkpt>
      <trkpt lat="43.7361" lon="6.9512">
        <ele>962.9</ele>
        <time>2009-03-15T12:16:23Z</time>
      </trkpt>
      <trkpt lat="43.73586" lon="6.95109">
        <ele>961.5</ele>
        <time>2009-03-15T12:16:37Z</time>
      </trkpt>
      <trkpt lat="43.73559" lon="6.95109">
        <ele>962.9</ele>
        <time>2009-03-15T12:16:49Z</time>
      </trkpt>
      <trkpt lat="43.7353" lon="6.95107">
        <ele>964.3</ele>
        <time>2009-03-15T12:17:02Z</time>
      </trkpt>
      <trkpt lat="43.73504" lon="6.95106">
        <ele>967.7</ele>
        <time>2009-03-15T12:17:16Z</time>
      </trkpt>
      <trkpt lat="43.73476" lon="6.95107">
        <ele>973</ele>
        <time>2009-03-15T12:17:28Z</time>
      </trkpt>
      <trkpt lat="43.73448" lon="6.95103">
        <ele>974.4</ele>
        <time>2009-03-15T12:17:39Z</time>
      </trkpt>
      <trkpt lat="43.73422" lon="6.95088">
        <ele>974.9</ele>
        <time>2009-03-15T12:17:49Z</time>
      </trkpt>
      <trkpt lat="43.73395" lon="6.95086">
        <ele>978.3</ele>
        <time>2009-03-15T12:17:58Z</time>
      </trkpt>
      <trkpt lat="43.73373" lon="6.95116">
        <ele>981.2</ele>
        <time>2009-03-15T12:18:08Z</time>
      </trkpt>
      <trkpt lat="43.73355" lon="6.95145">
        <ele>984.5</ele>
        <time>2009-03-15T12:18:17Z</time>
      </trkpt>
      <trkpt lat="43.73334" lon="6.95169">
        <ele>985.5</ele>
        <time>2009-03-15T12:18:26Z</time>
      </trkpt>
      <trkpt lat="43.73306" lon="6.95184">
        <ele>984</ele>
        <time>2009-03-15T12:18:36Z</time>
      </trkpt>
      <trkpt lat="43.7328" lon="6.95185">
        <ele>987.4</ele>
        <time>2009-03-15T12:18:46Z</time>
      </trkpt>
      <trkpt lat="43.73252" lon="6.9518">
        <ele>987.9</ele>
        <time>2009-03-15T12:18:56Z</time>
      </trkpt>
      <trkpt lat="43.73223" lon="6.95177">
        <ele>990.8</ele>
        <time>2009-03-15T12:19:06Z</time>
      </trkpt>
      <trkpt lat="43.73198" lon="6.95171">
        <ele>994.6</ele>
        <time>2009-03-15T12:19:18Z</time>
      </trkpt>
      <trkpt lat="43.73173" lon="6.95189">
        <ele>994.6</ele>
        <time>2009-03-15T12:19:29Z</time>
      </trkpt>
      <trkpt lat="43.73165" lon="6.95227">
        <ele>998</ele>
        <time>2009-03-15T12:19:39Z</time>
      </trkpt>
      <trkpt lat="43.73162" lon="6.95266">
        <ele>1001.4</ele>
        <time>2009-03-15T12:19:49Z</time>
      </trkpt>
      <trkpt lat="43.73152" lon="6.95302">
        <ele>1004.2</ele>
        <time>2009-03-15T12:19:58Z</time>
      </trkpt>
      <trkpt lat="43.73134" lon="6.95331">
        <ele>1006.2</ele>
        <time>2009-03-15T12:20:08Z</time>
      </trkpt>
      <trkpt lat="43.73111" lon="6.95335">
        <ele>1008.1</ele>
        <time>2009-03-15T12:20:17Z</time>
      </trkpt>
      <trkpt lat="43.73121" lon="6.95296">
        <ele>1006.6</ele>
        <time>2009-03-15T12:20:27Z</time>
      </trkpt>
      <trkpt lat="43.73131" lon="6.9526">
        <ele>1008.1</ele>
        <time>2009-03-15T12:20:36Z</time>
      </trkpt>
      <trkpt lat="43.73133" lon="6.95223">
        <ele>1009</ele>
        <time>2009-03-15T12:20:45Z</time>
      </trkpt>
      <trkpt lat="43.73127" lon="6.95183">
        <ele>1009</ele>
        <time>2009-03-15T12:20:55Z</time>
      </trkpt>
      <trkpt lat="43.73122" lon="6.95143">
        <ele>1012.9</ele>
        <time>2009-03-15T12:21:04Z</time>
      </trkpt>
      <trkpt lat="43.7312" lon="6.95104">
        <ele>1012.9</ele>
        <time>2009-03-15T12:21:13Z</time>
      </trkpt>
      <trkpt lat="43.73141" lon="6.95084">
        <ele>1016.3</ele>
        <time>2009-03-15T12:21:26Z</time>
      </trkpt>
      <trkpt lat="43.73169" lon="6.95087">
        <ele>1019.1</ele>
        <time>2009-03-15T12:21:38Z</time>
      </trkpt>
      <trkpt lat="43.73197" lon="6.95084">
        <ele>1020.1</ele>
        <time>2009-03-15T12:21:49Z</time>
      </trkpt>
      <trkpt lat="43.73224" lon="6.95074">
        <ele>1022</ele>
        <time>2009-03-15T12:22:00Z</time>
      </trkpt>
      <trkpt lat="43.7325" lon="6.95056">
        <ele>1023.5</ele>
        <time>2009-03-15T12:22:11Z</time>
      </trkpt>
      <trkpt lat="43.73273" lon="6.95035">
        <ele>1024.9</ele>
        <time>2009-03-15T12:22:23Z</time>
      </trkpt>
      <trkpt lat="43.73296" lon="6.95011">
        <ele>1027.8</ele>
        <time>2009-03-15T12:22:35Z</time>
      </trkpt>
      <trkpt lat="43.73316" lon="6.94985">
        <ele>1028.7</ele>
        <time>2009-03-15T12:22:47Z</time>
      </trkpt>
      <trkpt lat="43.73339" lon="6.9496">
        <ele>1028.3</ele>
        <time>2009-03-15T12:22:58Z</time>
      </trkpt>
      <trkpt lat="43.73366" lon="6.9494">
        <ele>1030.7</ele>
        <time>2009-03-15T12:23:08Z</time>
      </trkpt>
      <trkpt lat="43.73393" lon="6.94933">
        <ele>1034.5</ele>
        <time>2009-03-15T12:23:18Z</time>
      </trkpt>
      <trkpt lat="43.7342" lon="6.94932">
        <ele>1036</ele>
        <time>2009-03-15T12:23:28Z</time>
      </trkpt>
      <trkpt lat="43.73447" lon="6.94931">
        <ele>1038.8</ele>
        <time>2009-03-15T12:23:39Z</time>
      </trkpt>
      <trkpt lat="43.73474" lon="6.94928">
        <ele>1041.2</ele>
        <time>2009-03-15T12:23:51Z</time>
      </trkpt>
      <trkpt lat="43.73502" lon="6.94923">
        <ele>1044.1</ele>
        <time>2009-03-15T12:24:03Z</time>
      </trkpt>
      <trkpt lat="43.7353" lon="6.94913">
        <ele>1044.6</ele>
        <time>2009-03-15T12:24:14Z</time>
      </trkpt>
      <trkpt lat="43.73556" lon="6.94901">
        <ele>1047.5</ele>
        <time>2009-03-15T12:24:25Z</time>
      </trkpt>
      <trkpt lat="43.73583" lon="6.94889">
        <ele>1049.4</ele>
        <time>2009-03-15T12:24:36Z</time>
      </trkpt>
      <trkpt lat="43.73607" lon="6.9487">
        <ele>1049.9</ele>
        <time>2009-03-15T12:24:47Z</time>
      </trkpt>
      <trkpt lat="43.73628" lon="6.94845">
        <ele>1049.9</ele>
        <time>2009-03-15T12:24:58Z</time>
      </trkpt>
      <trkpt lat="43.73645" lon="6.94815">
        <ele>1048.9</ele>
        <time>2009-03-15T12:25:10Z</time>
      </trkpt>
      <trkpt lat="43.73664" lon="6.94782">
        <ele>1049.9</ele>
        <time>2009-03-15T12:25:21Z</time>
      </trkpt>
      <trkpt lat="43.73682" lon="6.94748">
        <ele>1053.7</ele>
        <time>2009-03-15T12:25:32Z</time>
      </trkpt>
      <trkpt lat="43.73701" lon="6.9472">
        <ele>1058.5</ele>
        <time>2009-03-15T12:25:43Z</time>
      </trkpt>
      <trkpt lat="43.73718" lon="6.94687">
        <ele>1061</ele>
        <time>2009-03-15T12:25:55Z</time>
      </trkpt>
      <trkpt lat="43.73735" lon="6.94653">
        <ele>1065.3</ele>
        <time>2009-03-15T12:26:07Z</time>
      </trkpt>
      <trkpt lat="43.73741" lon="6.94617">
        <ele>1068.6</ele>
        <time>2009-03-15T12:26:18Z</time>
      </trkpt>
      <trkpt lat="43.73732" lon="6.94582">
        <ele>1070.1</ele>
        <time>2009-03-15T12:26:29Z</time>
      </trkpt>
      <trkpt lat="43.73718" lon="6.94547">
        <ele>1071.5</ele>
        <time>2009-03-15T12:26:42Z</time>
      </trkpt>
      <trkpt lat="43.73708" lon="6.94523">
        <ele>1074.9</ele>
        <time>2009-03-15T12:26:58Z</time>
      </trkpt>
      <trkpt lat="43.737" lon="6.94557">
        <ele>1076.8</ele>
        <time>2009-03-15T12:27:13Z</time>
      </trkpt>
      <trkpt lat="43.73696" lon="6.94595">
        <ele>1083.5</ele>
        <time>2009-03-15T12:27:26Z</time>
      </trkpt>
      <trkpt lat="43.73677" lon="6.9464">
        <ele>1092.2</ele>
        <time>2009-03-15T12:27:43Z</time>
      </trkpt>
      <trkpt lat="43.7365" lon="6.94664">
        <ele>1095.1</ele>
        <time>2009-03-15T12:27:58Z</time>
      </trkpt>
      <trkpt lat="43.73622" lon="6.94673">
        <ele>1098.9</ele>
        <time>2009-03-15T12:28:12Z</time>
      </trkpt>
      <trkpt lat="43.7359" lon="6.9467">
        <ele>1102.3</ele>
        <time>2009-03-15T12:28:24Z</time>
      </trkpt>
      <trkpt lat="43.73566" lon="6.94647">
        <ele>1103.7</ele>
        <time>2009-03-15T12:28:38Z</time>
      </trkpt>
      <trkpt lat="43.73565" lon="6.94608">
        <ele>1103.7</ele>
        <time>2009-03-15T12:28:53Z</time>
      </trkpt>
      <trkpt lat="43.73569" lon="6.94563">
        <ele>1104.2</ele>
        <time>2009-03-15T12:29:05Z</time>
      </trkpt>
      <trkpt lat="43.73556" lon="6.94528">
        <ele>1103.7</ele>
        <time>2009-03-15T12:29:13Z</time>
      </trkpt>
      <trkpt lat="43.73531" lon="6.94509">
        <ele>1104.7</ele>
        <time>2009-03-15T12:29:21Z</time>
      </trkpt>
      <trkpt lat="43.73509" lon="6.94486">
        <ele>1101.8</ele>
        <time>2009-03-15T12:29:29Z</time>
      </trkpt>
      <trkpt lat="43.73491" lon="6.94451">
        <ele>1100.8</ele>
        <time>2009-03-15T12:29:38Z</time>
      </trkpt>
      <trkpt lat="43.73467" lon="6.94427">
        <ele>1101.8</ele>
        <time>2009-03-15T12:29:47Z</time>
      </trkpt>
      <trkpt lat="43.73476" lon="6.94389">
        <ele>1107.6</ele>
        <time>2009-03-15T12:29:59Z</time>
      </trkpt>
      <trkpt lat="43.73457" lon="6.94353">
        <ele>1111.9</ele>
        <time>2009-03-15T12:30:10Z</time>
      </trkpt>
      <trkpt lat="43.7344" lon="6.94312">
        <ele>1114.3</ele>
        <time>2009-03-15T12:30:20Z</time>
      </trkpt>
      <trkpt lat="43.7343" lon="6.94273">
        <ele>1115.3</ele>
        <time>2009-03-15T12:30:30Z</time>
      </trkpt>
      <trkpt lat="43.73429" lon="6.94233">
        <ele>1112.9</ele>
        <time>2009-03-15T12:30:39Z</time>
      </trkpt>
      <trkpt lat="43.73425" lon="6.94192">
        <ele>1116.2</ele>
        <time>2009-03-15T12:30:51Z</time>
      </trkpt>
      <trkpt lat="43.73399" lon="6.94194">
        <ele>1116.2</ele>
        <time>2009-03-15T12:31:02Z</time>
      </trkpt>
      <trkpt lat="43.73373" lon="6.94212">
        <ele>1115.7</ele>
        <time>2009-03-15T12:31:12Z</time>
      </trkpt>
      <trkpt lat="43.73343" lon="6.94222">
        <ele>1115.7</ele>
        <time>2009-03-15T12:31:21Z</time>
      </trkpt>
      <trkpt lat="43.73317" lon="6.94232">
        <ele>1113.8</ele>
        <time>2009-03-15T12:31:28Z</time>
      </trkpt>
      <trkpt lat="43.73292" lon="6.94245">
        <ele>1111.4</ele>
        <time>2009-03-15T12:31:45Z</time>
      </trkpt>
      <trkpt lat="43.73287" lon="6.94228">
        <ele>1110.9</ele>
        <time>2009-03-15T12:32:15Z</time>
      </trkpt>
      <trkpt lat="43.7327" lon="6.94192">
        <ele>1109.5</ele>
        <time>2009-03-15T12:32:23Z</time>
      </trkpt>
      <trkpt lat="43.73244" lon="6.94171">
        <ele>1109.5</ele>
        <time>2009-03-15T12:32:29Z</time>
      </trkpt>
      <trkpt lat="43.73213" lon="6.94164">
        <ele>1107.6</ele>
        <time>2009-03-15T12:32:34Z</time>
      </trkpt>
      <trkpt lat="43.73186" lon="6.94149">
        <ele>1109</ele>
        <time>2009-03-15T12:32:41Z</time>
      </trkpt>
      <trkpt lat="43.73158" lon="6.94137">
        <ele>1112.9</ele>
        <time>2009-03-15T12:32:52Z</time>
      </trkpt>
      <trkpt lat="43.7313" lon="6.94128">
        <ele>1117.7</ele>
        <time>2009-03-15T12:33:01Z</time>
      </trkpt>
      <trkpt lat="43.731" lon="6.94118">
        <ele>1120.1</ele>
        <time>2009-03-15T12:33:11Z</time>
      </trkpt>
      <trkpt lat="43.73072" lon="6.9411">
        <ele>1123.4</ele>
        <time>2009-03-15T12:33:20Z</time>
      </trkpt>
      <trkpt lat="43.73044" lon="6.94096">
        <ele>1124.4</ele>
        <time>2009-03-15T12:33:29Z</time>
      </trkpt>
      <trkpt lat="43.7302" lon="6.94079">
        <ele>1127.8</ele>
        <time>2009-03-15T12:33:38Z</time>
      </trkpt>
      <trkpt lat="43.72995" lon="6.94062">
        <ele>1130.2</ele>
        <time>2009-03-15T12:33:49Z</time>
      </trkpt>
      <trkpt lat="43.72975" lon="6.94036">
        <ele>1133.5</ele>
        <time>2009-03-15T12:34:00Z</time>
      </trkpt>
      <trkpt lat="43.72957" lon="6.94008">
        <ele>1134.5</ele>
        <time>2009-03-15T12:34:11Z</time>
      </trkpt>
      <trkpt lat="43.7293" lon="6.93987">
        <ele>1133.5</ele>
        <time>2009-03-15T12:34:22Z</time>
      </trkpt>
      <trkpt lat="43.72901" lon="6.93985">
        <ele>1132.1</ele>
        <time>2009-03-15T12:34:29Z</time>
      </trkpt>
      <trkpt lat="43.7287" lon="6.93984">
        <ele>1131.1</ele>
        <time>2009-03-15T12:34:36Z</time>
      </trkpt>
      <trkpt lat="43.72842" lon="6.93982">
        <ele>1131.1</ele>
        <time>2009-03-15T12:34:42Z</time>
      </trkpt>
      <trkpt lat="43.72813" lon="6.9398">
        <ele>1133.1</ele>
        <time>2009-03-15T12:34:52Z</time>
      </trkpt>
      <trkpt lat="43.72784" lon="6.9398">
        <ele>1136.4</ele>
        <time>2009-03-15T12:35:03Z</time>
      </trkpt>
      <trkpt lat="43.72757" lon="6.93976">
        <ele>1138.3</ele>
        <time>2009-03-15T12:35:13Z</time>
      </trkpt>
      <trkpt lat="43.7273" lon="6.93971">
        <ele>1140.7</ele>
        <time>2009-03-15T12:35:23Z</time>
      </trkpt>
      <trkpt lat="43.72704" lon="6.93963">
        <ele>1143.6</ele>
        <time>2009-03-15T12:35:35Z</time>
      </trkpt>
      <trkpt lat="43.72676" lon="6.93958">
        <ele>1146</ele>
        <time>2009-03-15T12:35:50Z</time>
      </trkpt>
      <trkpt lat="43.72647" lon="6.93951">
        <ele>1146</ele>
        <time>2009-03-15T12:36:05Z</time>
      </trkpt>
      <trkpt lat="43.72621" lon="6.93947">
        <ele>1150.4</ele>
        <time>2009-03-15T12:36:19Z</time>
      </trkpt>
      <trkpt lat="43.72595" lon="6.93941">
        <ele>1155.2</ele>
        <time>2009-03-15T12:36:36Z</time>
      </trkpt>
      <trkpt lat="43.72567" lon="6.93935">
        <ele>1157.6</ele>
        <time>2009-03-15T12:36:52Z</time>
      </trkpt>
      <trkpt lat="43.72541" lon="6.9393">
        <ele>1162.4</ele>
        <time>2009-03-15T12:37:08Z</time>
      </trkpt>
      <trkpt lat="43.72514" lon="6.93923">
        <ele>1166.7</ele>
        <time>2009-03-15T12:37:24Z</time>
      </trkpt>
      <trkpt lat="43.72492" lon="6.93907">
        <ele>1172</ele>
        <time>2009-03-15T12:37:42Z</time>
      </trkpt>
      <trkpt lat="43.72469" lon="6.93883">
        <ele>1172</ele>
        <time>2009-03-15T12:37:57Z</time>
      </trkpt>
      <trkpt lat="43.72448" lon="6.93859">
        <ele>1174.4</ele>
        <time>2009-03-15T12:38:10Z</time>
      </trkpt>
      <trkpt lat="43.72426" lon="6.93833">
        <ele>1176.8</ele>
        <time>2009-03-15T12:38:24Z</time>
      </trkpt>
      <trkpt lat="43.72402" lon="6.93812">
        <ele>1181.6</ele>
        <time>2009-03-15T12:38:40Z</time>
      </trkpt>
      <trkpt lat="43.72377" lon="6.93799">
        <ele>1183</ele>
        <time>2009-03-15T12:38:54Z</time>
      </trkpt>
      <trkpt lat="43.72352" lon="6.93783">
        <ele>1185</ele>
        <time>2009-03-15T12:39:08Z</time>
      </trkpt>
      <trkpt lat="43.72326" lon="6.93779">
        <ele>1191.2</ele>
        <time>2009-03-15T12:39:25Z</time>
      </trkpt>
      <trkpt lat="43.72298" lon="6.93786">
        <ele>1195.1</ele>
        <time>2009-03-15T12:39:44Z</time>
      </trkpt>
      <trkpt lat="43.72276" lon="6.93809">
        <ele>1198.4</ele>
        <time>2009-03-15T12:40:03Z</time>
      </trkpt>
      <trkpt lat="43.72252" lon="6.93831">
        <ele>1201.3</ele>
        <time>2009-03-15T12:40:20Z</time>
      </trkpt>
      <trkpt lat="43.72227" lon="6.93844">
        <ele>1204.2</ele>
        <time>2009-03-15T12:40:36Z</time>
      </trkpt>
      <trkpt lat="43.72201" lon="6.93847">
        <ele>1205.6</ele>
        <time>2009-03-15T12:40:53Z</time>
      </trkpt>
      <trkpt lat="43.72175" lon="6.93837">
        <ele>1209.5</ele>
        <time>2009-03-15T12:41:13Z</time>
      </trkpt>
      <trkpt lat="43.72152" lon="6.93814">
        <ele>1216.2</ele>
        <time>2009-03-15T12:41:32Z</time>
      </trkpt>
      <trkpt lat="43.7213" lon="6.93789">
        <ele>1222</ele>
        <time>2009-03-15T12:41:48Z</time>
      </trkpt>
      <trkpt lat="43.72109" lon="6.93765">
        <ele>1225.8</ele>
        <time>2009-03-15T12:42:06Z</time>
      </trkpt>
      <trkpt lat="43.72087" lon="6.9374">
        <ele>1230.6</ele>
        <time>2009-03-15T12:42:30Z</time>
      </trkpt>
      <trkpt lat="43.72063" lon="6.93716">
        <ele>1234</ele>
        <time>2009-03-15T12:42:52Z</time>
      </trkpt>
      <trkpt lat="43.7204" lon="6.93695">
        <ele>1235.4</ele>
        <time>2009-03-15T12:43:14Z</time>
      </trkpt>
      <trkpt lat="43.72018" lon="6.93673">
        <ele>1241.2</ele>
        <time>2009-03-15T12:43:35Z</time>
      </trkpt>
      <trkpt lat="43.71996" lon="6.9365">
        <ele>1244.6</ele>
        <time>2009-03-15T12:43:56Z</time>
      </trkpt>
      <trkpt lat="43.71973" lon="6.9363">
        <ele>1248.4</ele>
        <time>2009-03-15T12:44:17Z</time>
      </trkpt>
      <trkpt lat="43.71953" lon="6.93606">
        <ele>1254.2</ele>
        <time>2009-03-15T12:44:41Z</time>
      </trkpt>
      <trkpt lat="43.71933" lon="6.93579">
        <ele>1260.4</ele>
        <time>2009-03-15T12:45:02Z</time>
      </trkpt>
      <trkpt lat="43.71913" lon="6.9355">
        <ele>1267.2</ele>
        <time>2009-03-15T12:45:23Z</time>
      </trkpt>
      <trkpt lat="43.71892" lon="6.93523">
        <ele>1269.1</ele>
        <time>2009-03-15T12:45:40Z</time>
      </trkpt>
      <trkpt lat="43.71872" lon="6.93493">
        <ele>1271</ele>
        <time>2009-03-15T12:45:54Z</time>
      </trkpt>
      <trkpt lat="43.71855" lon="6.93465">
        <ele>1270</ele>
        <time>2009-03-15T12:46:05Z</time>
      </trkpt>
      <trkpt lat="43.71837" lon="6.93434">
        <ele>1270</ele>
        <time>2009-03-15T12:46:16Z</time>
      </trkpt>
      <trkpt lat="43.7182" lon="6.934">
        <ele>1269.6</ele>
        <time>2009-03-15T12:46:24Z</time>
      </trkpt>
      <trkpt lat="43.71803" lon="6.93367">
        <ele>1270</ele>
        <time>2009-03-15T12:46:32Z</time>
      </trkpt>
      <trkpt lat="43.71782" lon="6.93345">
        <ele>1271</ele>
        <time>2009-03-15T12:46:47Z</time>
      </trkpt>
      <trkpt lat="43.71755" lon="6.93347">
        <ele>1272.9</ele>
        <time>2009-03-15T12:47:03Z</time>
      </trkpt>
      <trkpt lat="43.71728" lon="6.93359">
        <ele>1276.3</ele>
        <time>2009-03-15T12:47:21Z</time>
      </trkpt>
      <trkpt lat="43.71701" lon="6.93364">
        <ele>1280.1</ele>
        <time>2009-03-15T12:47:39Z</time>
      </trkpt>
      <trkpt lat="43.71675" lon="6.93361">
        <ele>1283</ele>
        <time>2009-03-15T12:47:58Z</time>
      </trkpt>
      <trkpt lat="43.71651" lon="6.93344">
        <ele>1284</ele>
        <time>2009-03-15T12:48:13Z</time>
      </trkpt>
      <trkpt lat="43.71631" lon="6.93319">
        <ele>1295.5</ele>
        <time>2009-03-15T12:48:31Z</time>
      </trkpt>
      <trkpt lat="43.71614" lon="6.93288">
        <ele>1300.8</ele>
        <time>2009-03-15T12:48:50Z</time>
      </trkpt>
      <trkpt lat="43.71607" lon="6.93251">
        <ele>1305.6</ele>
        <time>2009-03-15T12:49:14Z</time>
      </trkpt>
      <trkpt lat="43.71608" lon="6.93213">
        <ele>1310.9</ele>
        <time>2009-03-15T12:49:35Z</time>
      </trkpt>
      <trkpt lat="43.71609" lon="6.93176">
        <ele>1312.3</ele>
        <time>2009-03-15T12:49:55Z</time>
      </trkpt>
      <trkpt lat="43.71607" lon="6.93141">
        <ele>1319.1</ele>
        <time>2009-03-15T12:50:16Z</time>
      </trkpt>
      <trkpt lat="43.71602" lon="6.93106">
        <ele>1326.8</ele>
        <time>2009-03-15T12:50:39Z</time>
      </trkpt>
      <trkpt lat="43.71591" lon="6.93071">
        <ele>1327.7</ele>
        <time>2009-03-15T12:51:02Z</time>
      </trkpt>
      <trkpt lat="43.71577" lon="6.93038">
        <ele>1331.1</ele>
        <time>2009-03-15T12:51:22Z</time>
      </trkpt>
      <trkpt lat="43.71552" lon="6.93048">
        <ele>1331.1</ele>
        <time>2009-03-15T12:51:42Z</time>
      </trkpt>
      <trkpt lat="43.71532" lon="6.93074">
        <ele>1330.6</ele>
        <time>2009-03-15T12:51:57Z</time>
      </trkpt>
      <trkpt lat="43.71543" lon="6.93051">
        <ele>1331.6</ele>
        <time>2009-03-15T12:59:13Z</time>
      </trkpt>
      <trkpt lat="43.71563" lon="6.93065">
        <ele>1330.6</ele>
        <time>2009-03-15T12:59:28Z</time>
      </trkpt>
      <trkpt lat="43.71576" lon="6.93038">
        <ele>1328.7</ele>
        <time>2009-03-15T12:59:46Z</time>
      </trkpt>
      <trkpt lat="43.71589" lon="6.93066">
        <ele>1326.3</ele>
        <time>2009-03-15T12:59:57Z</time>
      </trkpt>
      <trkpt lat="43.71599" lon="6.93106">
        <ele>1323.4</ele>
        <time>2009-03-15T13:00:05Z</time>
      </trkpt>
      <trkpt lat="43.71605" lon="6.93151">
        <ele>1318.6</ele>
        <time>2009-03-15T13:00:11Z</time>
      </trkpt>
      <trkpt lat="43.71604" lon="6.93197">
        <ele>1312.3</ele>
        <time>2009-03-15T13:00:15Z</time>
      </trkpt>
      <trkpt lat="43.71604" lon="6.93239">
        <ele>1306.1</ele>
        <time>2009-03-15T13:00:18Z</time>
      </trkpt>
      <trkpt lat="43.7161" lon="6.9328">
        <ele>1301.3</ele>
        <time>2009-03-15T13:00:21Z</time>
      </trkpt>
      <trkpt lat="43.71625" lon="6.93314">
        <ele>1295.5</ele>
        <time>2009-03-15T13:00:24Z</time>
      </trkpt>
      <trkpt lat="43.71648" lon="6.93343">
        <ele>1289.7</ele>
        <time>2009-03-15T13:00:27Z</time>
      </trkpt>
      <trkpt lat="43.71676" lon="6.93361">
        <ele>1283.5</ele>
        <time>2009-03-15T13:00:30Z</time>
      </trkpt>
      <trkpt lat="43.71713" lon="6.93363">
        <ele>1274.8</ele>
        <time>2009-03-15T13:00:34Z</time>
      </trkpt>
      <trkpt lat="43.71747" lon="6.93349">
        <ele>1270</ele>
        <time>2009-03-15T13:00:37Z</time>
      </trkpt>
      <trkpt lat="43.71776" lon="6.93341">
        <ele>1268.6</ele>
        <time>2009-03-15T13:00:40Z</time>
      </trkpt>
      <trkpt lat="43.718" lon="6.93362">
        <ele>1267.6</ele>
        <time>2009-03-15T13:00:45Z</time>
      </trkpt>
      <trkpt lat="43.71818" lon="6.93398">
        <ele>1266.7</ele>
        <time>2009-03-15T13:00:51Z</time>
      </trkpt>
      <trkpt lat="43.71837" lon="6.93432">
        <ele>1268.1</ele>
        <time>2009-03-15T13:00:57Z</time>
      </trkpt>
      <trkpt lat="43.71855" lon="6.93466">
        <ele>1268.1</ele>
        <time>2009-03-15T13:01:02Z</time>
      </trkpt>
      <trkpt lat="43.71876" lon="6.93499">
        <ele>1267.2</ele>
        <time>2009-03-15T13:01:08Z</time>
      </trkpt>
      <trkpt lat="43.71895" lon="6.93527">
        <ele>1266.7</ele>
        <time>2009-03-15T13:01:17Z</time>
      </trkpt>
      <trkpt lat="43.71916" lon="6.93553">
        <ele>1263.3</ele>
        <time>2009-03-15T13:01:32Z</time>
      </trkpt>
      <trkpt lat="43.71935" lon="6.9358">
        <ele>1257.1</ele>
        <time>2009-03-15T13:01:40Z</time>
      </trkpt>
      <trkpt lat="43.71959" lon="6.93613">
        <ele>1250.8</ele>
        <time>2009-03-15T13:01:45Z</time>
      </trkpt>
      <trkpt lat="43.71983" lon="6.93638">
        <ele>1246.5</ele>
        <time>2009-03-15T13:01:50Z</time>
      </trkpt>
      <trkpt lat="43.7201" lon="6.93665">
        <ele>1241.7</ele>
        <time>2009-03-15T13:01:55Z</time>
      </trkpt>
      <trkpt lat="43.72032" lon="6.93688">
        <ele>1237.4</ele>
        <time>2009-03-15T13:01:59Z</time>
      </trkpt>
      <trkpt lat="43.72055" lon="6.9371">
        <ele>1232.5</ele>
        <time>2009-03-15T13:02:03Z</time>
      </trkpt>
      <trkpt lat="43.72078" lon="6.93731">
        <ele>1229.2</ele>
        <time>2009-03-15T13:02:07Z</time>
      </trkpt>
      <trkpt lat="43.72101" lon="6.93754">
        <ele>1224.9</ele>
        <time>2009-03-15T13:02:10Z</time>
      </trkpt>
      <trkpt lat="43.72127" lon="6.93784">
        <ele>1220.1</ele>
        <time>2009-03-15T13:02:13Z</time>
      </trkpt>
      <trkpt lat="43.72151" lon="6.93814">
        <ele>1215.7</ele>
        <time>2009-03-15T13:02:16Z</time>
      </trkpt>
      <trkpt lat="43.72174" lon="6.93835">
        <ele>1211.4</ele>
        <time>2009-03-15T13:02:22Z</time>
      </trkpt>
      <trkpt lat="43.72202" lon="6.93846">
        <ele>1206.6</ele>
        <time>2009-03-15T13:02:32Z</time>
      </trkpt>
      <trkpt lat="43.72226" lon="6.93855">
        <ele>1203.2</ele>
        <time>2009-03-15T13:02:43Z</time>
      </trkpt>
      <trkpt lat="43.72241" lon="6.93887">
        <ele>1203.7</ele>
        <time>2009-03-15T13:02:55Z</time>
      </trkpt>
      <trkpt lat="43.72255" lon="6.93924">
        <ele>1200.8</ele>
        <time>2009-03-15T13:03:02Z</time>
      </trkpt>
      <trkpt lat="43.72277" lon="6.9395">
        <ele>1196.5</ele>
        <time>2009-03-15T13:03:11Z</time>
      </trkpt>
      <trkpt lat="43.72303" lon="6.93961">
        <ele>1193.1</ele>
        <time>2009-03-15T13:03:21Z</time>
      </trkpt>
      <trkpt lat="43.72322" lon="6.93989">
        <ele>1193.1</ele>
        <time>2009-03-15T13:03:32Z</time>
      </trkpt>
      <trkpt lat="43.72332" lon="6.94027">
        <ele>1190.7</ele>
        <time>2009-03-15T13:03:44Z</time>
      </trkpt>
      <trkpt lat="43.72346" lon="6.94063">
        <ele>1186.9</ele>
        <time>2009-03-15T13:03:54Z</time>
      </trkpt>
      <trkpt lat="43.72351" lon="6.94098">
        <ele>1186.4</ele>
        <time>2009-03-15T13:04:03Z</time>
      </trkpt>
      <trkpt lat="43.72345" lon="6.9413">
        <ele>1184</ele>
        <time>2009-03-15T13:04:18Z</time>
      </trkpt>
      <trkpt lat="43.72363" lon="6.94159">
        <ele>1181.6</ele>
        <time>2009-03-15T13:04:30Z</time>
      </trkpt>
      <trkpt lat="43.72368" lon="6.94183">
        <ele>1179.2</ele>
        <time>2009-03-15T13:04:53Z</time>
      </trkpt>
      <trkpt lat="43.72388" lon="6.94211">
        <ele>1177.3</ele>
        <time>2009-03-15T13:05:08Z</time>
      </trkpt>
      <trkpt lat="43.72397" lon="6.94246">
        <ele>1177.8</ele>
        <time>2009-03-15T13:05:25Z</time>
      </trkpt>
      <trkpt lat="43.72413" lon="6.94276">
        <ele>1175.3</ele>
        <time>2009-03-15T13:05:40Z</time>
      </trkpt>
      <trkpt lat="43.72432" lon="6.94304">
        <ele>1172.5</ele>
        <time>2009-03-15T13:05:53Z</time>
      </trkpt>
      <trkpt lat="43.7245" lon="6.94334">
        <ele>1168.6</ele>
        <time>2009-03-15T13:06:04Z</time>
      </trkpt>
      <trkpt lat="43.72469" lon="6.94361">
        <ele>1164.8</ele>
        <time>2009-03-15T13:06:14Z</time>
      </trkpt>
      <trkpt lat="43.72491" lon="6.94386">
        <ele>1157.6</ele>
        <time>2009-03-15T13:06:25Z</time>
      </trkpt>
      <trkpt lat="43.72518" lon="6.94404">
        <ele>1152.8</ele>
        <time>2009-03-15T13:06:37Z</time>
      </trkpt>
      <trkpt lat="43.72531" lon="6.94432">
        <ele>1148.4</ele>
        <time>2009-03-15T13:07:04Z</time>
      </trkpt>
      <trkpt lat="43.72539" lon="6.94466">
        <ele>1143.1</ele>
        <time>2009-03-15T13:07:39Z</time>
      </trkpt>
      <trkpt lat="43.72546" lon="6.94501">
        <ele>1138.3</ele>
        <time>2009-03-15T13:07:58Z</time>
      </trkpt>
      <trkpt lat="43.72571" lon="6.94517">
        <ele>1131.1</ele>
        <time>2009-03-15T13:08:08Z</time>
      </trkpt>
      <trkpt lat="43.72599" lon="6.94518">
        <ele>1124.9</ele>
        <time>2009-03-15T13:08:19Z</time>
      </trkpt>
      <trkpt lat="43.72621" lon="6.94537">
        <ele>1121</ele>
        <time>2009-03-15T13:08:52Z</time>
      </trkpt>
      <trkpt lat="43.72648" lon="6.94547">
        <ele>1115.3</ele>
        <time>2009-03-15T13:09:03Z</time>
      </trkpt>
      <trkpt lat="43.72656" lon="6.94582">
        <ele>1111.4</ele>
        <time>2009-03-15T13:09:12Z</time>
      </trkpt>
      <trkpt lat="43.7268" lon="6.94595">
        <ele>1105.2</ele>
        <time>2009-03-15T13:09:23Z</time>
      </trkpt>
      <trkpt lat="43.72682" lon="6.94624">
        <ele>1103.7</ele>
        <time>2009-03-15T13:09:38Z</time>
      </trkpt>
      <trkpt lat="43.72708" lon="6.94641">
        <ele>1098.9</ele>
        <time>2009-03-15T13:09:45Z</time>
      </trkpt>
      <trkpt lat="43.7272" lon="6.94673">
        <ele>1098.4</ele>
        <time>2009-03-15T13:09:54Z</time>
      </trkpt>
      <trkpt lat="43.72716" lon="6.94673">
        <ele>1097.5</ele>
        <time>2009-03-15T13:10:14Z</time>
      </trkpt>
      <trkpt lat="43.72739" lon="6.94645">
        <ele>1098</ele>
        <time>2009-03-15T13:10:26Z</time>
      </trkpt>
      <trkpt lat="43.72762" lon="6.94622">
        <ele>1098.4</ele>
        <time>2009-03-15T13:10:37Z</time>
      </trkpt>
      <trkpt lat="43.72786" lon="6.94639">
        <ele>1095.6</ele>
        <time>2009-03-15T13:10:45Z</time>
      </trkpt>
      <trkpt lat="43.72795" lon="6.94677">
        <ele>1094.1</ele>
        <time>2009-03-15T13:10:50Z</time>
      </trkpt>
      <trkpt lat="43.72806" lon="6.9472">
        <ele>1091.7</ele>
        <time>2009-03-15T13:10:55Z</time>
      </trkpt>
      <trkpt lat="43.72827" lon="6.94746">
        <ele>1087.9</ele>
        <time>2009-03-15T13:10:59Z</time>
      </trkpt>
      <trkpt lat="43.72839" lon="6.94784">
        <ele>1084.5</ele>
        <time>2009-03-15T13:11:03Z</time>
      </trkpt>
      <trkpt lat="43.72837" lon="6.9482">
        <ele>1081.1</ele>
        <time>2009-03-15T13:11:07Z</time>
      </trkpt>
      <trkpt lat="43.72855" lon="6.94845">
        <ele>1077.8</ele>
        <time>2009-03-15T13:11:12Z</time>
      </trkpt>
      <trkpt lat="43.72857" lon="6.9488">
        <ele>1074.9</ele>
        <time>2009-03-15T13:11:17Z</time>
      </trkpt>
      <trkpt lat="43.72869" lon="6.94914">
        <ele>1073</ele>
        <time>2009-03-15T13:11:23Z</time>
      </trkpt>
      <trkpt lat="43.72901" lon="6.94928">
        <ele>1068.6</ele>
        <time>2009-03-15T13:11:28Z</time>
      </trkpt>
      <trkpt lat="43.72931" lon="6.94928">
        <ele>1066.2</ele>
        <time>2009-03-15T13:11:33Z</time>
      </trkpt>
      <trkpt lat="43.72964" lon="6.94928">
        <ele>1062.9</ele>
        <time>2009-03-15T13:11:38Z</time>
      </trkpt>
      <trkpt lat="43.72992" lon="6.94937">
        <ele>1059.5</ele>
        <time>2009-03-15T13:11:44Z</time>
      </trkpt>
      <trkpt lat="43.72987" lon="6.94973">
        <ele>1057.6</ele>
        <time>2009-03-15T13:11:50Z</time>
      </trkpt>
      <trkpt lat="43.72972" lon="6.95002">
        <ele>1054.2</ele>
        <time>2009-03-15T13:27:15Z</time>
      </trkpt>
      <trkpt lat="43.72952" lon="6.95028">
        <ele>1051.3</ele>
        <time>2009-03-15T13:27:23Z</time>
      </trkpt>
      <trkpt lat="43.72931" lon="6.95052">
        <ele>1049.9</ele>
        <time>2009-03-15T13:27:38Z</time>
      </trkpt>
      <trkpt lat="43.72908" lon="6.95079">
        <ele>1047.5</ele>
        <time>2009-03-15T13:27:44Z</time>
      </trkpt>
      <trkpt lat="43.72888" lon="6.95107">
        <ele>1045.6</ele>
        <time>2009-03-15T13:27:49Z</time>
      </trkpt>
      <trkpt lat="43.72893" lon="6.95135">
        <ele>1043.6</ele>
        <time>2009-03-15T13:27:56Z</time>
      </trkpt>
      <trkpt lat="43.72922" lon="6.95137">
        <ele>1040.8</ele>
        <time>2009-03-15T13:28:01Z</time>
      </trkpt>
      <trkpt lat="43.72953" lon="6.95141">
        <ele>1037.4</ele>
        <time>2009-03-15T13:28:06Z</time>
      </trkpt>
      <trkpt lat="43.72983" lon="6.95145">
        <ele>1034.5</ele>
        <time>2009-03-15T13:28:11Z</time>
      </trkpt>
      <trkpt lat="43.72999" lon="6.95173">
        <ele>1031.2</ele>
        <time>2009-03-15T13:28:17Z</time>
      </trkpt>
      <trkpt lat="43.72976" lon="6.95204">
        <ele>1028.7</ele>
        <time>2009-03-15T13:28:23Z</time>
      </trkpt>
      <trkpt lat="43.72961" lon="6.95239">
        <ele>1024.4</ele>
        <time>2009-03-15T13:28:28Z</time>
      </trkpt>
      <trkpt lat="43.72971" lon="6.95261">
        <ele>1021.1</ele>
        <time>2009-03-15T13:28:34Z</time>
      </trkpt>
      <trkpt lat="43.73007" lon="6.95267">
        <ele>1017.2</ele>
        <time>2009-03-15T13:28:39Z</time>
      </trkpt>
      <trkpt lat="43.73038" lon="6.95275">
        <ele>1016.3</ele>
        <time>2009-03-15T13:28:43Z</time>
      </trkpt>
      <trkpt lat="43.73065" lon="6.95283">
        <ele>1015.3</ele>
        <time>2009-03-15T13:28:47Z</time>
      </trkpt>
      <trkpt lat="43.73093" lon="6.95283">
        <ele>1011.9</ele>
        <time>2009-03-15T13:28:52Z</time>
      </trkpt>
      <trkpt lat="43.73115" lon="6.9525">
        <ele>1011</ele>
        <time>2009-03-15T13:28:58Z</time>
      </trkpt>
      <trkpt lat="43.73135" lon="6.9523">
        <ele>1010</ele>
        <time>2009-03-15T13:29:09Z</time>
      </trkpt>
      <trkpt lat="43.73129" lon="6.95192">
        <ele>1011.4</ele>
        <time>2009-03-15T13:29:20Z</time>
      </trkpt>
      <trkpt lat="43.73125" lon="6.95155">
        <ele>1012.9</ele>
        <time>2009-03-15T13:29:33Z</time>
      </trkpt>
      <trkpt lat="43.73119" lon="6.95117">
        <ele>1015.3</ele>
        <time>2009-03-15T13:29:44Z</time>
      </trkpt>
      <trkpt lat="43.73134" lon="6.95085">
        <ele>1018.7</ele>
        <time>2009-03-15T13:29:55Z</time>
      </trkpt>
      <trkpt lat="43.73165" lon="6.95084">
        <ele>1023.5</ele>
        <time>2009-03-15T13:30:06Z</time>
      </trkpt>
      <trkpt lat="43.73199" lon="6.9508">
        <ele>1025.4</ele>
        <time>2009-03-15T13:30:16Z</time>
      </trkpt>
      <trkpt lat="43.73229" lon="6.95068">
        <ele>1029.7</ele>
        <time>2009-03-15T13:30:26Z</time>
      </trkpt>
      <trkpt lat="43.73254" lon="6.9505">
        <ele>1031.2</ele>
        <time>2009-03-15T13:30:36Z</time>
      </trkpt>
      <trkpt lat="43.73278" lon="6.95027">
        <ele>1034</ele>
        <time>2009-03-15T13:30:47Z</time>
      </trkpt>
      <trkpt lat="43.73302" lon="6.95002">
        <ele>1037.4</ele>
        <time>2009-03-15T13:30:58Z</time>
      </trkpt>
      <trkpt lat="43.73324" lon="6.94973">
        <ele>1039.8</ele>
        <time>2009-03-15T13:31:09Z</time>
      </trkpt>
      <trkpt lat="43.73349" lon="6.94949">
        <ele>1039.8</ele>
        <time>2009-03-15T13:31:21Z</time>
      </trkpt>
      <trkpt lat="43.73375" lon="6.94934">
        <ele>1041.7</ele>
        <time>2009-03-15T13:31:32Z</time>
      </trkpt>
      <trkpt lat="43.73405" lon="6.94931">
        <ele>1043.2</ele>
        <time>2009-03-15T13:31:44Z</time>
      </trkpt>
      <trkpt lat="43.73435" lon="6.9493">
        <ele>1045.6</ele>
        <time>2009-03-15T13:31:55Z</time>
      </trkpt>
      <trkpt lat="43.73467" lon="6.94928">
        <ele>1049.4</ele>
        <time>2009-03-15T13:32:07Z</time>
      </trkpt>
      <trkpt lat="43.73498" lon="6.94921">
        <ele>1048.5</ele>
        <time>2009-03-15T13:32:18Z</time>
      </trkpt>
      <trkpt lat="43.73527" lon="6.94909">
        <ele>1051.3</ele>
        <time>2009-03-15T13:32:29Z</time>
      </trkpt>
      <trkpt lat="43.73554" lon="6.94897">
        <ele>1053.3</ele>
        <time>2009-03-15T13:32:39Z</time>
      </trkpt>
      <trkpt lat="43.73584" lon="6.94884">
        <ele>1054.7</ele>
        <time>2009-03-15T13:32:49Z</time>
      </trkpt>
      <trkpt lat="43.7361" lon="6.94865">
        <ele>1054.7</ele>
        <time>2009-03-15T13:33:00Z</time>
      </trkpt>
      <trkpt lat="43.7363" lon="6.9484">
        <ele>1055.2</ele>
        <time>2009-03-15T13:33:11Z</time>
      </trkpt>
      <trkpt lat="43.73649" lon="6.94809">
        <ele>1054.2</ele>
        <time>2009-03-15T13:33:22Z</time>
      </trkpt>
      <trkpt lat="43.73668" lon="6.94777">
        <ele>1056.1</ele>
        <time>2009-03-15T13:33:33Z</time>
      </trkpt>
      <trkpt lat="43.73686" lon="6.94748">
        <ele>1059</ele>
        <time>2009-03-15T13:33:44Z</time>
      </trkpt>
      <trkpt lat="43.73704" lon="6.94717">
        <ele>1063.8</ele>
        <time>2009-03-15T13:33:55Z</time>
      </trkpt>
      <trkpt lat="43.73722" lon="6.94687">
        <ele>1068.6</ele>
        <time>2009-03-15T13:34:06Z</time>
      </trkpt>
      <trkpt lat="43.73738" lon="6.94656">
        <ele>1074.9</ele>
        <time>2009-03-15T13:34:17Z</time>
      </trkpt>
      <trkpt lat="43.73743" lon="6.94619">
        <ele>1078.7</ele>
        <time>2009-03-15T13:34:28Z</time>
      </trkpt>
      <trkpt lat="43.73736" lon="6.94582">
        <ele>1076.3</ele>
        <time>2009-03-15T13:34:39Z</time>
      </trkpt>
      <trkpt lat="43.73721" lon="6.94547">
        <ele>1078.3</ele>
        <time>2009-03-15T13:34:51Z</time>
      </trkpt>
      <trkpt lat="43.73737" lon="6.94517">
        <ele>1083.1</ele>
        <time>2009-03-15T13:35:04Z</time>
      </trkpt>
      <trkpt lat="43.73765" lon="6.94503">
        <ele>1087.9</ele>
        <time>2009-03-15T13:35:17Z</time>
      </trkpt>
      <trkpt lat="43.73798" lon="6.94505">
        <ele>1087.4</ele>
        <time>2009-03-15T13:35:30Z</time>
      </trkpt>
      <trkpt lat="43.7383" lon="6.94512">
        <ele>1086.4</ele>
        <time>2009-03-15T13:35:42Z</time>
      </trkpt>
      <trkpt lat="43.73856" lon="6.94529">
        <ele>1086.9</ele>
        <time>2009-03-15T13:35:55Z</time>
      </trkpt>
      <trkpt lat="43.73884" lon="6.9454">
        <ele>1089.8</ele>
        <time>2009-03-15T13:36:08Z</time>
      </trkpt>
      <trkpt lat="43.73918" lon="6.94544">
        <ele>1097.5</ele>
        <time>2009-03-15T13:36:25Z</time>
      </trkpt>
      <trkpt lat="43.73961" lon="6.94549">
        <ele>1096</ele>
        <time>2009-03-15T13:36:41Z</time>
      </trkpt>
      <trkpt lat="43.73978" lon="6.94579">
        <ele>1095.6</ele>
        <time>2009-03-15T13:36:54Z</time>
      </trkpt>
      <trkpt lat="43.73967" lon="6.94615">
        <ele>1095.1</ele>
        <time>2009-03-15T13:37:07Z</time>
      </trkpt>
      <trkpt lat="43.73956" lon="6.9465">
        <ele>1097</ele>
        <time>2009-03-15T13:37:23Z</time>
      </trkpt>
      <trkpt lat="43.73975" lon="6.94647">
        <ele>1101.8</ele>
        <time>2009-03-15T13:37:39Z</time>
      </trkpt>
      <trkpt lat="43.73994" lon="6.94615">
        <ele>1103.7</ele>
        <time>2009-03-15T13:37:51Z</time>
      </trkpt>
      <trkpt lat="43.74019" lon="6.94597">
        <ele>1105.2</ele>
        <time>2009-03-15T13:38:02Z</time>
      </trkpt>
      <trkpt lat="43.74047" lon="6.94595">
        <ele>1108.1</ele>
        <time>2009-03-15T13:38:12Z</time>
      </trkpt>
      <trkpt lat="43.74074" lon="6.94588">
        <ele>1111.4</ele>
        <time>2009-03-15T13:38:23Z</time>
      </trkpt>
      <trkpt lat="43.74103" lon="6.94588">
        <ele>1113.3</ele>
        <time>2009-03-15T13:38:34Z</time>
      </trkpt>
      <trkpt lat="43.74133" lon="6.94584">
        <ele>1115.7</ele>
        <time>2009-03-15T13:38:45Z</time>
      </trkpt>
      <trkpt lat="43.74162" lon="6.94576">
        <ele>1119.1</ele>
        <time>2009-03-15T13:38:56Z</time>
      </trkpt>
      <trkpt lat="43.74191" lon="6.94573">
        <ele>1116.7</ele>
        <time>2009-03-15T13:39:07Z</time>
      </trkpt>
      <trkpt lat="43.7422" lon="6.94564">
        <ele>1114.8</ele>
        <time>2009-03-15T13:39:15Z</time>
      </trkpt>
      <trkpt lat="43.74248" lon="6.94556">
        <ele>1112.9</ele>
        <time>2009-03-15T13:39:21Z</time>
      </trkpt>
      <trkpt lat="43.74276" lon="6.94551">
        <ele>1110.5</ele>
        <time>2009-03-15T13:39:26Z</time>
      </trkpt>
      <trkpt lat="43.74304" lon="6.94554">
        <ele>1108.1</ele>
        <time>2009-03-15T13:39:30Z</time>
      </trkpt>
      <trkpt lat="43.74334" lon="6.94571">
        <ele>1104.7</ele>
        <time>2009-03-15T13:39:34Z</time>
      </trkpt>
      <trkpt lat="43.74358" lon="6.94606">
        <ele>1103.7</ele>
        <time>2009-03-15T13:39:38Z</time>
      </trkpt>
      <trkpt lat="43.74382" lon="6.94634">
        <ele>1103.3</ele>
        <time>2009-03-15T13:39:42Z</time>
      </trkpt>
      <trkpt lat="43.74409" lon="6.94629">
        <ele>1102.3</ele>
        <time>2009-03-15T13:39:46Z</time>
      </trkpt>
      <trkpt lat="43.74426" lon="6.94595">
        <ele>1100.8</ele>
        <time>2009-03-15T13:39:53Z</time>
      </trkpt>
      <trkpt lat="43.74436" lon="6.94619">
        <ele>1101.3</ele>
        <time>2009-03-15T13:40:05Z</time>
      </trkpt>
      <trkpt lat="43.74445" lon="6.94655">
        <ele>1102.8</ele>
        <time>2009-03-15T13:40:17Z</time>
      </trkpt>
      <trkpt lat="43.74452" lon="6.94692">
        <ele>1103.3</ele>
        <time>2009-03-15T13:40:30Z</time>
      </trkpt>
      <trkpt lat="43.7446" lon="6.9473">
        <ele>1103.3</ele>
        <time>2009-03-15T13:40:43Z</time>
      </trkpt>
      <trkpt lat="43.74469" lon="6.94771">
        <ele>1103.3</ele>
        <time>2009-03-15T13:41:07Z</time>
      </trkpt>
      <trkpt lat="43.74489" lon="6.94792">
        <ele>1105.2</ele>
        <time>2009-03-15T13:41:23Z</time>
      </trkpt>
      <trkpt lat="43.74463" lon="6.94786">
        <ele>1106.1</ele>
        <time>2009-03-15T13:42:00Z</time>
      </trkpt>
      <trkpt lat="43.74457" lon="6.9476">
        <ele>1105.2</ele>
        <time>2009-03-15T13:43:31Z</time>
      </trkpt>
      <trkpt lat="43.74455" lon="6.94719">
        <ele>1103.7</ele>
        <time>2009-03-15T13:43:41Z</time>
      </trkpt>
      <trkpt lat="43.74449" lon="6.94677">
        <ele>1102.8</ele>
        <time>2009-03-15T13:43:50Z</time>
      </trkpt>
      <trkpt lat="43.7444" lon="6.94637">
        <ele>1101.8</ele>
        <time>2009-03-15T13:43:59Z</time>
      </trkpt>
      <trkpt lat="43.74433" lon="6.94603">
        <ele>1101.8</ele>
        <time>2009-03-15T13:45:02Z</time>
      </trkpt>
      <trkpt lat="43.74416" lon="6.94609">
        <ele>1102.3</ele>
        <time>2009-03-15T13:45:13Z</time>
      </trkpt>
      <trkpt lat="43.74392" lon="6.9463">
        <ele>1101.8</ele>
        <time>2009-03-15T13:45:21Z</time>
      </trkpt>
      <trkpt lat="43.74367" lon="6.94617">
        <ele>1102.8</ele>
        <time>2009-03-15T13:45:29Z</time>
      </trkpt>
      <trkpt lat="43.74349" lon="6.94584">
        <ele>1105.7</ele>
        <time>2009-03-15T13:45:38Z</time>
      </trkpt>
      <trkpt lat="43.74328" lon="6.94557">
        <ele>1107.1</ele>
        <time>2009-03-15T13:45:47Z</time>
      </trkpt>
      <trkpt lat="43.743" lon="6.94547">
        <ele>1107.6</ele>
        <time>2009-03-15T13:45:56Z</time>
      </trkpt>
      <trkpt lat="43.74271" lon="6.94546">
        <ele>1108.5</ele>
        <time>2009-03-15T13:46:05Z</time>
      </trkpt>
      <trkpt lat="43.74243" lon="6.94551">
        <ele>1109.5</ele>
        <time>2009-03-15T13:46:14Z</time>
      </trkpt>
      <trkpt lat="43.74213" lon="6.94559">
        <ele>1111.4</ele>
        <time>2009-03-15T13:46:23Z</time>
      </trkpt>
      <trkpt lat="43.74184" lon="6.94566">
        <ele>1110.9</ele>
        <time>2009-03-15T13:46:32Z</time>
      </trkpt>
      <trkpt lat="43.74156" lon="6.94572">
        <ele>1111.4</ele>
        <time>2009-03-15T13:46:40Z</time>
      </trkpt>
      <trkpt lat="43.74129" lon="6.94581">
        <ele>1109</ele>
        <time>2009-03-15T13:46:46Z</time>
      </trkpt>
      <trkpt lat="43.74097" lon="6.94582">
        <ele>1105.7</ele>
        <time>2009-03-15T13:46:51Z</time>
      </trkpt>
      <trkpt lat="43.74067" lon="6.94586">
        <ele>1103.7</ele>
        <time>2009-03-15T13:46:55Z</time>
      </trkpt>
      <trkpt lat="43.74035" lon="6.94592">
        <ele>1101.8</ele>
        <time>2009-03-15T13:46:59Z</time>
      </trkpt>
      <trkpt lat="43.74003" lon="6.946">
        <ele>1100.4</ele>
        <time>2009-03-15T13:47:03Z</time>
      </trkpt>
      <trkpt lat="43.73979" lon="6.94631">
        <ele>1098.9</ele>
        <time>2009-03-15T13:47:07Z</time>
      </trkpt>
      <trkpt lat="43.73961" lon="6.94652">
        <ele>1096</ele>
        <time>2009-03-15T13:47:12Z</time>
      </trkpt>
      <trkpt lat="43.73974" lon="6.94615">
        <ele>1093.6</ele>
        <time>2009-03-15T13:47:17Z</time>
      </trkpt>
      <trkpt lat="43.73983" lon="6.94576">
        <ele>1093.2</ele>
        <time>2009-03-15T13:47:21Z</time>
      </trkpt>
      <trkpt lat="43.73964" lon="6.94542">
        <ele>1092.2</ele>
        <time>2009-03-15T13:47:25Z</time>
      </trkpt>
      <trkpt lat="43.73928" lon="6.94534">
        <ele>1091.7</ele>
        <time>2009-03-15T13:47:29Z</time>
      </trkpt>
      <trkpt lat="43.73898" lon="6.94533">
        <ele>1091.2</ele>
        <time>2009-03-15T13:47:32Z</time>
      </trkpt>
      <trkpt lat="43.73868" lon="6.9453">
        <ele>1090.8</ele>
        <time>2009-03-15T13:47:35Z</time>
      </trkpt>
      <trkpt lat="43.73842" lon="6.94512">
        <ele>1089.3</ele>
        <time>2009-03-15T13:47:38Z</time>
      </trkpt>
      <trkpt lat="43.73812" lon="6.94502">
        <ele>1087.4</ele>
        <time>2009-03-15T13:47:41Z</time>
      </trkpt>
      <trkpt lat="43.7378" lon="6.94494">
        <ele>1086.4</ele>
        <time>2009-03-15T13:47:44Z</time>
      </trkpt>
      <trkpt lat="43.7375" lon="6.94502">
        <ele>1084</ele>
        <time>2009-03-15T13:47:47Z</time>
      </trkpt>
      <trkpt lat="43.73723" lon="6.94523">
        <ele>1082.6</ele>
        <time>2009-03-15T13:47:50Z</time>
      </trkpt>
      <trkpt lat="43.73721" lon="6.94565">
        <ele>1077.8</ele>
        <time>2009-03-15T13:47:54Z</time>
      </trkpt>
      <trkpt lat="43.73739" lon="6.94608">
        <ele>1073.4</ele>
        <time>2009-03-15T13:47:58Z</time>
      </trkpt>
      <trkpt lat="43.73742" lon="6.94647">
        <ele>1071</ele>
        <time>2009-03-15T13:48:01Z</time>
      </trkpt>
      <trkpt lat="43.73725" lon="6.94682">
        <ele>1069.1</ele>
        <time>2009-03-15T13:48:04Z</time>
      </trkpt>
      <trkpt lat="43.73705" lon="6.94714">
        <ele>1066.2</ele>
        <time>2009-03-15T13:48:07Z</time>
      </trkpt>
      <trkpt lat="43.73683" lon="6.94748">
        <ele>1065.3</ele>
        <time>2009-03-15T13:48:10Z</time>
      </trkpt>
      <trkpt lat="43.73662" lon="6.94782">
        <ele>1062.4</ele>
        <time>2009-03-15T13:48:13Z</time>
      </trkpt>
      <trkpt lat="43.73641" lon="6.94817">
        <ele>1060.5</ele>
        <time>2009-03-15T13:48:16Z</time>
      </trkpt>
      <trkpt lat="43.7362" lon="6.9485">
        <ele>1057.1</ele>
        <time>2009-03-15T13:48:19Z</time>
      </trkpt>
      <trkpt lat="43.73595" lon="6.94876">
        <ele>1054.7</ele>
        <time>2009-03-15T13:48:22Z</time>
      </trkpt>
      <trkpt lat="43.73564" lon="6.94893">
        <ele>1052.3</ele>
        <time>2009-03-15T13:48:25Z</time>
      </trkpt>
      <trkpt lat="43.73532" lon="6.94906">
        <ele>1050.4</ele>
        <time>2009-03-15T13:48:28Z</time>
      </trkpt>
      <trkpt lat="43.735" lon="6.94918">
        <ele>1048.9</ele>
        <time>2009-03-15T13:48:31Z</time>
      </trkpt>
      <trkpt lat="43.73468" lon="6.94922">
        <ele>1046.1</ele>
        <time>2009-03-15T13:48:34Z</time>
      </trkpt>
      <trkpt lat="43.73435" lon="6.94925">
        <ele>1043.2</ele>
        <time>2009-03-15T13:48:37Z</time>
      </trkpt>
      <trkpt lat="43.73403" lon="6.94925">
        <ele>1041.2</ele>
        <time>2009-03-15T13:48:40Z</time>
      </trkpt>
      <trkpt lat="43.73371" lon="6.9493">
        <ele>1039.8</ele>
        <time>2009-03-15T13:48:43Z</time>
      </trkpt>
      <trkpt lat="43.73342" lon="6.94949">
        <ele>1039.3</ele>
        <time>2009-03-15T13:48:46Z</time>
      </trkpt>
      <trkpt lat="43.73317" lon="6.94976">
        <ele>1037.4</ele>
        <time>2009-03-15T13:48:49Z</time>
      </trkpt>
      <trkpt lat="43.73294" lon="6.95005">
        <ele>1034.5</ele>
        <time>2009-03-15T13:48:52Z</time>
      </trkpt>
      <trkpt lat="43.73269" lon="6.95032">
        <ele>1033.1</ele>
        <time>2009-03-15T13:48:55Z</time>
      </trkpt>
      <trkpt lat="43.73242" lon="6.95055">
        <ele>1030.7</ele>
        <time>2009-03-15T13:48:58Z</time>
      </trkpt>
      <trkpt lat="43.73214" lon="6.95072">
        <ele>1028.7</ele>
        <time>2009-03-15T13:49:01Z</time>
      </trkpt>
      <trkpt lat="43.73184" lon="6.95079">
        <ele>1024.4</ele>
        <time>2009-03-15T13:49:04Z</time>
      </trkpt>
      <trkpt lat="43.73152" lon="6.95078">
        <ele>1022.5</ele>
        <time>2009-03-15T13:49:07Z</time>
      </trkpt>
      <trkpt lat="43.73125" lon="6.95084">
        <ele>1019.1</ele>
        <time>2009-03-15T13:49:10Z</time>
      </trkpt>
      <trkpt lat="43.73111" lon="6.95115">
        <ele>1015.3</ele>
        <time>2009-03-15T13:49:13Z</time>
      </trkpt>
      <trkpt lat="43.73117" lon="6.95155">
        <ele>1011.4</ele>
        <time>2009-03-15T13:49:16Z</time>
      </trkpt>
      <trkpt lat="43.73124" lon="6.95194">
        <ele>1010</ele>
        <time>2009-03-15T13:49:19Z</time>
      </trkpt>
      <trkpt lat="43.7313" lon="6.95236">
        <ele>1008.1</ele>
        <time>2009-03-15T13:49:23Z</time>
      </trkpt>
      <trkpt lat="43.73124" lon="6.95278">
        <ele>1006.6</ele>
        <time>2009-03-15T13:49:27Z</time>
      </trkpt>
      <trkpt lat="43.73109" lon="6.95317">
        <ele>1005.7</ele>
        <time>2009-03-15T13:49:31Z</time>
      </trkpt>
      <trkpt lat="43.73116" lon="6.95347">
        <ele>1005.7</ele>
        <time>2009-03-15T13:49:35Z</time>
      </trkpt>
      <trkpt lat="43.73143" lon="6.95323">
        <ele>1003.8</ele>
        <time>2009-03-15T13:49:39Z</time>
      </trkpt>
      <trkpt lat="43.73164" lon="6.95281">
        <ele>1001.4</ele>
        <time>2009-03-15T13:49:43Z</time>
      </trkpt>
      <trkpt lat="43.7317" lon="6.95242">
        <ele>998.5</ele>
        <time>2009-03-15T13:49:46Z</time>
      </trkpt>
      <trkpt lat="43.73173" lon="6.95202">
        <ele>997</ele>
        <time>2009-03-15T13:49:49Z</time>
      </trkpt>
      <trkpt lat="43.73192" lon="6.95174">
        <ele>994.6</ele>
        <time>2009-03-15T13:49:52Z</time>
      </trkpt>
      <trkpt lat="43.73223" lon="6.95175">
        <ele>992.2</ele>
        <time>2009-03-15T13:49:55Z</time>
      </trkpt>
      <trkpt lat="43.73255" lon="6.95182">
        <ele>990.8</ele>
        <time>2009-03-15T13:49:58Z</time>
      </trkpt>
      <trkpt lat="43.73288" lon="6.95188">
        <ele>988.9</ele>
        <time>2009-03-15T13:50:01Z</time>
      </trkpt>
      <trkpt lat="43.7332" lon="6.9518">
        <ele>986</ele>
        <time>2009-03-15T13:50:04Z</time>
      </trkpt>
      <trkpt lat="43.73351" lon="6.95156">
        <ele>981.2</ele>
        <time>2009-03-15T13:50:07Z</time>
      </trkpt>
      <trkpt lat="43.73374" lon="6.95121">
        <ele>977.8</ele>
        <time>2009-03-15T13:50:10Z</time>
      </trkpt>
      <trkpt lat="43.73399" lon="6.95089">
        <ele>975.9</ele>
        <time>2009-03-15T13:50:13Z</time>
      </trkpt>
      <trkpt lat="43.7343" lon="6.95091">
        <ele>974</ele>
        <time>2009-03-15T13:50:16Z</time>
      </trkpt>
      <trkpt lat="43.7346" lon="6.95105">
        <ele>972</ele>
        <time>2009-03-15T13:50:19Z</time>
      </trkpt>
      <trkpt lat="43.73493" lon="6.95107">
        <ele>969.6</ele>
        <time>2009-03-15T13:50:22Z</time>
      </trkpt>
      <trkpt lat="43.73526" lon="6.95108">
        <ele>968.7</ele>
        <time>2009-03-15T13:50:25Z</time>
      </trkpt>
      <trkpt lat="43.73559" lon="6.95109">
        <ele>966.7</ele>
        <time>2009-03-15T13:50:28Z</time>
      </trkpt>
      <trkpt lat="43.7359" lon="6.9511">
        <ele>964.8</ele>
        <time>2009-03-15T13:50:31Z</time>
      </trkpt>
      <trkpt lat="43.73612" lon="6.95133">
        <ele>960</ele>
        <time>2009-03-15T13:50:35Z</time>
      </trkpt>
      <trkpt lat="43.7359" lon="6.95163">
        <ele>957.1</ele>
        <time>2009-03-15T13:50:39Z</time>
      </trkpt>
      <trkpt lat="43.73566" lon="6.95186">
        <ele>954.7</ele>
        <time>2009-03-15T13:50:42Z</time>
      </trkpt>
      <trkpt lat="43.73544" lon="6.95214">
        <ele>953.3</ele>
        <time>2009-03-15T13:50:45Z</time>
      </trkpt>
      <trkpt lat="43.73523" lon="6.95246">
        <ele>951.4</ele>
        <time>2009-03-15T13:50:48Z</time>
      </trkpt>
      <trkpt lat="43.73503" lon="6.95277">
        <ele>948.5</ele>
        <time>2009-03-15T13:50:51Z</time>
      </trkpt>
      <trkpt lat="43.73483" lon="6.95307">
        <ele>946.6</ele>
        <time>2009-03-15T13:50:54Z</time>
      </trkpt>
      <trkpt lat="43.73468" lon="6.9534">
        <ele>945.1</ele>
        <time>2009-03-15T13:50:57Z</time>
      </trkpt>
      <trkpt lat="43.7346" lon="6.95376">
        <ele>944.2</ele>
        <time>2009-03-15T13:51:00Z</time>
      </trkpt>
      <trkpt lat="43.73458" lon="6.95415">
        <ele>941.7</ele>
        <time>2009-03-15T13:51:03Z</time>
      </trkpt>
      <trkpt lat="43.73458" lon="6.95456">
        <ele>939.3</ele>
        <time>2009-03-15T13:51:06Z</time>
      </trkpt>
      <trkpt lat="43.73457" lon="6.95497">
        <ele>937.4</ele>
        <time>2009-03-15T13:51:09Z</time>
      </trkpt>
      <trkpt lat="43.73456" lon="6.9554">
        <ele>935</ele>
        <time>2009-03-15T13:51:12Z</time>
      </trkpt>
      <trkpt lat="43.73449" lon="6.95577">
        <ele>933.6</ele>
        <time>2009-03-15T13:51:15Z</time>
      </trkpt>
      <trkpt lat="43.73429" lon="6.95604">
        <ele>931.2</ele>
        <time>2009-03-15T13:51:18Z</time>
      </trkpt>
      <trkpt lat="43.73407" lon="6.9563">
        <ele>929.3</ele>
        <time>2009-03-15T13:51:21Z</time>
      </trkpt>
      <trkpt lat="43.7339" lon="6.95663">
        <ele>926.8</ele>
        <time>2009-03-15T13:51:24Z</time>
      </trkpt>
      <trkpt lat="43.73379" lon="6.957">
        <ele>924.9</ele>
        <time>2009-03-15T13:51:27Z</time>
      </trkpt>
      <trkpt lat="43.73383" lon="6.95739">
        <ele>923.5</ele>
        <time>2009-03-15T13:51:30Z</time>
      </trkpt>
      <trkpt lat="43.73396" lon="6.95772">
        <ele>921.6</ele>
        <time>2009-03-15T13:51:33Z</time>
      </trkpt>
      <trkpt lat="43.73388" lon="6.95806">
        <ele>920.1</ele>
        <time>2009-03-15T13:51:36Z</time>
      </trkpt>
      <trkpt lat="43.73361" lon="6.95814">
        <ele>919.6</ele>
        <time>2009-03-15T13:51:39Z</time>
      </trkpt>
      <trkpt lat="43.73331" lon="6.95807">
        <ele>916.8</ele>
        <time>2009-03-15T13:51:42Z</time>
      </trkpt>
      <trkpt lat="43.733" lon="6.95802">
        <ele>913.9</ele>
        <time>2009-03-15T13:51:45Z</time>
      </trkpt>
      <trkpt lat="43.73269" lon="6.95805">
        <ele>911.9</ele>
        <time>2009-03-15T13:51:48Z</time>
      </trkpt>
      <trkpt lat="43.73242" lon="6.95825">
        <ele>908.6</ele>
        <time>2009-03-15T13:51:51Z</time>
      </trkpt>
      <trkpt lat="43.73218" lon="6.95855">
        <ele>906.2</ele>
        <time>2009-03-15T13:51:54Z</time>
      </trkpt>
      <trkpt lat="43.73193" lon="6.95883">
        <ele>902.8</ele>
        <time>2009-03-15T13:51:57Z</time>
      </trkpt>
      <trkpt lat="43.73166" lon="6.95905">
        <ele>899.9</ele>
        <time>2009-03-15T13:52:00Z</time>
      </trkpt>
      <trkpt lat="43.73137" lon="6.95925">
        <ele>897</ele>
        <time>2009-03-15T13:52:03Z</time>
      </trkpt>
      <trkpt lat="43.73108" lon="6.95946">
        <ele>894.2</ele>
        <time>2009-03-15T13:52:06Z</time>
      </trkpt>
      <trkpt lat="43.73078" lon="6.95965">
        <ele>892.2</ele>
        <time>2009-03-15T13:52:09Z</time>
      </trkpt>
      <trkpt lat="43.73047" lon="6.95975">
        <ele>889.8</ele>
        <time>2009-03-15T13:52:12Z</time>
      </trkpt>
      <trkpt lat="43.73014" lon="6.95982">
        <ele>887.9</ele>
        <time>2009-03-15T13:52:15Z</time>
      </trkpt>
      <trkpt lat="43.72983" lon="6.95998">
        <ele>886</ele>
        <time>2009-03-15T13:52:18Z</time>
      </trkpt>
      <trkpt lat="43.72952" lon="6.96016">
        <ele>883.6</ele>
        <time>2009-03-15T13:52:21Z</time>
      </trkpt>
      <trkpt lat="43.72921" lon="6.96034">
        <ele>881.7</ele>
        <time>2009-03-15T13:52:24Z</time>
      </trkpt>
      <trkpt lat="43.72891" lon="6.96053">
        <ele>879.7</ele>
        <time>2009-03-15T13:52:27Z</time>
      </trkpt>
      <trkpt lat="43.72861" lon="6.96071">
        <ele>877.3</ele>
        <time>2009-03-15T13:52:30Z</time>
      </trkpt>
      <trkpt lat="43.72831" lon="6.9609">
        <ele>875.4</ele>
        <time>2009-03-15T13:52:33Z</time>
      </trkpt>
      <trkpt lat="43.72804" lon="6.96111">
        <ele>874</ele>
        <time>2009-03-15T13:52:36Z</time>
      </trkpt>
      <trkpt lat="43.7278" lon="6.96139">
        <ele>871.1</ele>
        <time>2009-03-15T13:52:39Z</time>
      </trkpt>
      <trkpt lat="43.72759" lon="6.9617">
        <ele>869.6</ele>
        <time>2009-03-15T13:52:42Z</time>
      </trkpt>
      <trkpt lat="43.72743" lon="6.96205">
        <ele>867.7</ele>
        <time>2009-03-15T13:52:45Z</time>
      </trkpt>
      <trkpt lat="43.72732" lon="6.96242">
        <ele>865.8</ele>
        <time>2009-03-15T13:52:48Z</time>
      </trkpt>
      <trkpt lat="43.72728" lon="6.96281">
        <ele>865.3</ele>
        <time>2009-03-15T13:52:51Z</time>
      </trkpt>
      <trkpt lat="43.72728" lon="6.96321">
        <ele>862.9</ele>
        <time>2009-03-15T13:52:54Z</time>
      </trkpt>
      <trkpt lat="43.72729" lon="6.96362">
        <ele>861</ele>
        <time>2009-03-15T13:52:57Z</time>
      </trkpt>
      <trkpt lat="43.7273" lon="6.96404">
        <ele>858.6</ele>
        <time>2009-03-15T13:53:00Z</time>
      </trkpt>
      <trkpt lat="43.72731" lon="6.96446">
        <ele>856.2</ele>
        <time>2009-03-15T13:53:03Z</time>
      </trkpt>
      <trkpt lat="43.72732" lon="6.96487">
        <ele>854.7</ele>
        <time>2009-03-15T13:53:06Z</time>
      </trkpt>
      <trkpt lat="43.72733" lon="6.96528">
        <ele>852.8</ele>
        <time>2009-03-15T13:53:09Z</time>
      </trkpt>
      <trkpt lat="43.72732" lon="6.96568">
        <ele>851.9</ele>
        <time>2009-03-15T13:53:12Z</time>
      </trkpt>
      <trkpt lat="43.72729" lon="6.96608">
        <ele>849.9</ele>
        <time>2009-03-15T13:53:15Z</time>
      </trkpt>
      <trkpt lat="43.72725" lon="6.96648">
        <ele>848.5</ele>
        <time>2009-03-15T13:53:18Z</time>
      </trkpt>
      <trkpt lat="43.72721" lon="6.96687">
        <ele>846.6</ele>
        <time>2009-03-15T13:53:21Z</time>
      </trkpt>
      <trkpt lat="43.72715" lon="6.96727">
        <ele>843.7</ele>
        <time>2009-03-15T13:53:24Z</time>
      </trkpt>
      <trkpt lat="43.72709" lon="6.96763">
        <ele>842.3</ele>
        <time>2009-03-15T13:53:27Z</time>
      </trkpt>
      <trkpt lat="43.72701" lon="6.968">
        <ele>840.3</ele>
        <time>2009-03-15T13:53:31Z</time>
      </trkpt>
      <trkpt lat="43.72689" lon="6.96832">
        <ele>838.9</ele>
        <time>2009-03-15T13:54:58Z</time>
      </trkpt>
      <trkpt lat="43.7266" lon="6.96845">
        <ele>835</ele>
        <time>2009-03-15T13:55:08Z</time>
      </trkpt>
      <trkpt lat="43.72631" lon="6.96858">
        <ele>831.7</ele>
        <time>2009-03-15T13:55:40Z</time>
      </trkpt>
      <trkpt lat="43.72606" lon="6.96839">
        <ele>825.9</ele>
        <time>2009-03-15T13:55:46Z</time>
      </trkpt>
      <trkpt lat="43.72582" lon="6.96814">
        <ele>822.1</ele>
        <time>2009-03-15T13:55:51Z</time>
      </trkpt>
      <trkpt lat="43.72557" lon="6.9679">
        <ele>816.3</ele>
        <time>2009-03-15T13:55:56Z</time>
      </trkpt>
      <trkpt lat="43.72532" lon="6.96771">
        <ele>811.5</ele>
        <time>2009-03-15T13:56:00Z</time>
      </trkpt>
      <trkpt lat="43.72504" lon="6.96747">
        <ele>807.2</ele>
        <time>2009-03-15T13:56:05Z</time>
      </trkpt>
      <trkpt lat="43.72494" lon="6.96763">
        <ele>805.2</ele>
        <time>2009-03-15T13:56:16Z</time>
      </trkpt>
      <trkpt lat="43.72483" lon="6.96728">
        <ele>803.8</ele>
        <time>2009-03-15T13:56:26Z</time>
      </trkpt>
      <trkpt lat="43.72464" lon="6.96703">
        <ele>797.6</ele>
        <time>2009-03-15T13:56:39Z</time>
      </trkpt>
      <trkpt lat="43.7244" lon="6.96675">
        <ele>793.2</ele>
        <time>2009-03-15T13:56:46Z</time>
      </trkpt>
      <trkpt lat="43.72431" lon="6.96641">
        <ele>787.9</ele>
        <time>2009-03-15T13:56:54Z</time>
      </trkpt>
      <trkpt lat="43.72417" lon="6.96609">
        <ele>783.1</ele>
        <time>2009-03-15T13:57:00Z</time>
      </trkpt>
      <trkpt lat="43.72388" lon="6.96607">
        <ele>778.8</ele>
        <time>2009-03-15T13:58:55Z</time>
      </trkpt>
      <trkpt lat="43.72376" lon="6.96632">
        <ele>775</ele>
        <time>2009-03-15T13:59:26Z</time>
      </trkpt>
      <trkpt lat="43.72351" lon="6.96615">
        <ele>770.2</ele>
        <time>2009-03-15T13:59:51Z</time>
      </trkpt>
      <trkpt lat="43.72325" lon="6.96602">
        <ele>764.9</ele>
        <time>2009-03-15T14:00:04Z</time>
      </trkpt>
      <trkpt lat="43.72298" lon="6.96603">
        <ele>762.5</ele>
        <time>2009-03-15T14:00:17Z</time>
      </trkpt>
      <trkpt lat="43.72268" lon="6.96607">
        <ele>761</ele>
        <time>2009-03-15T14:01:36Z</time>
      </trkpt>
      <trkpt lat="43.72242" lon="6.96608">
        <ele>756.2</ele>
        <time>2009-03-15T14:01:48Z</time>
      </trkpt>
      <trkpt lat="43.72232" lon="6.96572">
        <ele>753.3</ele>
        <time>2009-03-15T14:01:54Z</time>
      </trkpt>
      <trkpt lat="43.72221" lon="6.9653">
        <ele>751.4</ele>
        <time>2009-03-15T14:01:59Z</time>
      </trkpt>
      <trkpt lat="43.72208" lon="6.96493">
        <ele>751.4</ele>
        <time>2009-03-15T14:02:04Z</time>
      </trkpt>
      <trkpt lat="43.72181" lon="6.9649">
        <ele>754.3</ele>
        <time>2009-03-15T14:02:15Z</time>
      </trkpt>
      <trkpt lat="43.72159" lon="6.96514">
        <ele>754.3</ele>
        <time>2009-03-15T14:02:24Z</time>
      </trkpt>
      <trkpt lat="43.72135" lon="6.96537">
        <ele>754.8</ele>
        <time>2009-03-15T14:02:33Z</time>
      </trkpt>
      <trkpt lat="43.72107" lon="6.96547">
        <ele>753.8</ele>
        <time>2009-03-15T14:02:41Z</time>
      </trkpt>
      <trkpt lat="43.72079" lon="6.96553">
        <ele>754.3</ele>
        <time>2009-03-15T14:02:48Z</time>
      </trkpt>
      <trkpt lat="43.72064" lon="6.96521">
        <ele>750.4</ele>
        <time>2009-03-15T14:02:55Z</time>
      </trkpt>
      <trkpt lat="43.72059" lon="6.96479">
        <ele>748.5</ele>
        <time>2009-03-15T14:03:00Z</time>
      </trkpt>
      <trkpt lat="43.72057" lon="6.96437">
        <ele>747.1</ele>
        <time>2009-03-15T14:03:05Z</time>
      </trkpt>
      <trkpt lat="43.72047" lon="6.96397">
        <ele>748.5</ele>
        <time>2009-03-15T14:03:10Z</time>
      </trkpt>
      <trkpt lat="43.72039" lon="6.96362">
        <ele>751.4</ele>
        <time>2009-03-15T14:03:19Z</time>
      </trkpt>
      <trkpt lat="43.72031" lon="6.96325">
        <ele>755.3</ele>
        <time>2009-03-15T14:03:32Z</time>
      </trkpt>
      <trkpt lat="43.72025" lon="6.96287">
        <ele>756.7</ele>
        <time>2009-03-15T14:03:45Z</time>
      </trkpt>
      <trkpt lat="43.72013" lon="6.96254">
        <ele>760.5</ele>
        <time>2009-03-15T14:03:57Z</time>
      </trkpt>
      <trkpt lat="43.72009" lon="6.96217">
        <ele>761</ele>
        <time>2009-03-15T14:04:10Z</time>
      </trkpt>
      <trkpt lat="43.7199" lon="6.96194">
        <ele>762</ele>
        <time>2009-03-15T14:04:23Z</time>
      </trkpt>
      <trkpt lat="43.71967" lon="6.96176">
        <ele>758.1</ele>
        <time>2009-03-15T14:04:29Z</time>
      </trkpt>
      <trkpt lat="43.71934" lon="6.9617">
        <ele>757.7</ele>
        <time>2009-03-15T14:04:35Z</time>
      </trkpt>
      <trkpt lat="43.71904" lon="6.96182">
        <ele>759.6</ele>
        <time>2009-03-15T14:04:41Z</time>
      </trkpt>
      <trkpt lat="43.71876" lon="6.96189">
        <ele>762</ele>
        <time>2009-03-15T14:04:48Z</time>
      </trkpt>
      <trkpt lat="43.71848" lon="6.96205">
        <ele>764.4</ele>
        <time>2009-03-15T14:04:56Z</time>
      </trkpt>
      <trkpt lat="43.7183" lon="6.96234">
        <ele>762.5</ele>
        <time>2009-03-15T14:05:04Z</time>
      </trkpt>
      <trkpt lat="43.71809" lon="6.96263">
        <ele>758.1</ele>
        <time>2009-03-15T14:05:12Z</time>
      </trkpt>
      <trkpt lat="43.71801" lon="6.96302">
        <ele>757.2</ele>
        <time>2009-03-15T14:05:20Z</time>
      </trkpt>
      <trkpt lat="43.71792" lon="6.96339">
        <ele>758.6</ele>
        <time>2009-03-15T14:05:29Z</time>
      </trkpt>
      <trkpt lat="43.71783" lon="6.9638">
        <ele>760.5</ele>
        <time>2009-03-15T14:05:38Z</time>
      </trkpt>
      <trkpt lat="43.71768" lon="6.9641">
        <ele>762.9</ele>
        <time>2009-03-15T14:05:46Z</time>
      </trkpt>
      <trkpt lat="43.71747" lon="6.96437">
        <ele>767.3</ele>
        <time>2009-03-15T14:05:55Z</time>
      </trkpt>
      <trkpt lat="43.71724" lon="6.96457">
        <ele>769.2</ele>
        <time>2009-03-15T14:06:05Z</time>
      </trkpt>
      <trkpt lat="43.71705" lon="6.96487">
        <ele>768.2</ele>
        <time>2009-03-15T14:06:16Z</time>
      </trkpt>
      <trkpt lat="43.71688" lon="6.96518">
        <ele>769.7</ele>
        <time>2009-03-15T14:06:26Z</time>
      </trkpt>
      <trkpt lat="43.71665" lon="6.96538">
        <ele>768.2</ele>
        <time>2009-03-15T14:06:33Z</time>
      </trkpt>
      <trkpt lat="43.71642" lon="6.96564">
        <ele>769.2</ele>
        <time>2009-03-15T14:06:38Z</time>
      </trkpt>
      <trkpt lat="43.71624" lon="6.96596">
        <ele>769.2</ele>
        <time>2009-03-15T14:06:44Z</time>
      </trkpt>
      <trkpt lat="43.71608" lon="6.96628">
        <ele>769.2</ele>
        <time>2009-03-15T14:06:52Z</time>
      </trkpt>
      <trkpt lat="43.71591" lon="6.96663">
        <ele>770.6</ele>
        <time>2009-03-15T14:07:02Z</time>
      </trkpt>
      <trkpt lat="43.71578" lon="6.96699">
        <ele>773.5</ele>
        <time>2009-03-15T14:07:14Z</time>
      </trkpt>
      <trkpt lat="43.71559" lon="6.96732">
        <ele>776.9</ele>
        <time>2009-03-15T14:07:26Z</time>
      </trkpt>
      <trkpt lat="43.71538" lon="6.96749">
        <ele>778.3</ele>
        <time>2009-03-15T14:07:38Z</time>
      </trkpt>
      <trkpt lat="43.7151" lon="6.96754">
        <ele>779.3</ele>
        <time>2009-03-15T14:07:51Z</time>
      </trkpt>
      <trkpt lat="43.71486" lon="6.96735">
        <ele>780.2</ele>
        <time>2009-03-15T14:08:04Z</time>
      </trkpt>
      <trkpt lat="43.71471" lon="6.96702">
        <ele>780.2</ele>
        <time>2009-03-15T14:08:14Z</time>
      </trkpt>
      <trkpt lat="43.71454" lon="6.96671">
        <ele>779.8</ele>
        <time>2009-03-15T14:08:24Z</time>
      </trkpt>
      <trkpt lat="43.7145" lon="6.96635">
        <ele>779.8</ele>
        <time>2009-03-15T14:08:34Z</time>
      </trkpt>
      <trkpt lat="43.71448" lon="6.96594">
        <ele>781.2</ele>
        <time>2009-03-15T14:08:43Z</time>
      </trkpt>
      <trkpt lat="43.71437" lon="6.96553">
        <ele>782.7</ele>
        <time>2009-03-15T14:08:51Z</time>
      </trkpt>
      <trkpt lat="43.71431" lon="6.96513">
        <ele>781.2</ele>
        <time>2009-03-15T14:08:59Z</time>
      </trkpt>
      <trkpt lat="43.71435" lon="6.96473">
        <ele>781.2</ele>
        <time>2009-03-15T14:09:07Z</time>
      </trkpt>
      <trkpt lat="43.71432" lon="6.96436">
        <ele>780.2</ele>
        <time>2009-03-15T14:09:14Z</time>
      </trkpt>
      <trkpt lat="43.71414" lon="6.96401">
        <ele>781.7</ele>
        <time>2009-03-15T14:09:22Z</time>
      </trkpt>
      <trkpt lat="43.71397" lon="6.9637">
        <ele>780.2</ele>
        <time>2009-03-15T14:09:29Z</time>
      </trkpt>
      <trkpt lat="43.71379" lon="6.96341">
        <ele>779.8</ele>
        <time>2009-03-15T14:09:36Z</time>
      </trkpt>
      <trkpt lat="43.71354" lon="6.96317">
        <ele>782.2</ele>
        <time>2009-03-15T14:09:45Z</time>
      </trkpt>
      <trkpt lat="43.71327" lon="6.96306">
        <ele>784.1</ele>
        <time>2009-03-15T14:09:53Z</time>
      </trkpt>
      <trkpt lat="43.71304" lon="6.96284">
        <ele>783.6</ele>
        <time>2009-03-15T14:10:00Z</time>
      </trkpt>
      <trkpt lat="43.71279" lon="6.96276">
        <ele>783.6</ele>
        <time>2009-03-15T14:10:07Z</time>
      </trkpt>
      <trkpt lat="43.7125" lon="6.96281">
        <ele>783.1</ele>
        <time>2009-03-15T14:10:14Z</time>
      </trkpt>
      <trkpt lat="43.71219" lon="6.96289">
        <ele>781.7</ele>
        <time>2009-03-15T14:10:21Z</time>
      </trkpt>
      <trkpt lat="43.71192" lon="6.96285">
        <ele>780.7</ele>
        <time>2009-03-15T14:10:27Z</time>
      </trkpt>
      <trkpt lat="43.71168" lon="6.96264">
        <ele>779.8</ele>
        <time>2009-03-15T14:10:34Z</time>
      </trkpt>
      <trkpt lat="43.71166" lon="6.96305">
        <ele>775.9</ele>
        <time>2009-03-15T14:10:42Z</time>
      </trkpt>
      <trkpt lat="43.71167" lon="6.96343">
        <ele>774</ele>
        <time>2009-03-15T14:10:47Z</time>
      </trkpt>
      <trkpt lat="43.7118" lon="6.96383">
        <ele>772.1</ele>
        <time>2009-03-15T14:10:52Z</time>
      </trkpt>
      <trkpt lat="43.71199" lon="6.96421">
        <ele>771.6</ele>
        <time>2009-03-15T14:10:57Z</time>
      </trkpt>
      <trkpt lat="43.71217" lon="6.96458">
        <ele>772.1</ele>
        <time>2009-03-15T14:11:02Z</time>
      </trkpt>
      <trkpt lat="43.71221" lon="6.96497">
        <ele>772.1</ele>
        <time>2009-03-15T14:11:07Z</time>
      </trkpt>
      <trkpt lat="43.7122" lon="6.96539">
        <ele>768.7</ele>
        <time>2009-03-15T14:11:12Z</time>
      </trkpt>
      <trkpt lat="43.71225" lon="6.96585">
        <ele>766.3</ele>
        <time>2009-03-15T14:11:17Z</time>
      </trkpt>
      <trkpt lat="43.71227" lon="6.96624">
        <ele>763.9</ele>
        <time>2009-03-15T14:11:21Z</time>
      </trkpt>
      <trkpt lat="43.71228" lon="6.96664">
        <ele>763.4</ele>
        <time>2009-03-15T14:11:25Z</time>
      </trkpt>
      <trkpt lat="43.71232" lon="6.96701">
        <ele>762</ele>
        <time>2009-03-15T14:11:29Z</time>
      </trkpt>
      <trkpt lat="43.71248" lon="6.96733">
        <ele>759.6</ele>
        <time>2009-03-15T14:11:33Z</time>
      </trkpt>
      <trkpt lat="43.71263" lon="6.96767">
        <ele>756.2</ele>
        <time>2009-03-15T14:11:37Z</time>
      </trkpt>
      <trkpt lat="43.71276" lon="6.96803">
        <ele>755.7</ele>
        <time>2009-03-15T14:11:41Z</time>
      </trkpt>
      <trkpt lat="43.71287" lon="6.96841">
        <ele>754.3</ele>
        <time>2009-03-15T14:11:45Z</time>
      </trkpt>
      <trkpt lat="43.71296" lon="6.96883">
        <ele>752.4</ele>
        <time>2009-03-15T14:11:49Z</time>
      </trkpt>
      <trkpt lat="43.71305" lon="6.96926">
        <ele>749.5</ele>
        <time>2009-03-15T14:11:53Z</time>
      </trkpt>
      <trkpt lat="43.71318" lon="6.96966">
        <ele>748</ele>
        <time>2009-03-15T14:11:57Z</time>
      </trkpt>
      <trkpt lat="43.71339" lon="6.96996">
        <ele>744.7</ele>
        <time>2009-03-15T14:12:01Z</time>
      </trkpt>
      <trkpt lat="43.7136" lon="6.9703">
        <ele>743.2</ele>
        <time>2009-03-15T14:12:05Z</time>
      </trkpt>
      <trkpt lat="43.7138" lon="6.97067">
        <ele>742.3</ele>
        <time>2009-03-15T14:12:09Z</time>
      </trkpt>
      <trkpt lat="43.71405" lon="6.97099">
        <ele>740.4</ele>
        <time>2009-03-15T14:12:13Z</time>
      </trkpt>
      <trkpt lat="43.71426" lon="6.97136">
        <ele>738.4</ele>
        <time>2009-03-15T14:12:17Z</time>
      </trkpt>
      <trkpt lat="43.71446" lon="6.97174">
        <ele>736.5</ele>
        <time>2009-03-15T14:12:21Z</time>
      </trkpt>
      <trkpt lat="43.71466" lon="6.97203">
        <ele>736.5</ele>
        <time>2009-03-15T14:12:25Z</time>
      </trkpt>
      <trkpt lat="43.71452" lon="6.97203">
        <ele>734.6</ele>
        <time>2009-03-15T14:12:36Z</time>
      </trkpt>
      <trkpt lat="43.71425" lon="6.97181">
        <ele>731.2</ele>
        <time>2009-03-15T14:12:43Z</time>
      </trkpt>
      <trkpt lat="43.71403" lon="6.97155">
        <ele>730.3</ele>
        <time>2009-03-15T14:12:48Z</time>
      </trkpt>
      <trkpt lat="43.71379" lon="6.97129">
        <ele>729.3</ele>
        <time>2009-03-15T14:12:53Z</time>
      </trkpt>
      <trkpt lat="43.71351" lon="6.97103">
        <ele>727.9</ele>
        <time>2009-03-15T14:12:58Z</time>
      </trkpt>
      <trkpt lat="43.71324" lon="6.97081">
        <ele>726.4</ele>
        <time>2009-03-15T14:13:03Z</time>
      </trkpt>
      <trkpt lat="43.71295" lon="6.97063">
        <ele>725.9</ele>
        <time>2009-03-15T14:13:08Z</time>
      </trkpt>
      <trkpt lat="43.71259" lon="6.97049">
        <ele>723</ele>
        <time>2009-03-15T14:13:13Z</time>
      </trkpt>
      <trkpt lat="43.71226" lon="6.97048">
        <ele>721.6</ele>
        <time>2009-03-15T14:13:17Z</time>
      </trkpt>
      <trkpt lat="43.71195" lon="6.97041">
        <ele>718.2</ele>
        <time>2009-03-15T14:13:21Z</time>
      </trkpt>
      <trkpt lat="43.71164" lon="6.9703">
        <ele>716.3</ele>
        <time>2009-03-15T14:13:25Z</time>
      </trkpt>
      <trkpt lat="43.71134" lon="6.9702">
        <ele>713</ele>
        <time>2009-03-15T14:13:29Z</time>
      </trkpt>
      <trkpt lat="43.71106" lon="6.97013">
        <ele>711</ele>
        <time>2009-03-15T14:13:33Z</time>
      </trkpt>
      <trkpt lat="43.71076" lon="6.97001">
        <ele>708.1</ele>
        <time>2009-03-15T14:13:37Z</time>
      </trkpt>
      <trkpt lat="43.71049" lon="6.96987">
        <ele>704.8</ele>
        <time>2009-03-15T14:13:41Z</time>
      </trkpt>
      <trkpt lat="43.71022" lon="6.96974">
        <ele>702.4</ele>
        <time>2009-03-15T14:13:45Z</time>
      </trkpt>
      <trkpt lat="43.71003" lon="6.96942">
        <ele>700.5</ele>
        <time>2009-03-15T14:13:51Z</time>
      </trkpt>
      <trkpt lat="43.70989" lon="6.9691">
        <ele>697.6</ele>
        <time>2009-03-15T14:13:57Z</time>
      </trkpt>
      <trkpt lat="43.70963" lon="6.96902">
        <ele>695.7</ele>
        <time>2009-03-15T14:14:03Z</time>
      </trkpt>
      <trkpt lat="43.7096" lon="6.96945">
        <ele>694.2</ele>
        <time>2009-03-15T14:14:10Z</time>
      </trkpt>
      <trkpt lat="43.70957" lon="6.96985">
        <ele>692.8</ele>
        <time>2009-03-15T14:14:15Z</time>
      </trkpt>
      <trkpt lat="43.70949" lon="6.97022">
        <ele>690.4</ele>
        <time>2009-03-15T14:14:19Z</time>
      </trkpt>
      <trkpt lat="43.70933" lon="6.97061">
        <ele>687.5</ele>
        <time>2009-03-15T14:14:23Z</time>
      </trkpt>
      <trkpt lat="43.70917" lon="6.97101">
        <ele>685.1</ele>
        <time>2009-03-15T14:14:27Z</time>
      </trkpt>
      <trkpt lat="43.70898" lon="6.97138">
        <ele>683.2</ele>
        <time>2009-03-15T14:14:31Z</time>
      </trkpt>
      <trkpt lat="43.70886" lon="6.97184">
        <ele>682.2</ele>
        <time>2009-03-15T14:14:35Z</time>
      </trkpt>
      <trkpt lat="43.70861" lon="6.97219">
        <ele>679.3</ele>
        <time>2009-03-15T14:14:39Z</time>
      </trkpt>
      <trkpt lat="43.70837" lon="6.97243">
        <ele>678.3</ele>
        <time>2009-03-15T14:14:42Z</time>
      </trkpt>
      <trkpt lat="43.70817" lon="6.97272">
        <ele>676.4</ele>
        <time>2009-03-15T14:14:45Z</time>
      </trkpt>
      <trkpt lat="43.70803" lon="6.97307">
        <ele>674.5</ele>
        <time>2009-03-15T14:14:48Z</time>
      </trkpt>
      <trkpt lat="43.70794" lon="6.97343">
        <ele>670.7</ele>
        <time>2009-03-15T14:14:52Z</time>
      </trkpt>
      <trkpt lat="43.70778" lon="6.97362">
        <ele>667.3</ele>
        <time>2009-03-15T14:15:04Z</time>
      </trkpt>
      <trkpt lat="43.70766" lon="6.97332">
        <ele>659.1</ele>
        <time>2009-03-15T14:15:44Z</time>
      </trkpt>
      <trkpt lat="43.70765" lon="6.97375">
        <ele>659.1</ele>
        <time>2009-03-15T14:15:53Z</time>
      </trkpt>
      <trkpt lat="43.70766" lon="6.97412">
        <ele>658.6</ele>
        <time>2009-03-15T14:16:00Z</time>
      </trkpt>
      <trkpt lat="43.70759" lon="6.9745">
        <ele>659.6</ele>
        <time>2009-03-15T14:16:08Z</time>
      </trkpt>
      <trkpt lat="43.70739" lon="6.97481">
        <ele>659.6</ele>
        <time>2009-03-15T14:16:15Z</time>
      </trkpt>
      <trkpt lat="43.70716" lon="6.97506">
        <ele>656.7</ele>
        <time>2009-03-15T14:16:20Z</time>
      </trkpt>
      <trkpt lat="43.70686" lon="6.97524">
        <ele>651.9</ele>
        <time>2009-03-15T14:16:26Z</time>
      </trkpt>
      <trkpt lat="43.70658" lon="6.97534">
        <ele>650</ele>
        <time>2009-03-15T14:16:31Z</time>
      </trkpt>
      <trkpt lat="43.70633" lon="6.97557">
        <ele>649</ele>
        <time>2009-03-15T14:16:37Z</time>
      </trkpt>
      <trkpt lat="43.70605" lon="6.97562">
        <ele>648.5</ele>
        <time>2009-03-15T14:17:02Z</time>
      </trkpt>
      <trkpt lat="43.70594" lon="6.97531">
        <ele>640.4</ele>
        <time>2009-03-15T14:17:44Z</time>
      </trkpt>
      <trkpt lat="43.70582" lon="6.97498">
        <ele>634.1</ele>
        <time>2009-03-15T14:18:14Z</time>
      </trkpt>
      <trkpt lat="43.70566" lon="6.97469">
        <ele>628.4</ele>
        <time>2009-03-15T14:18:29Z</time>
      </trkpt>
      <trkpt lat="43.70537" lon="6.9747">
        <ele>624.5</ele>
        <time>2009-03-15T14:18:49Z</time>
      </trkpt>
      <trkpt lat="43.70504" lon="6.97462">
        <ele>620.7</ele>
        <time>2009-03-15T14:19:25Z</time>
      </trkpt>
      <trkpt lat="43.70473" lon="6.97463">
        <ele>617.8</ele>
        <time>2009-03-15T14:19:40Z</time>
      </trkpt>
      <trkpt lat="43.70453" lon="6.97442">
        <ele>613.9</ele>
        <time>2009-03-15T14:20:06Z</time>
      </trkpt>
      <trkpt lat="43.70449" lon="6.97413">
        <ele>608.7</ele>
        <time>2009-03-15T14:20:30Z</time>
      </trkpt>
      <trkpt lat="43.7042" lon="6.97411">
        <ele>601.9</ele>
        <time>2009-03-15T14:21:37Z</time>
      </trkpt>
      <trkpt lat="43.70382" lon="6.97393">
        <ele>598.1</ele>
        <time>2009-03-15T14:22:33Z</time>
      </trkpt>
      <trkpt lat="43.70353" lon="6.97415">
        <ele>592.8</ele>
        <time>2009-03-15T14:23:11Z</time>
      </trkpt>
      <trkpt lat="43.70328" lon="6.97426">
        <ele>584.6</ele>
        <time>2009-03-15T14:24:05Z</time>
      </trkpt>
      <trkpt lat="43.70302" lon="6.97414">
        <ele>584.6</ele>
        <time>2009-03-15T14:24:16Z</time>
      </trkpt>
      <trkpt lat="43.70277" lon="6.97397">
        <ele>581.3</ele>
        <time>2009-03-15T14:24:23Z</time>
      </trkpt>
      <trkpt lat="43.70271" lon="6.97353">
        <ele>576.4</ele>
        <time>2009-03-15T14:24:28Z</time>
      </trkpt>
      <trkpt lat="43.70272" lon="6.97312">
        <ele>572.6</ele>
        <time>2009-03-15T14:24:32Z</time>
      </trkpt>
      <trkpt lat="43.70272" lon="6.97273">
        <ele>568.8</ele>
        <time>2009-03-15T14:24:37Z</time>
      </trkpt>
      <trkpt lat="43.70267" lon="6.97232">
        <ele>562.5</ele>
        <time>2009-03-15T14:25:23Z</time>
      </trkpt>
      <trkpt lat="43.70261" lon="6.9719">
        <ele>559.1</ele>
        <time>2009-03-15T14:25:31Z</time>
      </trkpt>
      <trkpt lat="43.70251" lon="6.97163">
        <ele>556.7</ele>
        <time>2009-03-15T14:25:40Z</time>
      </trkpt>
      <trkpt lat="43.70247" lon="6.97202">
        <ele>551.5</ele>
        <time>2009-03-15T14:25:48Z</time>
      </trkpt>
      <trkpt lat="43.7024" lon="6.97242">
        <ele>547.1</ele>
        <time>2009-03-15T14:25:53Z</time>
      </trkpt>
      <trkpt lat="43.70233" lon="6.97279">
        <ele>543.3</ele>
        <time>2009-03-15T14:25:58Z</time>
      </trkpt>
      <trkpt lat="43.7023" lon="6.97267">
        <ele>537</ele>
        <time>2009-03-15T14:26:09Z</time>
      </trkpt>
      <trkpt lat="43.7023" lon="6.97225">
        <ele>532.2</ele>
        <time>2009-03-15T14:26:16Z</time>
      </trkpt>
      <trkpt lat="43.70225" lon="6.97183">
        <ele>527.4</ele>
        <time>2009-03-15T14:26:23Z</time>
      </trkpt>
      <trkpt lat="43.70215" lon="6.97189">
        <ele>527.9</ele>
        <time>2009-03-15T14:26:32Z</time>
      </trkpt>
      <trkpt lat="43.70213" lon="6.97231">
        <ele>525</ele>
        <time>2009-03-15T14:26:40Z</time>
      </trkpt>
      <trkpt lat="43.70207" lon="6.97268">
        <ele>522.1</ele>
        <time>2009-03-15T14:26:47Z</time>
      </trkpt>
      <trkpt lat="43.70192" lon="6.97304">
        <ele>516.8</ele>
        <time>2009-03-15T14:26:54Z</time>
      </trkpt>
      <trkpt lat="43.70172" lon="6.97331">
        <ele>511.6</ele>
        <time>2009-03-15T14:27:01Z</time>
      </trkpt>
      <trkpt lat="43.70162" lon="6.97348">
        <ele>499.1</ele>
        <time>2009-03-15T14:28:23Z</time>
      </trkpt>
      <trkpt lat="43.70164" lon="6.97309">
        <ele>496.7</ele>
        <time>2009-03-15T14:28:37Z</time>
      </trkpt>
      <trkpt lat="43.70161" lon="6.97265">
        <ele>496.7</ele>
        <time>2009-03-15T14:29:25Z</time>
      </trkpt>
      <trkpt lat="43.70161" lon="6.97269">
        <ele>492.3</ele>
        <time>2009-03-15T14:31:14Z</time>
      </trkpt>
      <trkpt lat="43.70163" lon="6.97313">
        <ele>493.3</ele>
        <time>2009-03-15T14:31:37Z</time>
      </trkpt>
      <trkpt lat="43.7016" lon="6.97355">
        <ele>496.7</ele>
        <time>2009-03-15T14:31:59Z</time>
      </trkpt>
      <trkpt lat="43.70179" lon="6.97336">
        <ele>500</ele>
        <time>2009-03-15T14:32:27Z</time>
      </trkpt>
      <trkpt lat="43.70196" lon="6.97305">
        <ele>506.3</ele>
        <time>2009-03-15T14:33:00Z</time>
      </trkpt>
      <trkpt lat="43.70209" lon="6.97267">
        <ele>517.8</ele>
        <time>2009-03-15T14:33:37Z</time>
      </trkpt>
      <trkpt lat="43.70216" lon="6.97228">
        <ele>520.2</ele>
        <time>2009-03-15T14:34:12Z</time>
      </trkpt>
      <trkpt lat="43.70217" lon="6.97188">
        <ele>520.2</ele>
        <time>2009-03-15T14:34:25Z</time>
      </trkpt>
      <trkpt lat="43.70213" lon="6.9715">
        <ele>523.1</ele>
        <time>2009-03-15T14:34:58Z</time>
      </trkpt>
      <trkpt lat="43.70198" lon="6.97114">
        <ele>518.8</ele>
        <time>2009-03-15T14:35:12Z</time>
      </trkpt>
      <trkpt lat="43.70184" lon="6.97075">
        <ele>511.1</ele>
        <time>2009-03-15T14:35:32Z</time>
      </trkpt>
      <trkpt lat="43.7017" lon="6.9704">
        <ele>500.5</ele>
        <time>2009-03-15T14:36:13Z</time>
      </trkpt>
      <trkpt lat="43.70168" lon="6.97">
        <ele>501.9</ele>
        <time>2009-03-15T14:36:28Z</time>
      </trkpt>
      <trkpt lat="43.70166" lon="6.96959">
        <ele>504.3</ele>
        <time>2009-03-15T14:36:38Z</time>
      </trkpt>
      <trkpt lat="43.70165" lon="6.96915">
        <ele>503.4</ele>
        <time>2009-03-15T14:36:47Z</time>
      </trkpt>
      <trkpt lat="43.70166" lon="6.96875">
        <ele>503.4</ele>
        <time>2009-03-15T14:36:55Z</time>
      </trkpt>
      <trkpt lat="43.70172" lon="6.96835">
        <ele>502.9</ele>
        <time>2009-03-15T14:37:05Z</time>
      </trkpt>
      <trkpt lat="43.70174" lon="6.96786">
        <ele>502.4</ele>
        <time>2009-03-15T14:37:13Z</time>
      </trkpt>
      <trkpt lat="43.70172" lon="6.96743">
        <ele>501.5</ele>
        <time>2009-03-15T14:37:22Z</time>
      </trkpt>
      <trkpt lat="43.7015" lon="6.96742">
        <ele>501.9</ele>
        <time>2009-03-15T14:37:34Z</time>
      </trkpt>
      <trkpt lat="43.70139" lon="6.9678">
        <ele>501.9</ele>
        <time>2009-03-15T14:37:53Z</time>
      </trkpt>
      <trkpt lat="43.70111" lon="6.96794">
        <ele>498.6</ele>
        <time>2009-03-15T14:38:07Z</time>
      </trkpt>
      <trkpt lat="43.70083" lon="6.96811">
        <ele>499.5</ele>
        <time>2009-03-15T14:38:20Z</time>
      </trkpt>
      <trkpt lat="43.70049" lon="6.96859">
        <ele>501</ele>
        <time>2009-03-15T14:38:51Z</time>
      </trkpt>
      <trkpt lat="43.70019" lon="6.96874">
        <ele>502.4</ele>
        <time>2009-03-15T14:39:18Z</time>
      </trkpt>
      <trkpt lat="43.6999" lon="6.96888">
        <ele>501.5</ele>
        <time>2009-03-15T14:39:27Z</time>
      </trkpt>
      <trkpt lat="43.69961" lon="6.96904">
        <ele>501.5</ele>
        <time>2009-03-15T14:39:36Z</time>
      </trkpt>
      <trkpt lat="43.69931" lon="6.96915">
        <ele>500</ele>
        <time>2009-03-15T14:39:44Z</time>
      </trkpt>
      <trkpt lat="43.69903" lon="6.96915">
        <ele>498.6</ele>
        <time>2009-03-15T14:39:52Z</time>
      </trkpt>
      <trkpt lat="43.69877" lon="6.96902">
        <ele>498.6</ele>
        <time>2009-03-15T14:40:00Z</time>
      </trkpt>
      <trkpt lat="43.69848" lon="6.96897">
        <ele>499.1</ele>
        <time>2009-03-15T14:40:08Z</time>
      </trkpt>
      <trkpt lat="43.6982" lon="6.96894">
        <ele>500</ele>
        <time>2009-03-15T14:40:16Z</time>
      </trkpt>
      <trkpt lat="43.69792" lon="6.96886">
        <ele>500</ele>
        <time>2009-03-15T14:40:24Z</time>
      </trkpt>
      <trkpt lat="43.69765" lon="6.96891">
        <ele>500.5</ele>
        <time>2009-03-15T14:40:31Z</time>
      </trkpt>
      <trkpt lat="43.69739" lon="6.969">
        <ele>501.9</ele>
        <time>2009-03-15T14:40:38Z</time>
      </trkpt>
      <trkpt lat="43.69712" lon="6.9691">
        <ele>502.9</ele>
        <time>2009-03-15T14:40:45Z</time>
      </trkpt>
      <trkpt lat="43.69685" lon="6.96915">
        <ele>503.4</ele>
        <time>2009-03-15T14:40:52Z</time>
      </trkpt>
      <trkpt lat="43.69665" lon="6.96939">
        <ele>504.3</ele>
        <time>2009-03-15T14:41:01Z</time>
      </trkpt>
      <trkpt lat="43.69642" lon="6.96962">
        <ele>505.8</ele>
        <time>2009-03-15T14:41:10Z</time>
      </trkpt>
      <trkpt lat="43.6962" lon="6.96989">
        <ele>506.3</ele>
        <time>2009-03-15T14:41:19Z</time>
      </trkpt>
      <trkpt lat="43.69602" lon="6.97022">
        <ele>505.8</ele>
        <time>2009-03-15T14:41:27Z</time>
      </trkpt>
      <trkpt lat="43.69594" lon="6.9706">
        <ele>503.9</ele>
        <time>2009-03-15T14:41:35Z</time>
      </trkpt>
      <trkpt lat="43.69575" lon="6.97092">
        <ele>504.8</ele>
        <time>2009-03-15T14:41:44Z</time>
      </trkpt>
      <trkpt lat="43.6955" lon="6.97117">
        <ele>504.8</ele>
        <time>2009-03-15T14:41:54Z</time>
      </trkpt>
      <trkpt lat="43.69515" lon="6.97148">
        <ele>503.9</ele>
        <time>2009-03-15T14:42:04Z</time>
      </trkpt>
      <trkpt lat="43.69478" lon="6.97163">
        <ele>501</ele>
        <time>2009-03-15T14:42:33Z</time>
      </trkpt>
      <trkpt lat="43.69462" lon="6.97197">
        <ele>500</ele>
        <time>2009-03-15T14:43:05Z</time>
      </trkpt>
      <trkpt lat="43.69444" lon="6.97227">
        <ele>496.7</ele>
        <time>2009-03-15T14:43:22Z</time>
      </trkpt>
      <trkpt lat="43.69418" lon="6.97232">
        <ele>497.1</ele>
        <time>2009-03-15T14:43:31Z</time>
      </trkpt>
      <trkpt lat="43.6939" lon="6.97221">
        <ele>494.3</ele>
        <time>2009-03-15T14:43:41Z</time>
      </trkpt>
      <trkpt lat="43.69359" lon="6.97232">
        <ele>493.8</ele>
        <time>2009-03-15T14:44:03Z</time>
      </trkpt>
      <trkpt lat="43.69325" lon="6.97251">
        <ele>491.9</ele>
        <time>2009-03-15T14:44:43Z</time>
      </trkpt>
      <trkpt lat="43.69296" lon="6.97274">
        <ele>490.4</ele>
        <time>2009-03-15T14:44:52Z</time>
      </trkpt>
      <trkpt lat="43.69269" lon="6.97294">
        <ele>489.4</ele>
        <time>2009-03-15T14:45:01Z</time>
      </trkpt>
      <trkpt lat="43.69251" lon="6.97328">
        <ele>489</ele>
        <time>2009-03-15T14:45:09Z</time>
      </trkpt>
      <trkpt lat="43.69237" lon="6.97361">
        <ele>489.9</ele>
        <time>2009-03-15T14:45:18Z</time>
      </trkpt>
      <trkpt lat="43.69214" lon="6.97392">
        <ele>491.9</ele>
        <time>2009-03-15T14:45:30Z</time>
      </trkpt>
      <trkpt lat="43.69187" lon="6.97411">
        <ele>491.9</ele>
        <time>2009-03-15T14:45:39Z</time>
      </trkpt>
      <trkpt lat="43.69162" lon="6.97426">
        <ele>492.3</ele>
        <time>2009-03-15T14:45:49Z</time>
      </trkpt>
      <trkpt lat="43.69123" lon="6.97435">
        <ele>496.7</ele>
        <time>2009-03-15T14:46:28Z</time>
      </trkpt>
      <trkpt lat="43.69092" lon="6.97439">
        <ele>498.1</ele>
        <time>2009-03-15T14:46:39Z</time>
      </trkpt>
      <trkpt lat="43.69061" lon="6.97453">
        <ele>498.1</ele>
        <time>2009-03-15T14:46:49Z</time>
      </trkpt>
      <trkpt lat="43.69037" lon="6.97473">
        <ele>496.7</ele>
        <time>2009-03-15T14:47:17Z</time>
      </trkpt>
      <trkpt lat="43.69008" lon="6.97439">
        <ele>493.8</ele>
        <time>2009-03-15T14:48:15Z</time>
      </trkpt>
      <trkpt lat="43.68981" lon="6.97426">
        <ele>492.8</ele>
        <time>2009-03-15T14:48:27Z</time>
      </trkpt>
      <trkpt lat="43.68951" lon="6.97416">
        <ele>490.4</ele>
        <time>2009-03-15T14:48:40Z</time>
      </trkpt>
      <trkpt lat="43.68935" lon="6.97398">
        <ele>491.9</ele>
        <time>2009-03-15T14:51:28Z</time>
      </trkpt>
      <trkpt lat="43.68904" lon="6.97392">
        <ele>489.4</ele>
        <time>2009-03-15T14:51:34Z</time>
      </trkpt>
      <trkpt lat="43.68874" lon="6.97389">
        <ele>487</ele>
        <time>2009-03-15T14:51:38Z</time>
      </trkpt>
      <trkpt lat="43.6884" lon="6.97389">
        <ele>485.1</ele>
        <time>2009-03-15T14:51:42Z</time>
      </trkpt>
      <trkpt lat="43.68812" lon="6.974">
        <ele>482.7</ele>
        <time>2009-03-15T14:51:45Z</time>
      </trkpt>
      <trkpt lat="43.68786" lon="6.9742">
        <ele>481.3</ele>
        <time>2009-03-15T14:51:48Z</time>
      </trkpt>
      <trkpt lat="43.68764" lon="6.97449">
        <ele>479.4</ele>
        <time>2009-03-15T14:51:51Z</time>
      </trkpt>
      <trkpt lat="43.68742" lon="6.97484">
        <ele>475.5</ele>
        <time>2009-03-15T14:51:54Z</time>
      </trkpt>
      <trkpt lat="43.68714" lon="6.97509">
        <ele>469.3</ele>
        <time>2009-03-15T14:51:57Z</time>
      </trkpt>
      <trkpt lat="43.68679" lon="6.97512">
        <ele>467.8</ele>
        <time>2009-03-15T14:52:00Z</time>
      </trkpt>
      <trkpt lat="43.68642" lon="6.97503">
        <ele>463.5</ele>
        <time>2009-03-15T14:52:03Z</time>
      </trkpt>
      <trkpt lat="43.68606" lon="6.97497">
        <ele>459.6</ele>
        <time>2009-03-15T14:52:06Z</time>
      </trkpt>
      <trkpt lat="43.68572" lon="6.97481">
        <ele>456.8</ele>
        <time>2009-03-15T14:52:09Z</time>
      </trkpt>
      <trkpt lat="43.68537" lon="6.97466">
        <ele>454.8</ele>
        <time>2009-03-15T14:52:12Z</time>
      </trkpt>
      <trkpt lat="43.68503" lon="6.97481">
        <ele>451.5</ele>
        <time>2009-03-15T14:52:15Z</time>
      </trkpt>
      <trkpt lat="43.6847" lon="6.97473">
        <ele>448.6</ele>
        <time>2009-03-15T14:52:18Z</time>
      </trkpt>
      <trkpt lat="43.68439" lon="6.97448">
        <ele>445.7</ele>
        <time>2009-03-15T14:52:21Z</time>
      </trkpt>
      <trkpt lat="43.68407" lon="6.97427">
        <ele>443.8</ele>
        <time>2009-03-15T14:52:24Z</time>
      </trkpt>
      <trkpt lat="43.6838" lon="6.97392">
        <ele>441.4</ele>
        <time>2009-03-15T14:52:27Z</time>
      </trkpt>
      <trkpt lat="43.68362" lon="6.97345">
        <ele>439</ele>
        <time>2009-03-15T14:52:30Z</time>
      </trkpt>
      <trkpt lat="43.68341" lon="6.97307">
        <ele>438</ele>
        <time>2009-03-15T14:52:33Z</time>
      </trkpt>
      <trkpt lat="43.68313" lon="6.97279">
        <ele>436.1</ele>
        <time>2009-03-15T14:52:36Z</time>
      </trkpt>
      <trkpt lat="43.68283" lon="6.97253">
        <ele>432.7</ele>
        <time>2009-03-15T14:52:39Z</time>
      </trkpt>
      <trkpt lat="43.68255" lon="6.9722">
        <ele>429.8</ele>
        <time>2009-03-15T14:52:42Z</time>
      </trkpt>
      <trkpt lat="43.68238" lon="6.97175">
        <ele>427</ele>
        <time>2009-03-15T14:52:45Z</time>
      </trkpt>
      <trkpt lat="43.68225" lon="6.97128">
        <ele>424.1</ele>
        <time>2009-03-15T14:52:48Z</time>
      </trkpt>
      <trkpt lat="43.68199" lon="6.97102">
        <ele>421.7</ele>
        <time>2009-03-15T14:52:51Z</time>
      </trkpt>
      <trkpt lat="43.68168" lon="6.97113">
        <ele>420.2</ele>
        <time>2009-03-15T14:52:54Z</time>
      </trkpt>
      <trkpt lat="43.6814" lon="6.9714">
        <ele>416.4</ele>
        <time>2009-03-15T14:52:57Z</time>
      </trkpt>
      <trkpt lat="43.68113" lon="6.97165">
        <ele>412.5</ele>
        <time>2009-03-15T14:53:00Z</time>
      </trkpt>
      <trkpt lat="43.68085" lon="6.97175">
        <ele>409.7</ele>
        <time>2009-03-15T14:53:04Z</time>
      </trkpt>
      <trkpt lat="43.6806" lon="6.97148">
        <ele>408.7</ele>
        <time>2009-03-15T14:53:10Z</time>
      </trkpt>
      <trkpt lat="43.68037" lon="6.97155">
        <ele>410.1</ele>
        <time>2009-03-15T14:53:16Z</time>
      </trkpt>
      <trkpt lat="43.68058" lon="6.97178">
        <ele>410.1</ele>
        <time>2009-03-15T14:53:25Z</time>
      </trkpt>
      <trkpt lat="43.6806" lon="6.97216">
        <ele>409.7</ele>
        <time>2009-03-15T14:53:35Z</time>
      </trkpt>
      <trkpt lat="43.68062" lon="6.9718">
        <ele>409.7</ele>
        <time>2009-03-15T14:53:45Z</time>
      </trkpt>
      <trkpt lat="43.68052" lon="6.97141">
        <ele>408.7</ele>
        <time>2009-03-15T14:53:53Z</time>
      </trkpt>
      <trkpt lat="43.68026" lon="6.9715">
        <ele>409.2</ele>
        <time>2009-03-15T14:53:58Z</time>
      </trkpt>
      <trkpt lat="43.68042" lon="6.97163">
        <ele>411.1</ele>
        <time>2009-03-15T14:54:06Z</time>
      </trkpt>
      <trkpt lat="43.68057" lon="6.97134">
        <ele>409.7</ele>
        <time>2009-03-15T14:54:13Z</time>
      </trkpt>
      <trkpt lat="43.6806" lon="6.97092">
        <ele>406.8</ele>
        <time>2009-03-15T14:54:19Z</time>
      </trkpt>
      <trkpt lat="43.68069" lon="6.9705">
        <ele>405.3</ele>
        <time>2009-03-15T14:54:25Z</time>
      </trkpt>
      <trkpt lat="43.6808" lon="6.97016">
        <ele>403.4</ele>
        <time>2009-03-15T14:54:37Z</time>
      </trkpt>
      <trkpt lat="43.68066" lon="6.97056">
        <ele>406.8</ele>
        <time>2009-03-15T14:59:19Z</time>
      </trkpt>
      <trkpt lat="43.68057" lon="6.97097">
        <ele>408.7</ele>
        <time>2009-03-15T14:59:25Z</time>
      </trkpt>
      <trkpt lat="43.68041" lon="6.97129">
        <ele>408.2</ele>
        <time>2009-03-15T14:59:30Z</time>
      </trkpt>
      <trkpt lat="43.68018" lon="6.9716">
        <ele>406.3</ele>
        <time>2009-03-15T14:59:35Z</time>
      </trkpt>
      <trkpt lat="43.67994" lon="6.97194">
        <ele>404.9</ele>
        <time>2009-03-15T14:59:39Z</time>
      </trkpt>
      <trkpt lat="43.67969" lon="6.97231">
        <ele>404.4</ele>
        <time>2009-03-15T14:59:43Z</time>
      </trkpt>
      <trkpt lat="43.6795" lon="6.97258">
        <ele>402.9</ele>
        <time>2009-03-15T14:59:46Z</time>
      </trkpt>
      <trkpt lat="43.67925" lon="6.97292">
        <ele>402.4</ele>
        <time>2009-03-15T14:59:50Z</time>
      </trkpt>
      <trkpt lat="43.67894" lon="6.97307">
        <ele>402</ele>
        <time>2009-03-15T14:59:54Z</time>
      </trkpt>
      <trkpt lat="43.67869" lon="6.97332">
        <ele>400</ele>
        <time>2009-03-15T14:59:58Z</time>
      </trkpt>
      <trkpt lat="43.67857" lon="6.97369">
        <ele>399.6</ele>
        <time>2009-03-15T15:00:02Z</time>
      </trkpt>
      <trkpt lat="43.67839" lon="6.97404">
        <ele>399.6</ele>
        <time>2009-03-15T15:00:06Z</time>
      </trkpt>
      <trkpt lat="43.67808" lon="6.97424">
        <ele>398.6</ele>
        <time>2009-03-15T15:00:10Z</time>
      </trkpt>
      <trkpt lat="43.67774" lon="6.9744">
        <ele>397.2</ele>
        <time>2009-03-15T15:00:14Z</time>
      </trkpt>
      <trkpt lat="43.67746" lon="6.97445">
        <ele>394.8</ele>
        <time>2009-03-15T15:00:17Z</time>
      </trkpt>
      <trkpt lat="43.67719" lon="6.97461">
        <ele>392.8</ele>
        <time>2009-03-15T15:00:20Z</time>
      </trkpt>
      <trkpt lat="43.67691" lon="6.97477">
        <ele>391.4</ele>
        <time>2009-03-15T15:00:23Z</time>
      </trkpt>
      <trkpt lat="43.67664" lon="6.97494">
        <ele>391.4</ele>
        <time>2009-03-15T15:00:26Z</time>
      </trkpt>
      <trkpt lat="43.67642" lon="6.97515">
        <ele>391.4</ele>
        <time>2009-03-15T15:00:29Z</time>
      </trkpt>
      <trkpt lat="43.67625" lon="6.97549">
        <ele>391.9</ele>
        <time>2009-03-15T15:00:32Z</time>
      </trkpt>
      <trkpt lat="43.67611" lon="6.97585">
        <ele>391.4</ele>
        <time>2009-03-15T15:00:35Z</time>
      </trkpt>
      <trkpt lat="43.67593" lon="6.97627">
        <ele>390.9</ele>
        <time>2009-03-15T15:00:39Z</time>
      </trkpt>
      <trkpt lat="43.67569" lon="6.97662">
        <ele>390</ele>
        <time>2009-03-15T15:00:43Z</time>
      </trkpt>
      <trkpt lat="43.67548" lon="6.97684">
        <ele>390.4</ele>
        <time>2009-03-15T15:00:46Z</time>
      </trkpt>
      <trkpt lat="43.67531" lon="6.97717">
        <ele>389</ele>
        <time>2009-03-15T15:00:49Z</time>
      </trkpt>
      <trkpt lat="43.67509" lon="6.97748">
        <ele>384.7</ele>
        <time>2009-03-15T15:00:52Z</time>
      </trkpt>
      <trkpt lat="43.67481" lon="6.97771">
        <ele>380.3</ele>
        <time>2009-03-15T15:00:55Z</time>
      </trkpt>
      <trkpt lat="43.67455" lon="6.97795">
        <ele>378.4</ele>
        <time>2009-03-15T15:00:58Z</time>
      </trkpt>
      <trkpt lat="43.6745" lon="6.97832">
        <ele>375.5</ele>
        <time>2009-03-15T15:01:02Z</time>
      </trkpt>
      <trkpt lat="43.67479" lon="6.97823">
        <ele>370.7</ele>
        <time>2009-03-15T15:01:06Z</time>
      </trkpt>
      <trkpt lat="43.67503" lon="6.97793">
        <ele>369.8</ele>
        <time>2009-03-15T15:01:09Z</time>
      </trkpt>
      <trkpt lat="43.67533" lon="6.97771">
        <ele>367.4</ele>
        <time>2009-03-15T15:01:12Z</time>
      </trkpt>
      <trkpt lat="43.67566" lon="6.9775">
        <ele>364.5</ele>
        <time>2009-03-15T15:01:15Z</time>
      </trkpt>
      <trkpt lat="43.67597" lon="6.97727">
        <ele>362.1</ele>
        <time>2009-03-15T15:01:18Z</time>
      </trkpt>
      <trkpt lat="43.67628" lon="6.97715">
        <ele>361.6</ele>
        <time>2009-03-15T15:01:22Z</time>
      </trkpt>
      <trkpt lat="43.67631" lon="6.9775">
        <ele>359.2</ele>
        <time>2009-03-15T15:01:26Z</time>
      </trkpt>
      <trkpt lat="43.6761" lon="6.97776">
        <ele>356.3</ele>
        <time>2009-03-15T15:01:29Z</time>
      </trkpt>
      <trkpt lat="43.6759" lon="6.97811">
        <ele>353.4</ele>
        <time>2009-03-15T15:01:32Z</time>
      </trkpt>
      <trkpt lat="43.6757" lon="6.97852">
        <ele>350.5</ele>
        <time>2009-03-15T15:01:35Z</time>
      </trkpt>
      <trkpt lat="43.67547" lon="6.97894">
        <ele>347.2</ele>
        <time>2009-03-15T15:01:38Z</time>
      </trkpt>
      <trkpt lat="43.67517" lon="6.97929">
        <ele>343.8</ele>
        <time>2009-03-15T15:01:41Z</time>
      </trkpt>
      <trkpt lat="43.67496" lon="6.97951">
        <ele>340.4</ele>
        <time>2009-03-15T15:01:43Z</time>
      </trkpt>
      <trkpt lat="43.67474" lon="6.97973">
        <ele>338.5</ele>
        <time>2009-03-15T15:01:45Z</time>
      </trkpt>
      <trkpt lat="43.6745" lon="6.97995">
        <ele>336.6</ele>
        <time>2009-03-15T15:01:47Z</time>
      </trkpt>
      <trkpt lat="43.67429" lon="6.9802">
        <ele>335.2</ele>
        <time>2009-03-15T15:01:49Z</time>
      </trkpt>
      <trkpt lat="43.67407" lon="6.98046">
        <ele>332.8</ele>
        <time>2009-03-15T15:01:51Z</time>
      </trkpt>
      <trkpt lat="43.67384" lon="6.98076">
        <ele>329.9</ele>
        <time>2009-03-15T15:01:53Z</time>
      </trkpt>
      <trkpt lat="43.67359" lon="6.98105">
        <ele>327.5</ele>
        <time>2009-03-15T15:01:55Z</time>
      </trkpt>
      <trkpt lat="43.67332" lon="6.98129">
        <ele>326.5</ele>
        <time>2009-03-15T15:01:57Z</time>
      </trkpt>
      <trkpt lat="43.67307" lon="6.98151">
        <ele>323.6</ele>
        <time>2009-03-15T15:01:59Z</time>
      </trkpt>
      <trkpt lat="43.6728" lon="6.98171">
        <ele>321.2</ele>
        <time>2009-03-15T15:02:01Z</time>
      </trkpt>
      <trkpt lat="43.67253" lon="6.98192">
        <ele>315.9</ele>
        <time>2009-03-15T15:02:03Z</time>
      </trkpt>
      <trkpt lat="43.67228" lon="6.98219">
        <ele>310.2</ele>
        <time>2009-03-15T15:02:05Z</time>
      </trkpt>
      <trkpt lat="43.67204" lon="6.98248">
        <ele>303.4</ele>
        <time>2009-03-15T15:02:07Z</time>
      </trkpt>
      <trkpt lat="43.67178" lon="6.98273">
        <ele>301</ele>
        <time>2009-03-15T15:02:09Z</time>
      </trkpt>
      <trkpt lat="43.67151" lon="6.98294">
        <ele>294.8</ele>
        <time>2009-03-15T15:02:11Z</time>
      </trkpt>
      <trkpt lat="43.67124" lon="6.98312">
        <ele>288.1</ele>
        <time>2009-03-15T15:02:13Z</time>
      </trkpt>
      <trkpt lat="43.67096" lon="6.98329">
        <ele>282.3</ele>
        <time>2009-03-15T15:02:15Z</time>
      </trkpt>
      <trkpt lat="43.67069" lon="6.98346">
        <ele>277.5</ele>
        <time>2009-03-15T15:02:17Z</time>
      </trkpt>
      <trkpt lat="43.67041" lon="6.98362">
        <ele>271.7</ele>
        <time>2009-03-15T15:02:19Z</time>
      </trkpt>
      <trkpt lat="43.67014" lon="6.98378">
        <ele>268.8</ele>
        <time>2009-03-15T15:02:21Z</time>
      </trkpt>
      <trkpt lat="43.6699" lon="6.98397">
        <ele>266.9</ele>
        <time>2009-03-15T15:02:23Z</time>
      </trkpt>
      <trkpt lat="43.66958" lon="6.98427">
        <ele>265.9</ele>
        <time>2009-03-15T15:02:26Z</time>
      </trkpt>
      <trkpt lat="43.66923" lon="6.98441">
        <ele>262.6</ele>
        <time>2009-03-15T15:02:29Z</time>
      </trkpt>
      <trkpt lat="43.6689" lon="6.98446">
        <ele>260.2</ele>
        <time>2009-03-15T15:02:32Z</time>
      </trkpt>
      <trkpt lat="43.66859" lon="6.98451">
        <ele>258.3</ele>
        <time>2009-03-15T15:02:35Z</time>
      </trkpt>
      <trkpt lat="43.6683" lon="6.98448">
        <ele>255.8</ele>
        <time>2009-03-15T15:02:38Z</time>
      </trkpt>
      <trkpt lat="43.66802" lon="6.98441">
        <ele>254.9</ele>
        <time>2009-03-15T15:02:41Z</time>
      </trkpt>
      <trkpt lat="43.66768" lon="6.98455">
        <ele>254.4</ele>
        <time>2009-03-15T15:02:45Z</time>
      </trkpt>
      <trkpt lat="43.66736" lon="6.98454">
        <ele>253.4</ele>
        <time>2009-03-15T15:02:48Z</time>
      </trkpt>
      <trkpt lat="43.66704" lon="6.98456">
        <ele>253.4</ele>
        <time>2009-03-15T15:02:51Z</time>
      </trkpt>
      <trkpt lat="43.66671" lon="6.98467">
        <ele>252.5</ele>
        <time>2009-03-15T15:02:54Z</time>
      </trkpt>
      <trkpt lat="43.66641" lon="6.98486">
        <ele>251.5</ele>
        <time>2009-03-15T15:02:57Z</time>
      </trkpt>
      <trkpt lat="43.66611" lon="6.98504">
        <ele>247.7</ele>
        <time>2009-03-15T15:03:00Z</time>
      </trkpt>
      <trkpt lat="43.6658" lon="6.98521">
        <ele>247.2</ele>
        <time>2009-03-15T15:03:03Z</time>
      </trkpt>
      <trkpt lat="43.6655" lon="6.98538">
        <ele>245.3</ele>
        <time>2009-03-15T15:03:06Z</time>
      </trkpt>
      <trkpt lat="43.66522" lon="6.9856">
        <ele>243.8</ele>
        <time>2009-03-15T15:03:09Z</time>
      </trkpt>
      <trkpt lat="43.66494" lon="6.98582">
        <ele>242.9</ele>
        <time>2009-03-15T15:03:12Z</time>
      </trkpt>
      <trkpt lat="43.66467" lon="6.986">
        <ele>242.4</ele>
        <time>2009-03-15T15:03:15Z</time>
      </trkpt>
      <trkpt lat="43.66438" lon="6.98615">
        <ele>241.4</ele>
        <time>2009-03-15T15:03:18Z</time>
      </trkpt>
      <trkpt lat="43.66411" lon="6.98626">
        <ele>240</ele>
        <time>2009-03-15T15:03:21Z</time>
      </trkpt>
      <trkpt lat="43.66384" lon="6.98635">
        <ele>240.5</ele>
        <time>2009-03-15T15:03:24Z</time>
      </trkpt>
      <trkpt lat="43.6635" lon="6.98649">
        <ele>240</ele>
        <time>2009-03-15T15:03:28Z</time>
      </trkpt>
      <trkpt lat="43.66321" lon="6.98668">
        <ele>240.5</ele>
        <time>2009-03-15T15:03:32Z</time>
      </trkpt>
      <trkpt lat="43.66292" lon="6.9869">
        <ele>240</ele>
        <time>2009-03-15T15:03:36Z</time>
      </trkpt>
      <trkpt lat="43.66264" lon="6.98708">
        <ele>239</ele>
        <time>2009-03-15T15:03:40Z</time>
      </trkpt>
      <trkpt lat="43.66235" lon="6.9872">
        <ele>239.5</ele>
        <time>2009-03-15T15:03:44Z</time>
      </trkpt>
      <trkpt lat="43.66208" lon="6.98728">
        <ele>240</ele>
        <time>2009-03-15T15:03:48Z</time>
      </trkpt>
      <trkpt lat="43.66176" lon="6.98739">
        <ele>240</ele>
        <time>2009-03-15T15:03:53Z</time>
      </trkpt>
      <trkpt lat="43.66149" lon="6.98749">
        <ele>240.5</ele>
        <time>2009-03-15T15:03:58Z</time>
      </trkpt>
      <trkpt lat="43.6612" lon="6.98768">
        <ele>242.4</ele>
        <time>2009-03-15T15:04:04Z</time>
      </trkpt>
      <trkpt lat="43.66106" lon="6.988">
        <ele>241.9</ele>
        <time>2009-03-15T15:04:09Z</time>
      </trkpt>
      <trkpt lat="43.66095" lon="6.98838">
        <ele>242.4</ele>
        <time>2009-03-15T15:04:14Z</time>
      </trkpt>
      <trkpt lat="43.66086" lon="6.98878">
        <ele>242.9</ele>
        <time>2009-03-15T15:04:19Z</time>
      </trkpt>
      <trkpt lat="43.66078" lon="6.98922">
        <ele>242.4</ele>
        <time>2009-03-15T15:04:24Z</time>
      </trkpt>
      <trkpt lat="43.6607" lon="6.98959">
        <ele>241.9</ele>
        <time>2009-03-15T15:04:28Z</time>
      </trkpt>
      <trkpt lat="43.6606" lon="6.98997">
        <ele>240.9</ele>
        <time>2009-03-15T15:04:32Z</time>
      </trkpt>
      <trkpt lat="43.66047" lon="6.99031">
        <ele>240.5</ele>
        <time>2009-03-15T15:04:36Z</time>
      </trkpt>
      <trkpt lat="43.66033" lon="6.99068">
        <ele>240.9</ele>
        <time>2009-03-15T15:04:40Z</time>
      </trkpt>
      <trkpt lat="43.66017" lon="6.99103">
        <ele>241.4</ele>
        <time>2009-03-15T15:04:44Z</time>
      </trkpt>
      <trkpt lat="43.65999" lon="6.99134">
        <ele>241.4</ele>
        <time>2009-03-15T15:04:48Z</time>
      </trkpt>
      <trkpt lat="43.65977" lon="6.99162">
        <ele>241.4</ele>
        <time>2009-03-15T15:04:52Z</time>
      </trkpt>
      <trkpt lat="43.65954" lon="6.99193">
        <ele>241.4</ele>
        <time>2009-03-15T15:04:56Z</time>
      </trkpt>
      <trkpt lat="43.6593" lon="6.99225">
        <ele>241.9</ele>
        <time>2009-03-15T15:05:00Z</time>
      </trkpt>
      <trkpt lat="43.65907" lon="6.99255">
        <ele>240</ele>
        <time>2009-03-15T15:05:04Z</time>
      </trkpt>
      <trkpt lat="43.65886" lon="6.99286">
        <ele>238.5</ele>
        <time>2009-03-15T15:05:08Z</time>
      </trkpt>
      <trkpt lat="43.65868" lon="6.99324">
        <ele>239</ele>
        <time>2009-03-15T15:05:12Z</time>
      </trkpt>
      <trkpt lat="43.65857" lon="6.99362">
        <ele>238.1</ele>
        <time>2009-03-15T15:05:16Z</time>
      </trkpt>
      <trkpt lat="43.65848" lon="6.99402">
        <ele>236.1</ele>
        <time>2009-03-15T15:05:20Z</time>
      </trkpt>
      <trkpt lat="43.6584" lon="6.9944">
        <ele>235.7</ele>
        <time>2009-03-15T15:05:24Z</time>
      </trkpt>
      <trkpt lat="43.6583" lon="6.99485">
        <ele>235.7</ele>
        <time>2009-03-15T15:05:29Z</time>
      </trkpt>
      <trkpt lat="43.65821" lon="6.99525">
        <ele>234.7</ele>
        <time>2009-03-15T15:05:34Z</time>
      </trkpt>
      <trkpt lat="43.6581" lon="6.99556">
        <ele>233.7</ele>
        <time>2009-03-15T15:05:39Z</time>
      </trkpt>
      <trkpt lat="43.65807" lon="6.99599">
        <ele>235.2</ele>
        <time>2009-03-15T15:05:45Z</time>
      </trkpt>
      <trkpt lat="43.65794" lon="6.9963">
        <ele>235.7</ele>
        <time>2009-03-15T15:05:55Z</time>
      </trkpt>
      <trkpt lat="43.65778" lon="6.99663">
        <ele>237.6</ele>
        <time>2009-03-15T15:06:07Z</time>
      </trkpt>
      <trkpt lat="43.65763" lon="6.99696">
        <ele>241.4</ele>
        <time>2009-03-15T15:06:17Z</time>
      </trkpt>
      <trkpt lat="43.65747" lon="6.99732">
        <ele>244.3</ele>
        <time>2009-03-15T15:06:27Z</time>
      </trkpt>
      <trkpt lat="43.65731" lon="6.99769">
        <ele>247.7</ele>
        <time>2009-03-15T15:06:39Z</time>
      </trkpt>
      <trkpt lat="43.65718" lon="6.99806">
        <ele>249.6</ele>
        <time>2009-03-15T15:06:51Z</time>
      </trkpt>
      <trkpt lat="43.65703" lon="6.99841">
        <ele>251.5</ele>
        <time>2009-03-15T15:07:02Z</time>
      </trkpt>
      <trkpt lat="43.65684" lon="6.9987">
        <ele>256.3</ele>
        <time>2009-03-15T15:07:17Z</time>
      </trkpt>
      <trkpt lat="43.65667" lon="6.99911">
        <ele>262.6</ele>
        <time>2009-03-15T15:07:33Z</time>
      </trkpt>
      <trkpt lat="43.6566" lon="6.99952">
        <ele>268.3</ele>
        <time>2009-03-15T15:07:45Z</time>
      </trkpt>
      <trkpt lat="43.65649" lon="6.99997">
        <ele>267.4</ele>
        <time>2009-03-15T15:07:56Z</time>
      </trkpt>
      <trkpt lat="43.65632" lon="7.00034">
        <ele>265.5</ele>
        <time>2009-03-15T15:08:05Z</time>
      </trkpt>
      <trkpt lat="43.65616" lon="7.00066">
        <ele>266.9</ele>
        <time>2009-03-15T15:08:14Z</time>
      </trkpt>
      <trkpt lat="43.65595" lon="7.001">
        <ele>267.9</ele>
        <time>2009-03-15T15:08:25Z</time>
      </trkpt>
      <trkpt lat="43.65572" lon="7.00138">
        <ele>271.7</ele>
        <time>2009-03-15T15:08:37Z</time>
      </trkpt>
      <trkpt lat="43.6555" lon="7.00173">
        <ele>272.7</ele>
        <time>2009-03-15T15:08:50Z</time>
      </trkpt>
      <trkpt lat="43.6552" lon="7.00191">
        <ele>276</ele>
        <time>2009-03-15T15:09:03Z</time>
      </trkpt>
      <trkpt lat="43.65491" lon="7.00199">
        <ele>274.1</ele>
        <time>2009-03-15T15:09:12Z</time>
      </trkpt>
      <trkpt lat="43.65461" lon="7.00201">
        <ele>273.6</ele>
        <time>2009-03-15T15:09:19Z</time>
      </trkpt>
      <trkpt lat="43.65433" lon="7.00209">
        <ele>274.6</ele>
        <time>2009-03-15T15:09:25Z</time>
      </trkpt>
      <trkpt lat="43.6541" lon="7.00229">
        <ele>276</ele>
        <time>2009-03-15T15:09:31Z</time>
      </trkpt>
      <trkpt lat="43.65387" lon="7.00249">
        <ele>276</ele>
        <time>2009-03-15T15:09:37Z</time>
      </trkpt>
      <trkpt lat="43.6536" lon="7.00271">
        <ele>276.5</ele>
        <time>2009-03-15T15:09:44Z</time>
      </trkpt>
      <trkpt lat="43.65334" lon="7.00292">
        <ele>277.5</ele>
        <time>2009-03-15T15:09:50Z</time>
      </trkpt>
      <trkpt lat="43.65309" lon="7.00311">
        <ele>277.5</ele>
        <time>2009-03-15T15:09:56Z</time>
      </trkpt>
      <trkpt lat="43.65281" lon="7.00332">
        <ele>278</ele>
        <time>2009-03-15T15:10:03Z</time>
      </trkpt>
      <trkpt lat="43.65254" lon="7.00348">
        <ele>277.5</ele>
        <time>2009-03-15T15:10:09Z</time>
      </trkpt>
      <trkpt lat="43.65227" lon="7.00369">
        <ele>277</ele>
        <time>2009-03-15T15:10:14Z</time>
      </trkpt>
      <trkpt lat="43.65197" lon="7.00387">
        <ele>275.1</ele>
        <time>2009-03-15T15:10:19Z</time>
      </trkpt>
      <trkpt lat="43.65165" lon="7.00401">
        <ele>273.6</ele>
        <time>2009-03-15T15:10:24Z</time>
      </trkpt>
      <trkpt lat="43.65137" lon="7.00415">
        <ele>270.3</ele>
        <time>2009-03-15T15:10:28Z</time>
      </trkpt>
      <trkpt lat="43.65111" lon="7.00441">
        <ele>267.4</ele>
        <time>2009-03-15T15:10:32Z</time>
      </trkpt>
      <trkpt lat="43.65086" lon="7.00472">
        <ele>264.5</ele>
        <time>2009-03-15T15:10:36Z</time>
      </trkpt>
      <trkpt lat="43.65067" lon="7.00498">
        <ele>262.6</ele>
        <time>2009-03-15T15:10:39Z</time>
      </trkpt>
      <trkpt lat="43.65047" lon="7.00524">
        <ele>261.1</ele>
        <time>2009-03-15T15:10:42Z</time>
      </trkpt>
      <trkpt lat="43.65026" lon="7.00563">
        <ele>258.7</ele>
        <time>2009-03-15T15:10:46Z</time>
      </trkpt>
      <trkpt lat="43.65008" lon="7.00598">
        <ele>258.3</ele>
        <time>2009-03-15T15:10:50Z</time>
      </trkpt>
      <trkpt lat="43.64989" lon="7.0063">
        <ele>258.3</ele>
        <time>2009-03-15T15:10:54Z</time>
      </trkpt>
      <trkpt lat="43.6497" lon="7.00662">
        <ele>257.3</ele>
        <time>2009-03-15T15:10:58Z</time>
      </trkpt>
      <trkpt lat="43.64952" lon="7.00691">
        <ele>255.8</ele>
        <time>2009-03-15T15:11:02Z</time>
      </trkpt>
      <trkpt lat="43.64931" lon="7.00723">
        <ele>256.3</ele>
        <time>2009-03-15T15:11:07Z</time>
      </trkpt>
      <trkpt lat="43.64912" lon="7.00755">
        <ele>256.8</ele>
        <time>2009-03-15T15:11:13Z</time>
      </trkpt>
      <trkpt lat="43.64894" lon="7.00783">
        <ele>256.8</ele>
        <time>2009-03-15T15:11:19Z</time>
      </trkpt>
      <trkpt lat="43.64877" lon="7.00815">
        <ele>257.3</ele>
        <time>2009-03-15T15:11:25Z</time>
      </trkpt>
      <trkpt lat="43.64855" lon="7.00842">
        <ele>256.3</ele>
        <time>2009-03-15T15:11:31Z</time>
      </trkpt>
      <trkpt lat="43.64832" lon="7.00869">
        <ele>255.4</ele>
        <time>2009-03-15T15:11:37Z</time>
      </trkpt>
      <trkpt lat="43.64803" lon="7.00891">
        <ele>253.9</ele>
        <time>2009-03-15T15:11:43Z</time>
      </trkpt>
      <trkpt lat="43.64777" lon="7.00874">
        <ele>251.5</ele>
        <time>2009-03-15T15:11:48Z</time>
      </trkpt>
      <trkpt lat="43.64753" lon="7.00848">
        <ele>248.6</ele>
        <time>2009-03-15T15:11:52Z</time>
      </trkpt>
      <trkpt lat="43.64728" lon="7.00815">
        <ele>245.8</ele>
        <time>2009-03-15T15:11:56Z</time>
      </trkpt>
      <trkpt lat="43.64709" lon="7.00782">
        <ele>244.3</ele>
        <time>2009-03-15T15:11:59Z</time>
      </trkpt>
      <trkpt lat="43.64685" lon="7.00751">
        <ele>240.9</ele>
        <time>2009-03-15T15:12:02Z</time>
      </trkpt>
      <trkpt lat="43.64654" lon="7.00729">
        <ele>238.5</ele>
        <time>2009-03-15T15:12:05Z</time>
      </trkpt>
      <trkpt lat="43.64623" lon="7.00715">
        <ele>234.7</ele>
        <time>2009-03-15T15:12:08Z</time>
      </trkpt>
      <trkpt lat="43.64591" lon="7.00708">
        <ele>232.3</ele>
        <time>2009-03-15T15:12:11Z</time>
      </trkpt>
      <trkpt lat="43.64559" lon="7.00714">
        <ele>228.9</ele>
        <time>2009-03-15T15:12:14Z</time>
      </trkpt>
      <trkpt lat="43.64527" lon="7.00717">
        <ele>224.6</ele>
        <time>2009-03-15T15:12:17Z</time>
      </trkpt>
      <trkpt lat="43.64497" lon="7.00721">
        <ele>222.7</ele>
        <time>2009-03-15T15:12:20Z</time>
      </trkpt>
      <trkpt lat="43.64466" lon="7.00722">
        <ele>219.8</ele>
        <time>2009-03-15T15:12:23Z</time>
      </trkpt>
      <trkpt lat="43.64434" lon="7.00715">
        <ele>215</ele>
        <time>2009-03-15T15:12:26Z</time>
      </trkpt>
      <trkpt lat="43.64401" lon="7.00702">
        <ele>214</ele>
        <time>2009-03-15T15:12:29Z</time>
      </trkpt>
      <trkpt lat="43.6437" lon="7.00699">
        <ele>212.1</ele>
        <time>2009-03-15T15:12:32Z</time>
      </trkpt>
      <trkpt lat="43.6434" lon="7.00707">
        <ele>210.7</ele>
        <time>2009-03-15T15:12:35Z</time>
      </trkpt>
      <trkpt lat="43.64315" lon="7.00717">
        <ele>209.2</ele>
        <time>2009-03-15T15:12:38Z</time>
      </trkpt>
      <trkpt lat="43.64288" lon="7.0072">
        <ele>204.9</ele>
        <time>2009-03-15T15:12:44Z</time>
      </trkpt>
      <trkpt lat="43.64261" lon="7.00723">
        <ele>203.5</ele>
        <time>2009-03-15T15:12:52Z</time>
      </trkpt>
      <trkpt lat="43.64233" lon="7.00742">
        <ele>199.6</ele>
        <time>2009-03-15T15:13:01Z</time>
      </trkpt>
      <trkpt lat="43.64202" lon="7.00759">
        <ele>195.3</ele>
        <time>2009-03-15T15:13:06Z</time>
      </trkpt>
      <trkpt lat="43.64173" lon="7.00772">
        <ele>191.9</ele>
        <time>2009-03-15T15:13:10Z</time>
      </trkpt>
      <trkpt lat="43.64157" lon="7.00803">
        <ele>188.6</ele>
        <time>2009-03-15T15:13:23Z</time>
      </trkpt>
      <trkpt lat="43.64145" lon="7.00831">
        <ele>187.1</ele>
        <time>2009-03-15T15:13:43Z</time>
      </trkpt>
      <trkpt lat="43.64131" lon="7.00826">
        <ele>186.6</ele>
        <time>2009-03-15T15:13:59Z</time>
      </trkpt>
    </trkseg>
  </trk>
</gpx>